Wetterdaten: Donnerstag, 23.06.2016
Datum Zeit Temp. A. Temp. A. max Feuchte A. Luftdruck Regen Wind Richtung Richtung Sonnenschein ET UV Solar Taupunkt Windben
23.06.2016 00:00 15,8 C 15,8 C 93 % 1021,6 hPa 0,0 mm 0,0 km/h (0 Bft) S-SO 161 0 min 0,000 mm 0,0 UV-I 0 W/m 14,7 C 0,0 km/h (0 Bft)
23.06.2016 00:01 15,9 C 15,9 C 93 % 1021,6 hPa 0,0 mm 0,0 km/h (0 Bft) S-SO 161 0 min 0,000 mm 0,0 UV-I 0 W/m 14,8 C 0,0 km/h (0 Bft)
23.06.2016 00:02 16,1 C 16,1 C 93 % 1021,6 hPa 0,0 mm 1,1 km/h (1 Bft) S-SO 162 0 min 0,000 mm 0,0 UV-I 0 W/m 15,0 C 3,2 km/h (1 Bft)
23.06.2016 00:03 16,2 C 16,2 C 93 % 1021,6 hPa 0,0 mm 0,8 km/h (0 Bft) S-SO 162 0 min 0,000 mm 0,0 UV-I 0 W/m 15,1 C 1,6 km/h (1 Bft)
23.06.2016 00:04 16,3 C 16,3 C 92 % 1021,6 hPa 0,0 mm 0,4 km/h (0 Bft) S-SO 162 0 min 0,000 mm 0,0 UV-I 0 W/m 15,0 C 1,6 km/h (1 Bft)
23.06.2016 00:05 16,3 C 16,3 C 92 % 1021,6 hPa 0,0 mm 0,3 km/h (0 Bft) S-SO 162 0 min 0,000 mm 0,0 UV-I 0 W/m 15,0 C 1,6 km/h (1 Bft)
23.06.2016 00:06 16,3 C 16,3 C 92 % 1021,6 hPa 0,0 mm 0,4 km/h (0 Bft) S-SO 162 0 min 0,000 mm 0,0 UV-I 0 W/m 15,0 C 1,6 km/h (1 Bft)
23.06.2016 00:07 16,3 C 16,3 C 91 % 1021,6 hPa 0,0 mm 0,0 km/h (0 Bft) S-SO 162 0 min 0,000 mm 0,0 UV-I 0 W/m 14,8 C 0,0 km/h (0 Bft)
23.06.2016 00:08 16,3 C 16,3 C 91 % 1021,6 hPa 0,0 mm 0,0 km/h (0 Bft) S-SO 162 0 min 0,000 mm 0,0 UV-I 0 W/m 14,8 C 0,0 km/h (0 Bft)
23.06.2016 00:09 16,2 C 16,3 C 91 % 1021,6 hPa 0,0 mm 0,0 km/h (0 Bft) S-SO 162 0 min 0,000 mm 0,0 UV-I 0 W/m 14,7 C 0,0 km/h (0 Bft)
23.06.2016 00:10 16,1 C 16,2 C 91 % 1021,7 hPa 0,0 mm 0,0 km/h (0 Bft) S-SO 162 0 min 0,000 mm 0,0 UV-I 0 W/m 14,6 C 0,0 km/h (0 Bft)
23.06.2016 00:11 16,0 C 16,1 C 91 % 1021,7 hPa 0,0 mm 0,0 km/h (0 Bft) S-SO 162 0 min 0,000 mm 0,0 UV-I 0 W/m 14,5 C 0,0 km/h (0 Bft)
23.06.2016 00:12 15,9 C 16,0 C 91 % 1021,7 hPa 0,0 mm 0,0 km/h (0 Bft) S-SO 162 0 min 0,000 mm 0,0 UV-I 0 W/m 14,4 C 0,0 km/h (0 Bft)
23.06.2016 00:13 15,8 C 15,9 C 92 % 1021,6 hPa 0,0 mm 0,0 km/h (0 Bft) S-SO 162 0 min 0,000 mm 0,0 UV-I 0 W/m 14,5 C 0,0 km/h (0 Bft)
23.06.2016 00:14 15,8 C 15,8 C 93 % 1021,7 hPa 0,0 mm 0,0 km/h (0 Bft) S-SO 162 0 min 0,000 mm 0,0 UV-I 0 W/m 14,7 C 0,0 km/h (0 Bft)
23.06.2016 00:15 15,8 C 15,8 C 92 % 1021,6 hPa 0,0 mm 0,1 km/h (0 Bft) S-SO 162 0 min 0,000 mm 0,0 UV-I 0 W/m 14,5 C 1,6 km/h (1 Bft)
23.06.2016 00:16 15,9 C 15,9 C 92 % 1021,6 hPa 0,0 mm 0,3 km/h (0 Bft) S-SO 162 0 min 0,000 mm 0,0 UV-I 0 W/m 14,6 C 1,6 km/h (1 Bft)
23.06.2016 00:17 15,9 C 15,9 C 93 % 1021,6 hPa 0,0 mm 0,0 km/h (0 Bft) S-SO 162 0 min 0,000 mm 0,0 UV-I 0 W/m 14,8 C 0,0 km/h (0 Bft)
23.06.2016 00:18 15,8 C 15,9 C 92 % 1021,6 hPa 0,0 mm 0,0 km/h (0 Bft) S-SO 162 0 min 0,000 mm 0,0 UV-I 0 W/m 14,5 C 0,0 km/h (0 Bft)
23.06.2016 00:19 15,8 C 15,9 C 91 % 1021,6 hPa 0,0 mm 0,0 km/h (0 Bft) S-SO 162 0 min 0,000 mm 0,0 UV-I 0 W/m 14,3 C 0,0 km/h (0 Bft)
23.06.2016 00:20 15,7 C 15,8 C 91 % 1021,6 hPa 0,0 mm 0,0 km/h (0 Bft) S-SO 162 0 min 0,000 mm 0,0 UV-I 0 W/m 14,2 C 0,0 km/h (0 Bft)
23.06.2016 00:21 15,7 C 15,7 C 92 % 1021,6 hPa 0,0 mm 0,0 km/h (0 Bft) S-SO 162 0 min 0,000 mm 0,0 UV-I 0 W/m 14,4 C 0,0 km/h (0 Bft)
23.06.2016 00:22 15,7 C 15,7 C 92 % 1021,6 hPa 0,0 mm 0,1 km/h (0 Bft) S-SO 162 0 min 0,000 mm 0,0 UV-I 0 W/m 14,4 C 1,6 km/h (1 Bft)
23.06.2016 00:23 15,7 C 15,7 C 93 % 1021,5 hPa 0,0 mm 0,1 km/h (0 Bft) S-SO 162 0 min 0,000 mm 0,0 UV-I 0 W/m 14,6 C 1,6 km/h (1 Bft)
23.06.2016 00:24 15,8 C 15,8 C 93 % 1021,6 hPa 0,0 mm 0,5 km/h (0 Bft) S-SO 162 0 min 0,000 mm 0,0 UV-I 0 W/m 14,7 C 1,6 km/h (1 Bft)
23.06.2016 00:25 15,9 C 15,9 C 93 % 1021,6 hPa 0,0 mm 1,7 km/h (1 Bft) S-SO 162 0 min 0,000 mm 0,0 UV-I 0 W/m 14,8 C 3,2 km/h (1 Bft)
23.06.2016 00:26 15,9 C 15,9 C 93 % 1021,6 hPa 0,0 mm 2,2 km/h (1 Bft) S-SO 162 0 min 0,000 mm 0,0 UV-I 0 W/m 14,8 C 3,2 km/h (1 Bft)
23.06.2016 00:27 16,0 C 16,0 C 92 % 1021,7 hPa 0,0 mm 0,9 km/h (0 Bft) S-SO 162 0 min 0,000 mm 0,0 UV-I 0 W/m 14,7 C 3,2 km/h (1 Bft)
23.06.2016 00:28 16,1 C 16,1 C 92 % 1021,7 hPa 0,0 mm 0,2 km/h (0 Bft) S-SO 162 0 min 0,000 mm 0,0 UV-I 0 W/m 14,8 C 1,6 km/h (1 Bft)
23.06.2016 00:29 16,1 C 16,1 C 92 % 1021,7 hPa 0,0 mm 0,3 km/h (0 Bft) S-SO 162 0 min 0,000 mm 0,0 UV-I 0 W/m 14,8 C 1,6 km/h (1 Bft)
23.06.2016 00:30 16,0 C 16,1 C 92 % 1021,7 hPa 0,0 mm 0,0 km/h (0 Bft) S-SO 162 0 min 0,000 mm 0,0 UV-I 0 W/m 14,7 C 0,0 km/h (0 Bft)
23.06.2016 00:31 16,0 C 16,1 C 92 % 1021,7 hPa 0,0 mm 0,0 km/h (0 Bft) S-SO 162 0 min 0,000 mm 0,0 UV-I 0 W/m 14,7 C 0,0 km/h (0 Bft)
23.06.2016 00:32 15,9 C 16,0 C 91 % 1021,7 hPa 0,0 mm 0,0 km/h (0 Bft) S-SO 162 0 min 0,000 mm 0,0 UV-I 0 W/m 14,4 C 0,0 km/h (0 Bft)
23.06.2016 00:33 15,8 C 15,9 C 91 % 1021,7 hPa 0,0 mm 0,0 km/h (0 Bft) S-SO 162 0 min 0,000 mm 0,0 UV-I 0 W/m 14,3 C 0,0 km/h (0 Bft)
23.06.2016 00:34 15,7 C 15,8 C 91 % 1021,7 hPa 0,0 mm 0,0 km/h (0 Bft) S-SO 162 0 min 0,000 mm 0,0 UV-I 0 W/m 14,2 C 0,0 km/h (0 Bft)
23.06.2016 00:35 15,5 C 15,7 C 91 % 1021,8 hPa 0,0 mm 0,0 km/h (0 Bft) S-SO 162 0 min 0,000 mm 0,0 UV-I 0 W/m 14,0 C 0,0 km/h (0 Bft)
23.06.2016 00:36 15,4 C 15,5 C 92 % 1021,7 hPa 0,0 mm 0,0 km/h (0 Bft) S-SO 162 0 min 0,000 mm 0,0 UV-I 0 W/m 14,1 C 0,0 km/h (0 Bft)
23.06.2016 00:37 15,3 C 15,4 C 93 % 1021,7 hPa 0,0 mm 0,0 km/h (0 Bft) S-SO 162 0 min 0,000 mm 0,0 UV-I 0 W/m 14,2 C 0,0 km/h (0 Bft)
23.06.2016 00:38 15,3 C 15,3 C 93 % 1021,8 hPa 0,0 mm 0,0 km/h (0 Bft) S-SO 162 0 min 0,000 mm 0,0 UV-I 0 W/m 14,2 C 0,0 km/h (0 Bft)
23.06.2016 00:39 15,3 C 15,3 C 94 % 1021,7 hPa 0,0 mm 0,0 km/h (0 Bft) S-SO 162 0 min 0,000 mm 0,0 UV-I 0 W/m 14,3 C 0,0 km/h (0 Bft)
23.06.2016 00:40 15,2 C 15,3 C 94 % 1021,7 hPa 0,0 mm 0,0 km/h (0 Bft) S-SO 162 0 min 0,000 mm 0,0 UV-I 0 W/m 14,2 C 0,0 km/h (0 Bft)
23.06.2016 00:41 15,2 C 15,2 C 94 % 1021,7 hPa 0,0 mm 0,0 km/h (0 Bft) S-SO 162 0 min 0,000 mm 0,0 UV-I 0 W/m 14,2 C 0,0 km/h (0 Bft)
23.06.2016 00:42 15,2 C 15,2 C 94 % 1021,7 hPa 0,0 mm 0,0 km/h (0 Bft) S-SO 162 0 min 0,000 mm 0,0 UV-I 0 W/m 14,2 C 0,0 km/h (0 Bft)
23.06.2016 00:43 15,2 C 15,2 C 94 % 1021,7 hPa 0,0 mm 0,0 km/h (0 Bft) S-SO 162 0 min 0,000 mm 0,0 UV-I 0 W/m 14,2 C 0,0 km/h (0 Bft)
23.06.2016 00:44 15,2 C 15,2 C 94 % 1021,7 hPa 0,0 mm 0,3 km/h (0 Bft) S-SO 162 0 min 0,000 mm 0,0 UV-I 0 W/m 14,2 C 1,6 km/h (1 Bft)
23.06.2016 00:45 15,3 C 15,3 C 94 % 1021,7 hPa 0,0 mm 0,9 km/h (0 Bft) S-SO 162 0 min 0,000 mm 0,0 UV-I 0 W/m 14,3 C 1,6 km/h (1 Bft)
23.06.2016 00:46 15,5 C 15,5 C 95 % 1021,7 hPa 0,0 mm 0,3 km/h (0 Bft) S-SO 162 0 min 0,000 mm 0,0 UV-I 0 W/m 14,7 C 1,6 km/h (1 Bft)
23.06.2016 00:47 15,6 C 15,6 C 94 % 1021,7 hPa 0,0 mm 1,1 km/h (1 Bft) S-SO 162 0 min 0,000 mm 0,0 UV-I 0 W/m 14,6 C 1,6 km/h (1 Bft)
23.06.2016 00:48 15,6 C 15,6 C 92 % 1021,7 hPa 0,0 mm 0,6 km/h (0 Bft) S-SO 162 0 min 0,000 mm 0,0 UV-I 0 W/m 14,3 C 1,6 km/h (1 Bft)
23.06.2016 00:49 15,6 C 15,6 C 93 % 1021,7 hPa 0,0 mm 0,9 km/h (0 Bft) S-SO 162 0 min 0,000 mm 0,0 UV-I 0 W/m 14,5 C 1,6 km/h (1 Bft)
23.06.2016 00:50 15,5 C 15,6 C 93 % 1021,7 hPa 0,0 mm 0,9 km/h (0 Bft) S-SO 162 0 min 0,000 mm 0,0 UV-I 0 W/m 14,4 C 3,2 km/h (1 Bft)
23.06.2016 00:51 15,6 C 15,6 C 93 % 1021,7 hPa 0,0 mm 1,6 km/h (1 Bft) S-SO 162 0 min 0,000 mm 0,0 UV-I 0 W/m 14,5 C 3,2 km/h (1 Bft)
23.06.2016 00:52 15,7 C 15,7 C 94 % 1021,7 hPa 0,0 mm 0,8 km/h (0 Bft) S-SO 162 0 min 0,000 mm 0,0 UV-I 0 W/m 14,7 C 1,6 km/h (1 Bft)
23.06.2016 00:53 15,8 C 15,8 C 94 % 1021,7 hPa 0,0 mm 0,6 km/h (0 Bft) S-SO 162 0 min 0,000 mm 0,0 UV-I 0 W/m 14,8 C 1,6 km/h (1 Bft)
23.06.2016 00:54 15,9 C 15,9 C 93 % 1021,7 hPa 0,0 mm 0,3 km/h (0 Bft) S-SO 162 0 min 0,000 mm 0,0 UV-I 0 W/m 14,8 C 1,6 km/h (1 Bft)
23.06.2016 00:55 16,0 C 16,0 C 93 % 1021,7 hPa 0,0 mm 0,5 km/h (0 Bft) S-SO 162 0 min 0,000 mm 0,0 UV-I 0 W/m 14,9 C 1,6 km/h (1 Bft)
23.06.2016 00:56 16,1 C 16,1 C 92 % 1021,7 hPa 0,0 mm 1,0 km/h (0 Bft) S-SO 162 0 min 0,000 mm 0,0 UV-I 0 W/m 14,8 C 1,6 km/h (1 Bft)
23.06.2016 00:57 16,2 C 16,2 C 92 % 1021,7 hPa 0,0 mm 0,3 km/h (0 Bft) S-SO 162 0 min 0,000 mm 0,0 UV-I 0 W/m 14,9 C 1,6 km/h (1 Bft)
23.06.2016 00:58 16,2 C 16,2 C 92 % 1021,7 hPa 0,0 mm 0,9 km/h (0 Bft) S-SO 162 0 min 0,000 mm 0,0 UV-I 0 W/m 14,9 C 1,6 km/h (1 Bft)
23.06.2016 00:59 16,2 C 16,3 C 92 % 1021,7 hPa 0,0 mm 1,3 km/h (1 Bft) S-SO 162 0 min 0,000 mm 0,0 UV-I 0 W/m 14,9 C 1,6 km/h (1 Bft)
23.06.2016 01:00 16,3 C 16,3 C 91 % 1021,7 hPa 0,0 mm 1,6 km/h (1 Bft) S-SO 157 0 min 0,000 mm 0,0 UV-I 0 W/m 14,8 C 1,6 km/h (1 Bft)
23.06.2016 01:04 16,0 C 16,3 C 90 % 1021,6 hPa 0,0 mm 1,3 km/h (1 Bft) S-SO 162 0 min 0,000 mm 0,0 UV-I 0 W/m 14,4 C 3,2 km/h (1 Bft)
23.06.2016 01:05 15,9 C 16,0 C 91 % 1021,6 hPa 0,0 mm 0,9 km/h (0 Bft) S-SO 162 0 min 0,000 mm 0,0 UV-I 0 W/m 14,4 C 1,6 km/h (1 Bft)
23.06.2016 01:06 15,9 C 15,9 C 92 % 1021,6 hPa 0,0 mm 1,5 km/h (1 Bft) S-SO 162 0 min 0,000 mm 0,0 UV-I 0 W/m 14,6 C 1,6 km/h (1 Bft)
23.06.2016 01:07 16,0 C 16,0 C 92 % 1021,6 hPa 0,0 mm 0,7 km/h (0 Bft) S-SO 162 0 min 0,000 mm 0,0 UV-I 0 W/m 14,7 C 1,6 km/h (1 Bft)
23.06.2016 01:08 16,0 C 16,1 C 91 % 1021,6 hPa 0,0 mm 0,4 km/h (0 Bft) S-SO 162 0 min 0,000 mm 0,0 UV-I 0 W/m 14,5 C 1,6 km/h (1 Bft)
23.06.2016 01:09 16,0 C 16,0 C 92 % 1021,6 hPa 0,0 mm 1,5 km/h (1 Bft) S-SO 162 0 min 0,000 mm 0,0 UV-I 0 W/m 14,7 C 1,6 km/h (1 Bft)
23.06.2016 01:10 16,0 C 16,0 C 92 % 1021,5 hPa 0,0 mm 1,0 km/h (0 Bft) S-SO 162 0 min 0,000 mm 0,0 UV-I 0 W/m 14,7 C 1,6 km/h (1 Bft)
23.06.2016 01:11 16,1 C 16,1 C 92 % 1021,5 hPa 0,0 mm 0,7 km/h (0 Bft) S-SO 162 0 min 0,000 mm 0,0 UV-I 0 W/m 14,8 C 1,6 km/h (1 Bft)
23.06.2016 01:12 16,2 C 16,2 C 92 % 1021,5 hPa 0,0 mm 0,8 km/h (0 Bft) S-SO 162 0 min 0,000 mm 0,0 UV-I 0 W/m 14,9 C 1,6 km/h (1 Bft)
23.06.2016 01:13 16,2 C 16,2 C 91 % 1021,5 hPa 0,0 mm 0,0 km/h (0 Bft) S-SO 162 0 min 0,000 mm 0,0 UV-I 0 W/m 14,7 C 0,0 km/h (0 Bft)
23.06.2016 01:14 16,1 C 16,2 C 90 % 1021,5 hPa 0,0 mm 0,0 km/h (0 Bft) S-SO 162 0 min 0,000 mm 0,0 UV-I 0 W/m 14,5 C 0,0 km/h (0 Bft)
23.06.2016 01:15 15,9 C 16,1 C 90 % 1021,5 hPa 0,0 mm 0,3 km/h (0 Bft) S-SO 162 0 min 0,000 mm 0,0 UV-I 0 W/m 14,3 C 1,6 km/h (1 Bft)
23.06.2016 01:16 15,8 C 15,9 C 90 % 1021,5 hPa 0,0 mm 0,0 km/h (0 Bft) S-SO 162 0 min 0,000 mm 0,0 UV-I 0 W/m 14,2 C 0,0 km/h (0 Bft)
23.06.2016 01:17 15,6 C 15,8 C 91 % 1021,5 hPa 0,0 mm 0,0 km/h (0 Bft) S-SO 162 0 min 0,000 mm 0,0 UV-I 0 W/m 14,1 C 0,0 km/h (0 Bft)
23.06.2016 01:18 15,4 C 15,6 C 91 % 1021,5 hPa 0,0 mm 0,0 km/h (0 Bft) S-SO 162 0 min 0,000 mm 0,0 UV-I 0 W/m 13,9 C 0,0 km/h (0 Bft)
23.06.2016 01:19 15,3 C 15,4 C 92 % 1021,5 hPa 0,0 mm 0,0 km/h (0 Bft) S-SO 162 0 min 0,000 mm 0,0 UV-I 0 W/m 14,0 C 0,0 km/h (0 Bft)
23.06.2016 01:20 15,2 C 15,3 C 92 % 1021,5 hPa 0,0 mm 0,4 km/h (0 Bft) S-SO 162 0 min 0,000 mm 0,0 UV-I 0 W/m 13,9 C 1,6 km/h (1 Bft)
23.06.2016 01:21 15,2 C 15,2 C 93 % 1021,6 hPa 0,0 mm 1,1 km/h (1 Bft) S-SO 162 0 min 0,000 mm 0,0 UV-I 0 W/m 14,1 C 1,6 km/h (1 Bft)
23.06.2016 01:22 15,2 C 15,2 C 93 % 1021,6 hPa 0,0 mm 1,0 km/h (0 Bft) S-SO 162 0 min 0,000 mm 0,0 UV-I 0 W/m 14,1 C 1,6 km/h (1 Bft)
23.06.2016 01:23 15,2 C 15,2 C 94 % 1021,6 hPa 0,0 mm 0,8 km/h (0 Bft) S-SO 162 0 min 0,000 mm 0,0 UV-I 0 W/m 14,2 C 1,6 km/h (1 Bft)
23.06.2016 01:24 15,2 C 15,2 C 94 % 1021,6 hPa 0,0 mm 0,5 km/h (0 Bft) S-SO 162 0 min 0,000 mm 0,0 UV-I 0 W/m 14,2 C 1,6 km/h (1 Bft)
23.06.2016 01:25 15,3 C 15,3 C 94 % 1021,6 hPa 0,0 mm 0,5 km/h (0 Bft) S-SO 162 0 min 0,000 mm 0,0 UV-I 0 W/m 14,3 C 1,6 km/h (1 Bft)
23.06.2016 01:26 15,3 C 15,3 C 94 % 1021,6 hPa 0,0 mm 0,6 km/h (0 Bft) S-SO 162 0 min 0,000 mm 0,0 UV-I 0 W/m 14,3 C 1,6 km/h (1 Bft)
23.06.2016 01:27 15,4 C 15,4 C 94 % 1021,6 hPa 0,0 mm 0,3 km/h (0 Bft) S-SO 162 0 min 0,000 mm 0,0 UV-I 0 W/m 14,4 C 1,6 km/h (1 Bft)
23.06.2016 01:28 15,5 C 15,5 C 94 % 1021,6 hPa 0,0 mm 0,2 km/h (0 Bft) S-SO 162 0 min 0,000 mm 0,0 UV-I 0 W/m 14,5 C 1,6 km/h (1 Bft)
23.06.2016 01:29 15,6 C 15,6 C 93 % 1021,6 hPa 0,0 mm 0,2 km/h (0 Bft) S-SO 162 0 min 0,000 mm 0,0 UV-I 0 W/m 14,5 C 1,6 km/h (1 Bft)
23.06.2016 01:30 15,6 C 15,6 C 93 % 1021,6 hPa 0,0 mm 0,1 km/h (0 Bft) S-SO 162 0 min 0,000 mm 0,0 UV-I 0 W/m 14,5 C 1,6 km/h (1 Bft)
23.06.2016 01:31 15,6 C 15,6 C 94 % 1021,6 hPa 0,0 mm 0,4 km/h (0 Bft) S-SO 162 0 min 0,000 mm 0,0 UV-I 0 W/m 14,6 C 1,6 km/h (1 Bft)
23.06.2016 01:32 15,6 C 15,6 C 94 % 1021,6 hPa 0,0 mm 0,0 km/h (0 Bft) S-SO 162 0 min 0,000 mm 0,0 UV-I 0 W/m 14,6 C 0,0 km/h (0 Bft)
23.06.2016 01:33 15,6 C 15,6 C 93 % 1021,6 hPa 0,0 mm 0,0 km/h (0 Bft) S-SO 162 0 min 0,000 mm 0,0 UV-I 0 W/m 14,5 C 0,0 km/h (0 Bft)
23.06.2016 01:34 15,5 C 15,6 C 93 % 1021,6 hPa 0,0 mm 0,1 km/h (0 Bft) S-SO 162 0 min 0,000 mm 0,0 UV-I 0 W/m 14,4 C 1,6 km/h (1 Bft)
23.06.2016 01:35 15,4 C 15,5 C 91 % 1021,6 hPa 0,0 mm 0,2 km/h (0 Bft) S-SO 162 0 min 0,000 mm 0,0 UV-I 0 W/m 13,9 C 1,6 km/h (1 Bft)
23.06.2016 01:36 15,3 C 15,4 C 91 % 1021,5 hPa 0,0 mm 0,3 km/h (0 Bft) S-SO 162 0 min 0,000 mm 0,0 UV-I 0 W/m 13,8 C 1,6 km/h (1 Bft)
23.06.2016 01:37 15,2 C 15,3 C 92 % 1021,5 hPa 0,0 mm 0,1 km/h (0 Bft) S-SO 162 0 min 0,000 mm 0,0 UV-I 0 W/m 13,9 C 1,6 km/h (1 Bft)
23.06.2016 01:38 15,2 C 15,2 C 92 % 1021,5 hPa 0,0 mm 0,2 km/h (0 Bft) S-SO 162 0 min 0,000 mm 0,0 UV-I 0 W/m 13,9 C 1,6 km/h (1 Bft)
23.06.2016 01:39 15,1 C 15,2 C 93 % 1021,5 hPa 0,0 mm 1,0 km/h (0 Bft) S-SO 162 0 min 0,000 mm 0,0 UV-I 0 W/m 14,0 C 3,2 km/h (1 Bft)
23.06.2016 01:40 15,1 C 15,1 C 94 % 1021,5 hPa 0,0 mm 0,7 km/h (0 Bft) S-SO 162 0 min 0,000 mm 0,0 UV-I 0 W/m 14,1 C 1,6 km/h (1 Bft)
23.06.2016 01:41 15,2 C 15,2 C 94 % 1021,5 hPa 0,0 mm 0,0 km/h (0 Bft) S-SO 162 0 min 0,000 mm 0,0 UV-I 0 W/m 14,2 C 0,0 km/h (0 Bft)
23.06.2016 01:42 15,2 C 15,2 C 94 % 1021,5 hPa 0,0 mm 0,0 km/h (0 Bft) S-SO 162 0 min 0,000 mm 0,0 UV-I 0 W/m 14,2 C 0,0 km/h (0 Bft)
23.06.2016 01:43 15,2 C 15,2 C 92 % 1021,5 hPa 0,0 mm 0,1 km/h (0 Bft) S-SO 162 0 min 0,000 mm 0,0 UV-I 0 W/m 13,9 C 1,6 km/h (1 Bft)
23.06.2016 01:44 15,1 C 15,2 C 91 % 1021,5 hPa 0,0 mm 0,1 km/h (0 Bft) S-SO 162 0 min 0,000 mm 0,0 UV-I 0 W/m 13,6 C 1,6 km/h (1 Bft)
23.06.2016 01:45 14,9 C 15,1 C 92 % 1021,5 hPa 0,0 mm 0,0 km/h (0 Bft) S-SO 162 0 min 0,000 mm 0,0 UV-I 0 W/m 13,6 C 0,0 km/h (0 Bft)
23.06.2016 01:46 14,8 C 14,9 C 92 % 1021,5 hPa 0,0 mm 0,0 km/h (0 Bft) S-SO 162 0 min 0,000 mm 0,0 UV-I 0 W/m 13,5 C 0,0 km/h (0 Bft)
23.06.2016 01:47 14,7 C 14,8 C 93 % 1021,5 hPa 0,0 mm 0,4 km/h (0 Bft) S-SO 162 0 min 0,000 mm 0,0 UV-I 0 W/m 13,6 C 1,6 km/h (1 Bft)
23.06.2016 01:48 14,6 C 14,7 C 93 % 1021,5 hPa 0,0 mm 0,1 km/h (0 Bft) S-SO 162 0 min 0,000 mm 0,0 UV-I 0 W/m 13,5 C 1,6 km/h (1 Bft)
23.06.2016 01:49 14,6 C 14,6 C 93 % 1021,5 hPa 0,0 mm 0,0 km/h (0 Bft) S-SO 162 0 min 0,000 mm 0,0 UV-I 0 W/m 13,5 C 0,0 km/h (0 Bft)
23.06.2016 01:50 14,5 C 14,6 C 94 % 1021,5 hPa 0,0 mm 0,0 km/h (0 Bft) S-SO 162 0 min 0,000 mm 0,0 UV-I 0 W/m 13,5 C 0,0 km/h (0 Bft)
23.06.2016 01:51 14,4 C 14,5 C 94 % 1021,5 hPa 0,0 mm 0,0 km/h (0 Bft) S-SO 162 0 min 0,000 mm 0,0 UV-I 0 W/m 13,4 C 0,0 km/h (0 Bft)
23.06.2016 01:52 14,4 C 14,4 C 94 % 1021,5 hPa 0,0 mm 0,0 km/h (0 Bft) S-SO 162 0 min 0,000 mm 0,0 UV-I 0 W/m 13,4 C 0,0 km/h (0 Bft)
23.06.2016 01:53 14,4 C 14,4 C 94 % 1021,5 hPa 0,0 mm 0,0 km/h (0 Bft) S-SO 162 0 min 0,000 mm 0,0 UV-I 0 W/m 13,4 C 0,0 km/h (0 Bft)
23.06.2016 01:54 14,3 C 14,4 C 95 % 1021,5 hPa 0,0 mm 0,0 km/h (0 Bft) S-SO 162 0 min 0,000 mm 0,0 UV-I 0 W/m 13,5 C 0,0 km/h (0 Bft)
23.06.2016 01:55 14,3 C 14,3 C 95 % 1021,5 hPa 0,0 mm 0,0 km/h (0 Bft) S-SO 162 0 min 0,000 mm 0,0 UV-I 0 W/m 13,5 C 0,0 km/h (0 Bft)
23.06.2016 01:56 14,3 C 14,3 C 95 % 1021,5 hPa 0,0 mm 0,0 km/h (0 Bft) S-SO 162 0 min 0,000 mm 0,0 UV-I 0 W/m 13,5 C 0,0 km/h (0 Bft)
23.06.2016 01:57 14,3 C 14,3 C 95 % 1021,5 hPa 0,0 mm 0,0 km/h (0 Bft) S-SO 162 0 min 0,000 mm 0,0 UV-I 0 W/m 13,5 C 0,0 km/h (0 Bft)
23.06.2016 01:58 14,3 C 14,3 C 95 % 1021,5 hPa 0,0 mm 0,0 km/h (0 Bft) S-SO 162 0 min 0,000 mm 0,0 UV-I 0 W/m 13,5 C 0,0 km/h (0 Bft)
23.06.2016 01:59 14,3 C 14,3 C 95 % 1021,5 hPa 0,0 mm 0,0 km/h (0 Bft) S-SO 162 0 min 0,000 mm 0,0 UV-I 0 W/m 13,5 C 0,0 km/h (0 Bft)
23.06.2016 02:00 14,3 C 14,3 C 95 % 1021,5 hPa 0,0 mm 0,0 km/h (0 Bft) S-SO 162 0 min 0,000 mm 0,0 UV-I 0 W/m 13,5 C 0,0 km/h (0 Bft)
23.06.2016 02:01 14,3 C 14,3 C 95 % 1021,5 hPa 0,0 mm 0,0 km/h (0 Bft) S-SO 162 0 min 0,000 mm 0,0 UV-I 0 W/m 13,5 C 0,0 km/h (0 Bft)
23.06.2016 02:02 14,3 C 14,3 C 95 % 1021,4 hPa 0,0 mm 0,0 km/h (0 Bft) S-SO 162 0 min 0,000 mm 0,0 UV-I 0 W/m 13,5 C 0,0 km/h (0 Bft)
23.06.2016 02:03 14,3 C 14,3 C 95 % 1021,4 hPa 0,0 mm 0,0 km/h (0 Bft) S-SO 162 0 min 0,000 mm 0,0 UV-I 0 W/m 13,5 C 0,0 km/h (0 Bft)
23.06.2016 02:04 14,3 C 14,3 C 95 % 1021,4 hPa 0,0 mm 0,0 km/h (0 Bft) S-SO 162 0 min 0,000 mm 0,0 UV-I 0 W/m 13,5 C 0,0 km/h (0 Bft)
23.06.2016 02:05 14,3 C 14,3 C 95 % 1021,4 hPa 0,0 mm 0,0 km/h (0 Bft) S-SO 162 0 min 0,000 mm 0,0 UV-I 0 W/m 13,5 C 0,0 km/h (0 Bft)
23.06.2016 02:06 14,3 C 14,3 C 95 % 1021,4 hPa 0,0 mm 0,0 km/h (0 Bft) S-SO 162 0 min 0,000 mm 0,0 UV-I 0 W/m 13,5 C 0,0 km/h (0 Bft)
23.06.2016 02:07 14,3 C 14,3 C 95 % 1021,4 hPa 0,0 mm 0,0 km/h (0 Bft) S-SO 162 0 min 0,000 mm 0,0 UV-I 0 W/m 13,5 C 0,0 km/h (0 Bft)
23.06.2016 02:08 14,5 C 14,5 C 95 % 1021,3 hPa 0,0 mm 0,3 km/h (0 Bft) S-SO 162 0 min 0,000 mm 0,0 UV-I 0 W/m 13,7 C 1,6 km/h (1 Bft)
23.06.2016 02:09 14,7 C 14,7 C 96 % 1021,4 hPa 0,0 mm 1,4 km/h (1 Bft) S-SO 162 0 min 0,000 mm 0,0 UV-I 0 W/m 14,1 C 1,6 km/h (1 Bft)
23.06.2016 02:10 14,8 C 14,8 C 96 % 1021,4 hPa 0,0 mm 1,3 km/h (1 Bft) S-SO 162 0 min 0,000 mm 0,0 UV-I 0 W/m 14,2 C 1,6 km/h (1 Bft)
23.06.2016 02:11 15,0 C 15,0 C 95 % 1021,4 hPa 0,0 mm 1,8 km/h (1 Bft) S-SO 162 0 min 0,000 mm 0,0 UV-I 0 W/m 14,2 C 3,2 km/h (1 Bft)
23.06.2016 02:12 15,2 C 15,2 C 95 % 1021,4 hPa 0,0 mm 0,5 km/h (0 Bft) S-SO 162 0 min 0,000 mm 0,0 UV-I 0 W/m 14,4 C 1,6 km/h (1 Bft)
23.06.2016 02:13 15,3 C 15,3 C 94 % 1021,4 hPa 0,0 mm 0,4 km/h (0 Bft) S-SO 162 0 min 0,000 mm 0,0 UV-I 0 W/m 14,3 C 1,6 km/h (1 Bft)
23.06.2016 02:14 15,4 C 15,4 C 94 % 1021,4 hPa 0,0 mm 0,1 km/h (0 Bft) S-SO 162 0 min 0,000 mm 0,0 UV-I 0 W/m 14,4 C 1,6 km/h (1 Bft)
23.06.2016 02:15 15,4 C 15,5 C 94 % 1021,4 hPa 0,0 mm 0,0 km/h (0 Bft) S-SO 162 0 min 0,000 mm 0,0 UV-I 0 W/m 14,4 C 0,0 km/h (0 Bft)
23.06.2016 02:16 15,6 C 15,6 C 93 % 1021,4 hPa 0,0 mm 0,0 km/h (0 Bft) S-SO 162 0 min 0,000 mm 0,0 UV-I 0 W/m 14,5 C 0,0 km/h (0 Bft)
23.06.2016 02:17 15,5 C 15,6 C 91 % 1021,4 hPa 0,0 mm 0,0 km/h (0 Bft) S-SO 162 0 min 0,000 mm 0,0 UV-I 0 W/m 14,0 C 0,0 km/h (0 Bft)
23.06.2016 02:18 15,3 C 15,5 C 91 % 1021,4 hPa 0,0 mm 0,0 km/h (0 Bft) S-SO 162 0 min 0,000 mm 0,0 UV-I 0 W/m 13,8 C 0,0 km/h (0 Bft)
23.06.2016 02:19 15,2 C 15,3 C 91 % 1021,3 hPa 0,0 mm 0,0 km/h (0 Bft) S-SO 162 0 min 0,000 mm 0,0 UV-I 0 W/m 13,7 C 0,0 km/h (0 Bft)
23.06.2016 02:20 15,1 C 15,2 C 91 % 1021,3 hPa 0,0 mm 0,2 km/h (0 Bft) S-SO 162 0 min 0,000 mm 0,0 UV-I 0 W/m 13,6 C 1,6 km/h (1 Bft)
23.06.2016 02:21 14,9 C 15,1 C 92 % 1021,3 hPa 0,0 mm 0,0 km/h (0 Bft) S-SO 162 0 min 0,000 mm 0,0 UV-I 0 W/m 13,6 C 0,0 km/h (0 Bft)
23.06.2016 02:22 14,8 C 14,9 C 91 % 1021,3 hPa 0,0 mm 0,0 km/h (0 Bft) S-SO 162 0 min 0,000 mm 0,0 UV-I 0 W/m 13,3 C 0,0 km/h (0 Bft)
23.06.2016 02:23 14,6 C 14,8 C 91 % 1021,3 hPa 0,0 mm 0,0 km/h (0 Bft) S-SO 162 0 min 0,000 mm 0,0 UV-I 0 W/m 13,1 C 0,0 km/h (0 Bft)
23.06.2016 02:24 14,4 C 14,6 C 92 % 1021,3 hPa 0,0 mm 0,0 km/h (0 Bft) S-SO 162 0 min 0,000 mm 0,0 UV-I 0 W/m 13,1 C 0,0 km/h (0 Bft)
23.06.2016 02:25 14,3 C 14,4 C 92 % 1021,3 hPa 0,0 mm 0,1 km/h (0 Bft) S-SO 162 0 min 0,000 mm 0,0 UV-I 0 W/m 13,0 C 1,6 km/h (1 Bft)
23.06.2016 02:26 14,2 C 14,3 C 93 % 1021,3 hPa 0,0 mm 0,0 km/h (0 Bft) S-SO 162 0 min 0,000 mm 0,0 UV-I 0 W/m 13,1 C 0,0 km/h (0 Bft)
23.06.2016 02:27 14,1 C 14,2 C 93 % 1021,3 hPa 0,0 mm 0,5 km/h (0 Bft) S-SO 162 0 min 0,000 mm 0,0 UV-I 0 W/m 13,0 C 1,6 km/h (1 Bft)
23.06.2016 02:28 14,1 C 14,2 C 93 % 1021,3 hPa 0,0 mm 0,7 km/h (0 Bft) S-SO 162 0 min 0,000 mm 0,0 UV-I 0 W/m 13,0 C 1,6 km/h (1 Bft)
23.06.2016 02:29 14,0 C 14,1 C 93 % 1021,2 hPa 0,0 mm 1,0 km/h (0 Bft) S-SO 162 0 min 0,000 mm 0,0 UV-I 0 W/m 12,9 C 1,6 km/h (1 Bft)
23.06.2016 02:30 13,9 C 14,0 C 93 % 1021,3 hPa 0,0 mm 0,3 km/h (0 Bft) S-SO 162 0 min 0,000 mm 0,0 UV-I 0 W/m 12,8 C 1,6 km/h (1 Bft)
23.06.2016 02:31 13,8 C 13,9 C 94 % 1021,3 hPa 0,0 mm 0,0 km/h (0 Bft) S-SO 162 0 min 0,000 mm 0,0 UV-I 0 W/m 12,9 C 0,0 km/h (0 Bft)
23.06.2016 02:32 13,8 C 13,8 C 94 % 1021,3 hPa 0,0 mm 0,0 km/h (0 Bft) S-SO 162 0 min 0,000 mm 0,0 UV-I 0 W/m 12,9 C 0,0 km/h (0 Bft)
23.06.2016 02:33 13,8 C 13,8 C 94 % 1021,3 hPa 0,0 mm 0,6 km/h (0 Bft) S-SO 162 0 min 0,000 mm 0,0 UV-I 0 W/m 12,9 C 1,6 km/h (1 Bft)
23.06.2016 02:34 13,8 C 13,8 C 94 % 1021,2 hPa 0,0 mm 0,8 km/h (0 Bft) S-SO 162 0 min 0,000 mm 0,0 UV-I 0 W/m 12,9 C 1,6 km/h (1 Bft)
23.06.2016 02:35 13,8 C 13,8 C 95 % 1021,3 hPa 0,0 mm 0,5 km/h (0 Bft) S-SO 162 0 min 0,000 mm 0,0 UV-I 0 W/m 13,0 C 1,6 km/h (1 Bft)
23.06.2016 02:36 13,8 C 13,8 C 95 % 1021,3 hPa 0,0 mm 0,3 km/h (0 Bft) S-SO 162 0 min 0,000 mm 0,0 UV-I 0 W/m 13,0 C 1,6 km/h (1 Bft)
23.06.2016 02:37 13,8 C 13,8 C 95 % 1021,2 hPa 0,0 mm 0,5 km/h (0 Bft) S-SO 162 0 min 0,000 mm 0,0 UV-I 0 W/m 13,0 C 1,6 km/h (1 Bft)
23.06.2016 02:38 13,8 C 13,8 C 95 % 1021,3 hPa 0,0 mm 0,1 km/h (0 Bft) S-SO 162 0 min 0,000 mm 0,0 UV-I 0 W/m 13,0 C 1,6 km/h (1 Bft)
23.06.2016 02:39 13,8 C 13,8 C 95 % 1021,3 hPa 0,0 mm 0,2 km/h (0 Bft) S-SO 162 0 min 0,000 mm 0,0 UV-I 0 W/m 13,0 C 1,6 km/h (1 Bft)
23.06.2016 02:40 13,8 C 13,8 C 95 % 1021,2 hPa 0,0 mm 0,1 km/h (0 Bft) S-SO 162 0 min 0,000 mm 0,0 UV-I 0 W/m 13,0 C 1,6 km/h (1 Bft)
23.06.2016 02:41 13,8 C 13,8 C 95 % 1021,3 hPa 0,0 mm 1,2 km/h (1 Bft) S-SO 162 0 min 0,000 mm 0,0 UV-I 0 W/m 13,0 C 1,6 km/h (1 Bft)
23.06.2016 02:42 13,8 C 13,8 C 95 % 1021,2 hPa 0,0 mm 0,3 km/h (0 Bft) S-SO 162 0 min 0,000 mm 0,0 UV-I 0 W/m 13,0 C 1,6 km/h (1 Bft)
23.06.2016 02:43 13,8 C 13,8 C 95 % 1021,2 hPa 0,0 mm 1,0 km/h (0 Bft) S-SO 162 0 min 0,000 mm 0,0 UV-I 0 W/m 13,0 C 1,6 km/h (1 Bft)
23.06.2016 02:44 13,8 C 13,8 C 95 % 1021,3 hPa 0,0 mm 0,8 km/h (0 Bft) S-SO 162 0 min 0,000 mm 0,0 UV-I 0 W/m 13,0 C 1,6 km/h (1 Bft)
23.06.2016 02:45 13,7 C 13,8 C 95 % 1021,3 hPa 0,0 mm 0,4 km/h (0 Bft) S-SO 162 0 min 0,000 mm 0,0 UV-I 0 W/m 12,9 C 1,6 km/h (1 Bft)
23.06.2016 02:46 13,7 C 13,7 C 95 % 1021,3 hPa 0,0 mm 0,8 km/h (0 Bft) S-SO 162 0 min 0,000 mm 0,0 UV-I 0 W/m 12,9 C 1,6 km/h (1 Bft)
23.06.2016 02:47 13,7 C 13,7 C 95 % 1021,3 hPa 0,0 mm 0,0 km/h (0 Bft) S-SO 162 0 min 0,000 mm 0,0 UV-I 0 W/m 12,9 C 0,0 km/h (0 Bft)
23.06.2016 02:48 13,7 C 13,7 C 95 % 1021,3 hPa 0,0 mm 0,0 km/h (0 Bft) S-SO 162 0 min 0,000 mm 0,0 UV-I 0 W/m 12,9 C 0,0 km/h (0 Bft)
23.06.2016 02:49 13,7 C 13,7 C 95 % 1021,2 hPa 0,0 mm 0,0 km/h (0 Bft) S-SO 162 0 min 0,000 mm 0,0 UV-I 0 W/m 12,9 C 0,0 km/h (0 Bft)
23.06.2016 02:50 13,7 C 13,7 C 95 % 1021,2 hPa 0,0 mm 0,1 km/h (0 Bft) S-SO 162 0 min 0,000 mm 0,0 UV-I 0 W/m 12,9 C 1,6 km/h (1 Bft)
23.06.2016 02:51 13,7 C 13,7 C 95 % 1021,2 hPa 0,0 mm 0,1 km/h (0 Bft) S-SO 162 0 min 0,000 mm 0,0 UV-I 0 W/m 12,9 C 1,6 km/h (1 Bft)
23.06.2016 02:52 13,7 C 13,7 C 95 % 1021,2 hPa 0,0 mm 0,1 km/h (0 Bft) S-SO 162 0 min 0,000 mm 0,0 UV-I 0 W/m 12,9 C 1,6 km/h (1 Bft)
23.06.2016 02:53 13,6 C 13,7 C 95 % 1021,2 hPa 0,0 mm 0,5 km/h (0 Bft) S-SO 162 0 min 0,000 mm 0,0 UV-I 0 W/m 12,8 C 1,6 km/h (1 Bft)
23.06.2016 02:54 13,6 C 13,6 C 95 % 1021,2 hPa 0,0 mm 0,3 km/h (0 Bft) S-SO 162 0 min 0,000 mm 0,0 UV-I 0 W/m 12,8 C 1,6 km/h (1 Bft)
23.06.2016 02:55 13,6 C 13,6 C 95 % 1021,2 hPa 0,0 mm 0,4 km/h (0 Bft) S-SO 162 0 min 0,000 mm 0,0 UV-I 0 W/m 12,8 C 1,6 km/h (1 Bft)
23.06.2016 02:56 13,5 C 13,6 C 95 % 1021,2 hPa 0,0 mm 0,1 km/h (0 Bft) S-SO 162 0 min 0,000 mm 0,0 UV-I 0 W/m 12,7 C 1,6 km/h (1 Bft)
23.06.2016 02:57 13,5 C 13,5 C 95 % 1021,2 hPa 0,0 mm 0,0 km/h (0 Bft) S-SO 162 0 min 0,000 mm 0,0 UV-I 0 W/m 12,7 C 0,0 km/h (0 Bft)
23.06.2016 02:58 13,5 C 13,5 C 95 % 1021,2 hPa 0,0 mm 0,0 km/h (0 Bft) S-SO 162 0 min 0,000 mm 0,0 UV-I 0 W/m 12,7 C 0,0 km/h (0 Bft)
23.06.2016 02:59 13,5 C 13,5 C 95 % 1021,2 hPa 0,0 mm 0,0 km/h (0 Bft) S-SO 162 0 min 0,000 mm 0,0 UV-I 0 W/m 12,7 C 0,0 km/h (0 Bft)
23.06.2016 03:00 13,4 C 13,5 C 95 % 1021,2 hPa 0,0 mm 0,0 km/h (0 Bft) S-SO 162 0 min 0,000 mm 0,0 UV-I 0 W/m 12,6 C 0,0 km/h (0 Bft)
23.06.2016 03:01 13,4 C 13,5 C 95 % 1021,2 hPa 0,0 mm 0,0 km/h (0 Bft) S-SO 162 0 min 0,000 mm 0,0 UV-I 0 W/m 12,6 C 0,0 km/h (0 Bft)
23.06.2016 03:02 13,5 C 13,5 C 95 % 1021,1 hPa 0,0 mm 0,0 km/h (0 Bft) S-SO 162 0 min 0,000 mm 0,0 UV-I 0 W/m 12,7 C 0,0 km/h (0 Bft)
23.06.2016 03:03 13,5 C 13,5 C 96 % 1021,1 hPa 0,0 mm 0,9 km/h (0 Bft) S-SO 162 0 min 0,000 mm 0,0 UV-I 0 W/m 12,9 C 1,6 km/h (1 Bft)
23.06.2016 03:04 13,5 C 13,5 C 96 % 1021,2 hPa 0,0 mm 1,6 km/h (1 Bft) W-SW 237 0 min 0,000 mm 0,0 UV-I 0 W/m 12,9 C 3,2 km/h (1 Bft)
23.06.2016 03:05 13,5 C 13,5 C 95 % 1021,1 hPa 0,0 mm 0,6 km/h (0 Bft) W-SW 237 0 min 0,000 mm 0,0 UV-I 0 W/m 12,7 C 1,6 km/h (1 Bft)
23.06.2016 03:06 13,4 C 13,5 C 96 % 1021,2 hPa 0,0 mm 0,0 km/h (0 Bft) W-SW 237 0 min 0,000 mm 0,0 UV-I 0 W/m 12,8 C 0,0 km/h (0 Bft)
23.06.2016 03:07 13,4 C 13,5 C 96 % 1021,2 hPa 0,0 mm 0,0 km/h (0 Bft) W-SW 237 0 min 0,000 mm 0,0 UV-I 0 W/m 12,8 C 0,0 km/h (0 Bft)
23.06.2016 03:08 13,4 C 13,4 C 96 % 1021,1 hPa 0,0 mm 0,0 km/h (0 Bft) W-SW 237 0 min 0,000 mm 0,0 UV-I 0 W/m 12,8 C 0,0 km/h (0 Bft)
23.06.2016 03:09 13,3 C 13,4 C 95 % 1021,1 hPa 0,0 mm 0,0 km/h (0 Bft) W-SW 237 0 min 0,000 mm 0,0 UV-I 0 W/m 12,5 C 0,0 km/h (0 Bft)
23.06.2016 03:10 13,3 C 13,3 C 95 % 1021,1 hPa 0,0 mm 0,2 km/h (0 Bft) W-SW 237 0 min 0,000 mm 0,0 UV-I 0 W/m 12,5 C 1,6 km/h (1 Bft)
23.06.2016 03:11 13,3 C 13,3 C 96 % 1021,1 hPa 0,0 mm 0,0 km/h (0 Bft) W-SW 237 0 min 0,000 mm 0,0 UV-I 0 W/m 12,7 C 0,0 km/h (0 Bft)
23.06.2016 03:12 13,3 C 13,3 C 96 % 1021,1 hPa 0,0 mm 0,5 km/h (0 Bft) W-SW 237 0 min 0,000 mm 0,0 UV-I 0 W/m 12,7 C 1,6 km/h (1 Bft)
23.06.2016 03:13 13,3 C 13,3 C 96 % 1021,1 hPa 0,0 mm 0,3 km/h (0 Bft) W-SW 237 0 min 0,000 mm 0,0 UV-I 0 W/m 12,7 C 1,6 km/h (1 Bft)
23.06.2016 03:14 13,3 C 13,3 C 96 % 1021,1 hPa 0,0 mm 0,0 km/h (0 Bft) W-SW 237 0 min 0,000 mm 0,0 UV-I 0 W/m 12,7 C 0,0 km/h (0 Bft)
23.06.2016 03:15 13,3 C 13,3 C 96 % 1021,1 hPa 0,0 mm 0,0 km/h (0 Bft) W-SW 237 0 min 0,000 mm 0,0 UV-I 0 W/m 12,7 C 0,0 km/h (0 Bft)
23.06.2016 03:16 13,3 C 13,3 C 96 % 1021,1 hPa 0,0 mm 0,0 km/h (0 Bft) W-SW 237 0 min 0,000 mm 0,0 UV-I 0 W/m 12,7 C 0,0 km/h (0 Bft)
23.06.2016 03:17 13,3 C 13,3 C 96 % 1021,1 hPa 0,0 mm 0,0 km/h (0 Bft) W-SW 237 0 min 0,000 mm 0,0 UV-I 0 W/m 12,7 C 0,0 km/h (0 Bft)
23.06.2016 03:18 13,3 C 13,3 C 96 % 1021,1 hPa 0,0 mm 0,0 km/h (0 Bft) W-SW 237 0 min 0,000 mm 0,0 UV-I 0 W/m 12,7 C 0,0 km/h (0 Bft)
23.06.2016 03:19 13,3 C 13,3 C 96 % 1021,1 hPa 0,0 mm 0,0 km/h (0 Bft) W-SW 237 0 min 0,000 mm 0,0 UV-I 0 W/m 12,7 C 0,0 km/h (0 Bft)
23.06.2016 03:20 13,3 C 13,3 C 96 % 1021,1 hPa 0,0 mm 0,0 km/h (0 Bft) W-SW 237 0 min 0,000 mm 0,0 UV-I 0 W/m 12,7 C 0,0 km/h (0 Bft)
23.06.2016 03:21 13,3 C 13,4 C 96 % 1021,1 hPa 0,0 mm 0,0 km/h (0 Bft) W-SW 237 0 min 0,000 mm 0,0 UV-I 0 W/m 12,7 C 0,0 km/h (0 Bft)
23.06.2016 03:22 13,3 C 13,3 C 96 % 1021,1 hPa 0,0 mm 0,0 km/h (0 Bft) W-SW 237 0 min 0,000 mm 0,0 UV-I 0 W/m 12,7 C 0,0 km/h (0 Bft)
23.06.2016 03:23 13,3 C 13,3 C 96 % 1021,1 hPa 0,0 mm 0,0 km/h (0 Bft) W-SW 237 0 min 0,000 mm 0,0 UV-I 0 W/m 12,7 C 0,0 km/h (0 Bft)
23.06.2016 03:24 13,3 C 13,3 C 96 % 1021,0 hPa 0,0 mm 0,1 km/h (0 Bft) W-SW 237 0 min 0,000 mm 0,0 UV-I 0 W/m 12,7 C 1,6 km/h (1 Bft)
23.06.2016 03:25 13,2 C 13,3 C 96 % 1021,0 hPa 0,0 mm 1,0 km/h (0 Bft) W-SW 237 0 min 0,000 mm 0,0 UV-I 0 W/m 12,6 C 1,6 km/h (1 Bft)
23.06.2016 03:26 13,2 C 13,2 C 96 % 1021,0 hPa 0,0 mm 0,1 km/h (0 Bft) W-SW 237 0 min 0,000 mm 0,0 UV-I 0 W/m 12,6 C 1,6 km/h (1 Bft)
23.06.2016 03:27 13,2 C 13,2 C 96 % 1021,0 hPa 0,0 mm 0,0 km/h (0 Bft) W-SW 237 0 min 0,000 mm 0,0 UV-I 0 W/m 12,6 C 0,0 km/h (0 Bft)
23.06.2016 03:28 13,2 C 13,2 C 96 % 1020,9 hPa 0,0 mm 0,0 km/h (0 Bft) W-SW 237 0 min 0,000 mm 0,0 UV-I 0 W/m 12,6 C 0,0 km/h (0 Bft)
23.06.2016 03:29 13,2 C 13,2 C 96 % 1021,0 hPa 0,0 mm 0,0 km/h (0 Bft) W-SW 237 0 min 0,000 mm 0,0 UV-I 0 W/m 12,6 C 0,0 km/h (0 Bft)
23.06.2016 03:30 13,2 C 13,2 C 96 % 1020,9 hPa 0,0 mm 0,5 km/h (0 Bft) W-SW 237 0 min 0,000 mm 0,0 UV-I 0 W/m 12,6 C 1,6 km/h (1 Bft)
23.06.2016 03:31 13,2 C 13,2 C 96 % 1020,9 hPa 0,0 mm 0,2 km/h (0 Bft) W-SW 237 0 min 0,000 mm 0,0 UV-I 0 W/m 12,6 C 1,6 km/h (1 Bft)
23.06.2016 03:32 13,2 C 13,2 C 96 % 1021,0 hPa 0,0 mm 0,0 km/h (0 Bft) W-SW 237 0 min 0,000 mm 0,0 UV-I 0 W/m 12,6 C 0,0 km/h (0 Bft)
23.06.2016 03:33 13,2 C 13,2 C 96 % 1020,9 hPa 0,0 mm 0,1 km/h (0 Bft) W-SW 237 0 min 0,000 mm 0,0 UV-I 0 W/m 12,6 C 1,6 km/h (1 Bft)
23.06.2016 03:34 13,1 C 13,2 C 96 % 1020,9 hPa 0,0 mm 0,1 km/h (0 Bft) W-SW 237 0 min 0,000 mm 0,0 UV-I 0 W/m 12,5 C 1,6 km/h (1 Bft)
23.06.2016 03:35 13,1 C 13,2 C 96 % 1020,9 hPa 0,0 mm 0,0 km/h (0 Bft) W-SW 237 0 min 0,000 mm 0,0 UV-I 0 W/m 12,5 C 0,0 km/h (0 Bft)
23.06.2016 03:36 13,1 C 13,1 C 96 % 1020,9 hPa 0,0 mm 0,2 km/h (0 Bft) W-SW 237 0 min 0,000 mm 0,0 UV-I 0 W/m 12,5 C 1,6 km/h (1 Bft)
23.06.2016 03:37 13,2 C 13,2 C 96 % 1020,9 hPa 0,0 mm 0,0 km/h (0 Bft) W-SW 237 0 min 0,000 mm 0,0 UV-I 0 W/m 12,6 C 0,0 km/h (0 Bft)
23.06.2016 03:38 13,2 C 13,2 C 96 % 1020,9 hPa 0,0 mm 0,0 km/h (0 Bft) W-SW 237 0 min 0,000 mm 0,0 UV-I 0 W/m 12,6 C 0,0 km/h (0 Bft)
23.06.2016 03:39 13,1 C 13,2 C 96 % 1020,9 hPa 0,0 mm 0,0 km/h (0 Bft) W-SW 237 0 min 0,000 mm 0,0 UV-I 0 W/m 12,5 C 0,0 km/h (0 Bft)
23.06.2016 03:40 13,1 C 13,2 C 96 % 1020,9 hPa 0,0 mm 0,2 km/h (0 Bft) W-SW 237 0 min 0,000 mm 0,0 UV-I 0 W/m 12,5 C 1,6 km/h (1 Bft)
23.06.2016 03:41 13,1 C 13,1 C 96 % 1020,9 hPa 0,0 mm 0,3 km/h (0 Bft) W-SW 237 0 min 0,000 mm 0,0 UV-I 0 W/m 12,5 C 1,6 km/h (1 Bft)
23.06.2016 03:42 13,1 C 13,1 C 96 % 1021,0 hPa 0,0 mm 0,0 km/h (0 Bft) W-SW 237 0 min 0,000 mm 0,0 UV-I 0 W/m 12,5 C 0,0 km/h (0 Bft)
23.06.2016 03:43 13,0 C 13,1 C 96 % 1020,9 hPa 0,0 mm 0,5 km/h (0 Bft) W-SW 237 0 min 0,000 mm 0,0 UV-I 0 W/m 12,4 C 1,6 km/h (1 Bft)
23.06.2016 03:44 13,0 C 13,1 C 96 % 1020,9 hPa 0,0 mm 0,5 km/h (0 Bft) W-SW 237 0 min 0,000 mm 0,0 UV-I 0 W/m 12,4 C 1,6 km/h (1 Bft)
23.06.2016 03:45 13,1 C 13,1 C 96 % 1020,9 hPa 0,0 mm 0,1 km/h (0 Bft) W-SW 237 0 min 0,000 mm 0,0 UV-I 0 W/m 12,5 C 1,6 km/h (1 Bft)
23.06.2016 03:46 13,1 C 13,1 C 96 % 1020,9 hPa 0,0 mm 0,2 km/h (0 Bft) W-SW 237 0 min 0,000 mm 0,0 UV-I 0 W/m 12,5 C 1,6 km/h (1 Bft)
23.06.2016 03:47 13,1 C 13,1 C 96 % 1020,9 hPa 0,0 mm 0,1 km/h (0 Bft) W-SW 237 0 min 0,000 mm 0,0 UV-I 0 W/m 12,5 C 1,6 km/h (1 Bft)
23.06.2016 03:48 13,1 C 13,1 C 96 % 1020,9 hPa 0,0 mm 0,0 km/h (0 Bft) W-SW 237 0 min 0,000 mm 0,0 UV-I 0 W/m 12,5 C 0,0 km/h (0 Bft)
23.06.2016 03:49 12,9 C 13,1 C 96 % 1020,9 hPa 0,0 mm 0,4 km/h (0 Bft) W-SW 237 0 min 0,000 mm 0,0 UV-I 0 W/m 12,3 C 1,6 km/h (1 Bft)
23.06.2016 03:50 12,9 C 12,9 C 96 % 1020,9 hPa 0,0 mm 0,1 km/h (0 Bft) W-SW 237 0 min 0,000 mm 0,0 UV-I 0 W/m 12,3 C 1,6 km/h (1 Bft)
23.06.2016 03:51 12,9 C 12,9 C 96 % 1020,9 hPa 0,0 mm 0,2 km/h (0 Bft) W-SW 237 0 min 0,000 mm 0,0 UV-I 0 W/m 12,3 C 1,6 km/h (1 Bft)
23.06.2016 03:52 13,0 C 13,0 C 96 % 1020,9 hPa 0,0 mm 0,0 km/h (0 Bft) W-SW 237 0 min 0,000 mm 0,0 UV-I 0 W/m 12,4 C 0,0 km/h (0 Bft)
23.06.2016 03:53 13,0 C 13,0 C 96 % 1020,9 hPa 0,0 mm 0,0 km/h (0 Bft) W-SW 237 0 min 0,000 mm 0,0 UV-I 0 W/m 12,4 C 0,0 km/h (0 Bft)
23.06.2016 03:54 12,9 C 13,0 C 96 % 1020,9 hPa 0,0 mm 0,3 km/h (0 Bft) W-SW 237 0 min 0,000 mm 0,0 UV-I 0 W/m 12,3 C 1,6 km/h (1 Bft)
23.06.2016 03:55 12,9 C 12,9 C 96 % 1020,9 hPa 0,0 mm 0,0 km/h (0 Bft) W-SW 237 0 min 0,000 mm 0,0 UV-I 0 W/m 12,3 C 0,0 km/h (0 Bft)
23.06.2016 03:56 12,8 C 12,9 C 96 % 1020,9 hPa 0,0 mm 0,0 km/h (0 Bft) W-SW 237 0 min 0,000 mm 0,0 UV-I 0 W/m 12,2 C 0,0 km/h (0 Bft)
23.06.2016 03:57 12,9 C 12,9 C 96 % 1020,9 hPa 0,0 mm 0,3 km/h (0 Bft) W-SW 237 0 min 0,000 mm 0,0 UV-I 0 W/m 12,3 C 1,6 km/h (1 Bft)
23.06.2016 03:58 12,9 C 12,9 C 96 % 1020,8 hPa 0,0 mm 0,0 km/h (0 Bft) W-SW 237 0 min 0,000 mm 0,0 UV-I 0 W/m 12,3 C 0,0 km/h (0 Bft)
23.06.2016 03:59 12,9 C 12,9 C 96 % 1020,8 hPa 0,0 mm 0,0 km/h (0 Bft) W-SW 237 0 min 0,000 mm 0,0 UV-I 0 W/m 12,3 C 0,0 km/h (0 Bft)
23.06.2016 04:00 13,0 C 13,0 C 96 % 1020,8 hPa 0,0 mm 0,0 km/h (0 Bft) W-SW 237 0 min 0,000 mm 0,0 UV-I 0 W/m 12,4 C 0,0 km/h (0 Bft)
23.06.2016 04:01 13,1 C 13,1 C 96 % 1020,8 hPa 0,0 mm 1,6 km/h (1 Bft) W-SW 247 0 min 0,000 mm 0,0 UV-I 0 W/m 12,5 C 1,6 km/h (1 Bft)
23.06.2016 04:03 13,1 C 13,1 C 97 % 1020,8 hPa 0,0 mm 0,0 km/h (0 Bft) W-SW 237 0 min 0,000 mm 0,0 UV-I 0 W/m 12,6 C 0,0 km/h (0 Bft)
23.06.2016 04:04 13,1 C 13,1 C 97 % 1020,8 hPa 0,0 mm 0,0 km/h (0 Bft) W-SW 237 0 min 0,000 mm 0,0 UV-I 0 W/m 12,6 C 0,0 km/h (0 Bft)
23.06.2016 04:05 13,1 C 13,1 C 96 % 1020,8 hPa 0,0 mm 0,0 km/h (0 Bft) W-SW 237 0 min 0,000 mm 0,0 UV-I 0 W/m 12,5 C 0,0 km/h (0 Bft)
23.06.2016 04:06 13,1 C 13,1 C 97 % 1020,7 hPa 0,0 mm 0,0 km/h (0 Bft) W-SW 237 0 min 0,000 mm 0,0 UV-I 0 W/m 12,6 C 0,0 km/h (0 Bft)
23.06.2016 04:07 13,1 C 13,1 C 97 % 1020,7 hPa 0,0 mm 0,0 km/h (0 Bft) W-SW 237 0 min 0,000 mm 0,0 UV-I 0 W/m 12,6 C 0,0 km/h (0 Bft)
23.06.2016 04:09 13,1 C 13,1 C 97 % 1020,7 hPa 0,0 mm 0,0 km/h (0 Bft) W-SW 237 0 min 0,000 mm 0,0 UV-I 0 W/m 12,6 C 0,0 km/h (0 Bft)
23.06.2016 04:10 13,1 C 13,1 C 97 % 1020,7 hPa 0,0 mm 0,0 km/h (0 Bft) W-SW 237 0 min 0,000 mm 0,0 UV-I 0 W/m 12,6 C 0,0 km/h (0 Bft)
23.06.2016 04:11 13,1 C 13,1 C 97 % 1020,7 hPa 0,0 mm 0,0 km/h (0 Bft) W-SW 237 0 min 0,000 mm 0,0 UV-I 0 W/m 12,6 C 0,0 km/h (0 Bft)
23.06.2016 04:12 13,2 C 13,2 C 97 % 1020,7 hPa 0,0 mm 0,0 km/h (0 Bft) W-SW 237 0 min 0,000 mm 0,0 UV-I 0 W/m 12,7 C 0,0 km/h (0 Bft)
23.06.2016 04:13 13,2 C 13,2 C 97 % 1020,7 hPa 0,0 mm 0,0 km/h (0 Bft) W-SW 237 0 min 0,000 mm 0,0 UV-I 0 W/m 12,7 C 0,0 km/h (0 Bft)
23.06.2016 04:14 13,1 C 13,2 C 97 % 1020,7 hPa 0,0 mm 0,0 km/h (0 Bft) W-SW 237 0 min 0,000 mm 0,0 UV-I 0 W/m 12,6 C 0,0 km/h (0 Bft)
23.06.2016 04:15 13,1 C 13,1 C 97 % 1020,7 hPa 0,0 mm 0,0 km/h (0 Bft) W-SW 237 0 min 0,000 mm 0,0 UV-I 0 W/m 12,6 C 0,0 km/h (0 Bft)
23.06.2016 04:16 13,0 C 13,1 C 97 % 1020,6 hPa 0,0 mm 0,0 km/h (0 Bft) W-SW 237 0 min 0,000 mm 0,0 UV-I 0 W/m 12,5 C 0,0 km/h (0 Bft)
23.06.2016 04:17 12,9 C 13,0 C 96 % 1020,7 hPa 0,0 mm 0,0 km/h (0 Bft) W-SW 237 0 min 0,000 mm 0,0 UV-I 0 W/m 12,3 C 0,0 km/h (0 Bft)
23.06.2016 04:18 12,9 C 12,9 C 96 % 1020,7 hPa 0,0 mm 0,0 km/h (0 Bft) W-SW 237 0 min 0,000 mm 0,0 UV-I 0 W/m 12,3 C 0,0 km/h (0 Bft)
23.06.2016 04:19 12,8 C 12,9 C 96 % 1020,7 hPa 0,0 mm 0,3 km/h (0 Bft) W-SW 237 0 min 0,000 mm 0,0 UV-I 0 W/m 12,2 C 1,6 km/h (1 Bft)
23.06.2016 04:20 12,8 C 12,8 C 96 % 1020,6 hPa 0,0 mm 0,1 km/h (0 Bft) W-SW 237 0 min 0,000 mm 0,0 UV-I 0 W/m 12,2 C 1,6 km/h (1 Bft)
23.06.2016 04:21 12,7 C 12,8 C 96 % 1020,6 hPa 0,0 mm 0,6 km/h (0 Bft) W-SW 237 0 min 0,000 mm 0,0 UV-I 0 W/m 12,1 C 1,6 km/h (1 Bft)
23.06.2016 04:22 12,7 C 12,7 C 96 % 1020,5 hPa 0,0 mm 0,0 km/h (0 Bft) W-SW 237 0 min 0,000 mm 0,0 UV-I 0 W/m 12,1 C 0,0 km/h (0 Bft)
23.06.2016 04:23 12,6 C 12,7 C 96 % 1020,5 hPa 0,0 mm 0,0 km/h (0 Bft) W-SW 237 0 min 0,000 mm 0,0 UV-I 0 W/m 12,0 C 0,0 km/h (0 Bft)
23.06.2016 04:24 12,6 C 12,6 C 96 % 1020,5 hPa 0,0 mm 0,0 km/h (0 Bft) W-SW 237 0 min 0,000 mm 0,0 UV-I 0 W/m 12,0 C 0,0 km/h (0 Bft)
23.06.2016 04:25 12,6 C 12,6 C 96 % 1020,5 hPa 0,0 mm 0,0 km/h (0 Bft) W-SW 237 0 min 0,000 mm 0,0 UV-I 0 W/m 12,0 C 0,0 km/h (0 Bft)
23.06.2016 04:26 12,5 C 12,6 C 96 % 1020,5 hPa 0,0 mm 0,0 km/h (0 Bft) W-SW 237 0 min 0,000 mm 0,0 UV-I 0 W/m 11,9 C 0,0 km/h (0 Bft)
23.06.2016 04:27 12,4 C 12,5 C 95 % 1020,4 hPa 0,0 mm 0,0 km/h (0 Bft) W-SW 237 0 min 0,000 mm 0,0 UV-I 0 W/m 11,6 C 0,0 km/h (0 Bft)
23.06.2016 04:28 12,3 C 12,4 C 95 % 1020,4 hPa 0,0 mm 0,0 km/h (0 Bft) W-SW 237 0 min 0,000 mm 0,0 UV-I 0 W/m 11,5 C 0,0 km/h (0 Bft)
23.06.2016 04:29 12,2 C 12,3 C 95 % 1020,4 hPa 0,0 mm 0,0 km/h (0 Bft) W-SW 237 0 min 0,000 mm 0,0 UV-I 0 W/m 11,4 C 0,0 km/h (0 Bft)
23.06.2016 04:30 12,2 C 12,2 C 95 % 1020,4 hPa 0,0 mm 0,7 km/h (0 Bft) W-SW 237 0 min 0,000 mm 0,0 UV-I 0 W/m 11,4 C 1,6 km/h (1 Bft)
23.06.2016 04:31 12,1 C 12,2 C 95 % 1020,4 hPa 0,0 mm 0,1 km/h (0 Bft) W-SW 237 0 min 0,000 mm 0,0 UV-I 0 W/m 11,3 C 1,6 km/h (1 Bft)
23.06.2016 04:32 12,1 C 12,1 C 96 % 1020,4 hPa 0,0 mm 0,0 km/h (0 Bft) W-SW 237 0 min 0,000 mm 0,0 UV-I 0 W/m 11,5 C 0,0 km/h (0 Bft)
23.06.2016 04:33 12,1 C 12,1 C 96 % 1020,4 hPa 0,0 mm 1,0 km/h (0 Bft) S-SW 213 0 min 0,000 mm 0,0 UV-I 0 W/m 11,5 C 3,2 km/h (1 Bft)
23.06.2016 04:34 12,1 C 12,1 C 96 % 1020,4 hPa 0,0 mm 0,6 km/h (0 Bft) S-SW 213 0 min 0,000 mm 0,0 UV-I 0 W/m 11,5 C 1,6 km/h (1 Bft)
23.06.2016 04:35 12,1 C 12,2 C 96 % 1020,4 hPa 0,0 mm 0,9 km/h (0 Bft) S-SW 213 0 min 0,000 mm 0,0 UV-I 0 W/m 11,5 C 1,6 km/h (1 Bft)
23.06.2016 04:36 12,1 C 12,2 C 96 % 1020,4 hPa 0,0 mm 0,7 km/h (0 Bft) S-SW 213 0 min 0,000 mm 0,0 UV-I 0 W/m 11,5 C 1,6 km/h (1 Bft)
23.06.2016 04:37 12,1 C 12,1 C 96 % 1020,4 hPa 0,0 mm 0,5 km/h (0 Bft) S-SW 213 0 min 0,000 mm 0,0 UV-I 0 W/m 11,5 C 1,6 km/h (1 Bft)
23.06.2016 04:38 12,1 C 12,1 C 96 % 1020,3 hPa 0,0 mm 0,0 km/h (0 Bft) S-SW 213 0 min 0,000 mm 0,0 UV-I 0 W/m 11,5 C 0,0 km/h (0 Bft)
23.06.2016 04:39 12,1 C 12,1 C 96 % 1020,3 hPa 0,0 mm 0,0 km/h (0 Bft) S-SW 213 0 min 0,000 mm 0,0 UV-I 0 W/m 11,5 C 0,0 km/h (0 Bft)
23.06.2016 04:40 12,1 C 12,1 C 96 % 1020,3 hPa 0,0 mm 0,0 km/h (0 Bft) S-SW 213 0 min 0,000 mm 0,0 UV-I 0 W/m 11,5 C 0,0 km/h (0 Bft)
23.06.2016 04:41 12,1 C 12,1 C 96 % 1020,3 hPa 0,0 mm 0,0 km/h (0 Bft) S-SW 213 0 min 0,000 mm 0,0 UV-I 0 W/m 11,5 C 0,0 km/h (0 Bft)
23.06.2016 04:42 12,2 C 12,2 C 96 % 1020,4 hPa 0,0 mm 0,0 km/h (0 Bft) S-SW 213 0 min 0,000 mm 0,0 UV-I 0 W/m 11,6 C 0,0 km/h (0 Bft)
23.06.2016 04:43 12,3 C 12,3 C 97 % 1020,4 hPa 0,0 mm 0,0 km/h (0 Bft) S-SW 213 0 min 0,000 mm 0,0 UV-I 0 W/m 11,8 C 0,0 km/h (0 Bft)
23.06.2016 04:44 12,4 C 12,4 C 97 % 1020,3 hPa 0,0 mm 0,0 km/h (0 Bft) S-SW 213 0 min 0,000 mm 0,0 UV-I 0 W/m 11,9 C 0,0 km/h (0 Bft)
23.06.2016 04:45 12,4 C 12,4 C 97 % 1020,3 hPa 0,0 mm 0,0 km/h (0 Bft) S-SW 213 0 min 0,000 mm 0,0 UV-I 0 W/m 11,9 C 0,0 km/h (0 Bft)
23.06.2016 04:46 12,3 C 12,4 C 97 % 1020,4 hPa 0,0 mm 0,0 km/h (0 Bft) S-SW 213 0 min 0,000 mm 0,0 UV-I 0 W/m 11,8 C 0,0 km/h (0 Bft)
23.06.2016 04:47 12,3 C 12,3 C 97 % 1020,3 hPa 0,0 mm 0,0 km/h (0 Bft) S-SW 213 0 min 0,000 mm 0,0 UV-I 0 W/m 11,8 C 0,0 km/h (0 Bft)
23.06.2016 04:48 12,3 C 12,3 C 97 % 1020,3 hPa 0,0 mm 0,0 km/h (0 Bft) S-SW 213 0 min 0,000 mm 0,0 UV-I 0 W/m 11,8 C 0,0 km/h (0 Bft)
23.06.2016 04:49 12,4 C 12,4 C 97 % 1020,3 hPa 0,0 mm 0,0 km/h (0 Bft) S-SW 213 0 min 0,000 mm 0,0 UV-I 0 W/m 11,9 C 0,0 km/h (0 Bft)
23.06.2016 04:50 12,6 C 12,6 C 97 % 1020,3 hPa 0,0 mm 0,0 km/h (0 Bft) S-SW 213 0 min 0,000 mm 0,0 UV-I 0 W/m 12,1 C 0,0 km/h (0 Bft)
23.06.2016 04:51 12,4 C 12,6 C 97 % 1020,3 hPa 0,0 mm 0,0 km/h (0 Bft) S-SW 213 0 min 0,000 mm 0,0 UV-I 0 W/m 11,9 C 0,0 km/h (0 Bft)
23.06.2016 04:52 12,3 C 12,4 C 97 % 1020,3 hPa 0,0 mm 0,0 km/h (0 Bft) S-SW 213 0 min 0,000 mm 0,0 UV-I 0 W/m 11,8 C 0,0 km/h (0 Bft)
23.06.2016 04:53 12,4 C 12,4 C 97 % 1020,3 hPa 0,0 mm 0,0 km/h (0 Bft) S-SW 213 0 min 0,000 mm 0,0 UV-I 0 W/m 11,9 C 0,0 km/h (0 Bft)
23.06.2016 04:54 12,4 C 12,4 C 97 % 1020,3 hPa 0,0 mm 0,0 km/h (0 Bft) S-SW 213 0 min 0,000 mm 0,0 UV-I 0 W/m 11,9 C 0,0 km/h (0 Bft)
23.06.2016 04:55 12,5 C 12,5 C 97 % 1020,3 hPa 0,0 mm 0,0 km/h (0 Bft) S-SW 213 0 min 0,000 mm 0,0 UV-I 0 W/m 12,0 C 0,0 km/h (0 Bft)
23.06.2016 04:56 12,6 C 12,6 C 97 % 1020,3 hPa 0,0 mm 0,0 km/h (0 Bft) S-SW 213 0 min 0,000 mm 0,0 UV-I 0 W/m 12,1 C 0,0 km/h (0 Bft)
23.06.2016 04:57 12,6 C 12,7 C 97 % 1020,3 hPa 0,0 mm 0,0 km/h (0 Bft) S-SW 213 0 min 0,000 mm 0,0 UV-I 0 W/m 12,1 C 0,0 km/h (0 Bft)
23.06.2016 04:58 12,6 C 12,6 C 97 % 1020,3 hPa 0,0 mm 0,0 km/h (0 Bft) S-SW 213 0 min 0,000 mm 0,0 UV-I 0 W/m 12,1 C 0,0 km/h (0 Bft)
23.06.2016 04:59 12,6 C 12,6 C 97 % 1020,3 hPa 0,0 mm 0,0 km/h (0 Bft) S-SW 213 0 min 0,000 mm 0,0 UV-I 0 W/m 12,1 C 0,0 km/h (0 Bft)
23.06.2016 05:00 12,4 C 12,6 C 97 % 1020,3 hPa 0,0 mm 0,0 km/h (0 Bft) S-SW 213 0 min 0,000 mm 0,0 UV-I 0 W/m 11,9 C 0,0 km/h (0 Bft)
23.06.2016 05:01 12,4 C 12,4 C 97 % 1020,2 hPa 0,0 mm 0,0 km/h (0 Bft) S-SW 213 0 min 0,000 mm 0,0 UV-I 0 W/m 11,9 C 0,0 km/h (0 Bft)
23.06.2016 05:02 12,4 C 12,4 C 97 % 1020,3 hPa 0,0 mm 0,7 km/h (0 Bft) S-SW 213 0 min 0,000 mm 0,0 UV-I 0 W/m 11,9 C 1,6 km/h (1 Bft)
23.06.2016 05:03 12,3 C 12,4 C 97 % 1020,3 hPa 0,0 mm 1,9 km/h (1 Bft) S-SW 213 0 min 0,000 mm 0,0 UV-I 0 W/m 11,8 C 3,2 km/h (1 Bft)
23.06.2016 05:04 12,3 C 12,3 C 97 % 1020,2 hPa 0,0 mm 1,2 km/h (1 Bft) S-SW 213 0 min 0,000 mm 0,0 UV-I 0 W/m 11,8 C 1,6 km/h (1 Bft)
23.06.2016 05:05 12,3 C 12,3 C 97 % 1020,2 hPa 0,0 mm 0,2 km/h (0 Bft) S-SW 213 0 min 0,000 mm 0,0 UV-I 0 W/m 11,8 C 1,6 km/h (1 Bft)
23.06.2016 05:06 12,3 C 12,3 C 97 % 1020,2 hPa 0,0 mm 0,0 km/h (0 Bft) S-SW 213 0 min 0,000 mm 0,0 UV-I 0 W/m 11,8 C 0,0 km/h (0 Bft)
23.06.2016 05:07 12,3 C 12,3 C 97 % 1020,2 hPa 0,0 mm 0,0 km/h (0 Bft) S-SW 213 0 min 0,000 mm 0,0 UV-I 0 W/m 11,8 C 0,0 km/h (0 Bft)
23.06.2016 05:08 12,2 C 12,3 C 97 % 1020,2 hPa 0,0 mm 0,0 km/h (0 Bft) S-SW 213 0 min 0,000 mm 0,0 UV-I 0 W/m 11,7 C 0,0 km/h (0 Bft)
23.06.2016 05:09 12,1 C 12,2 C 97 % 1020,2 hPa 0,0 mm 0,0 km/h (0 Bft) S-SW 213 0 min 0,000 mm 0,0 UV-I 0 W/m 11,6 C 0,0 km/h (0 Bft)
23.06.2016 05:10 11,9 C 12,1 C 96 % 1020,2 hPa 0,0 mm 0,2 km/h (0 Bft) S-SW 213 0 min 0,000 mm 0,0 UV-I 0 W/m 11,3 C 1,6 km/h (1 Bft)
23.06.2016 05:11 11,8 C 11,9 C 96 % 1020,2 hPa 0,0 mm 0,1 km/h (0 Bft) S-SW 213 0 min 0,000 mm 0,0 UV-I 0 W/m 11,2 C 1,6 km/h (1 Bft)
23.06.2016 05:12 11,7 C 11,8 C 95 % 1020,2 hPa 0,0 mm 0,0 km/h (0 Bft) S-SW 213 0 min 0,000 mm 0,0 UV-I 0 W/m 10,9 C 0,0 km/h (0 Bft)
23.06.2016 05:13 11,6 C 11,7 C 95 % 1020,2 hPa 0,0 mm 0,0 km/h (0 Bft) S-SW 213 0 min 0,000 mm 0,0 UV-I 0 W/m 10,8 C 0,0 km/h (0 Bft)
23.06.2016 05:14 11,4 C 11,6 C 95 % 1020,2 hPa 0,0 mm 0,5 km/h (0 Bft) S-SW 213 0 min 0,000 mm 0,0 UV-I 0 W/m 10,6 C 1,6 km/h (1 Bft)
23.06.2016 05:15 11,3 C 11,4 C 95 % 1020,2 hPa 0,0 mm 0,8 km/h (0 Bft) SW 215 0 min 0,000 mm 0,0 UV-I 0 W/m 10,5 C 1,6 km/h (1 Bft)
23.06.2016 05:16 11,2 C 11,3 C 95 % 1020,2 hPa 0,0 mm 0,0 km/h (0 Bft) SW 215 0 min 0,000 mm 0,0 UV-I 0 W/m 10,4 C 0,0 km/h (0 Bft)
23.06.2016 05:17 11,1 C 11,2 C 95 % 1020,2 hPa 0,0 mm 0,0 km/h (0 Bft) SW 215 0 min 0,000 mm 0,0 UV-I 0 W/m 10,3 C 0,0 km/h (0 Bft)
23.06.2016 05:18 11,1 C 11,1 C 96 % 1020,2 hPa 0,0 mm 0,0 km/h (0 Bft) SW 215 0 min 0,000 mm 0,0 UV-I 0 W/m 10,5 C 0,0 km/h (0 Bft)
23.06.2016 05:19 11,1 C 11,1 C 96 % 1020,2 hPa 0,0 mm 0,3 km/h (0 Bft) SW 215 0 min 0,000 mm 0,0 UV-I 0 W/m 10,5 C 1,6 km/h (1 Bft)
23.06.2016 05:20 11,2 C 11,2 C 96 % 1020,2 hPa 0,0 mm 0,1 km/h (0 Bft) SW 215 0 min 0,000 mm 0,0 UV-I 5 W/m 10,6 C 1,6 km/h (1 Bft)
23.06.2016 05:21 11,2 C 11,2 C 97 % 1020,2 hPa 0,0 mm 1,6 km/h (1 Bft) S-SW 209 0 min 0,000 mm 0,0 UV-I 5 W/m 10,7 C 3,2 km/h (1 Bft)
23.06.2016 05:22 11,3 C 11,3 C 97 % 1020,2 hPa 0,0 mm 0,6 km/h (0 Bft) S-SW 209 0 min 0,000 mm 0,0 UV-I 5 W/m 10,8 C 1,6 km/h (1 Bft)
23.06.2016 05:23 11,4 C 11,4 C 97 % 1020,2 hPa 0,0 mm 0,9 km/h (0 Bft) S-SW 209 0 min 0,000 mm 0,0 UV-I 5 W/m 10,9 C 1,6 km/h (1 Bft)
23.06.2016 05:24 11,5 C 11,5 C 97 % 1020,2 hPa 0,0 mm 1,3 km/h (1 Bft) S-SW 209 0 min 0,000 mm 0,0 UV-I 5 W/m 11,0 C 1,6 km/h (1 Bft)
23.06.2016 05:25 11,6 C 11,6 C 97 % 1020,2 hPa 0,0 mm 0,9 km/h (0 Bft) S-SW 209 0 min 0,000 mm 0,0 UV-I 5 W/m 11,1 C 1,6 km/h (1 Bft)
23.06.2016 05:26 11,6 C 11,6 C 97 % 1020,2 hPa 0,0 mm 1,7 km/h (1 Bft) S 178 0 min 0,000 mm 0,0 UV-I 5 W/m 11,1 C 3,2 km/h (1 Bft)
23.06.2016 05:27 11,6 C 11,6 C 97 % 1020,2 hPa 0,0 mm 2,0 km/h (1 Bft) S 171 0 min 0,000 mm 0,0 UV-I 7 W/m 11,1 C 3,2 km/h (1 Bft)
23.06.2016 05:28 11,6 C 11,6 C 97 % 1020,2 hPa 0,0 mm 2,6 km/h (1 Bft) S-SO 158 0 min 0,000 mm 0,0 UV-I 7 W/m 11,1 C 4,8 km/h (1 Bft)
23.06.2016 05:29 11,7 C 11,7 C 97 % 1020,2 hPa 0,0 mm 1,7 km/h (1 Bft) S-SO 158 0 min 0,000 mm 0,0 UV-I 7 W/m 11,2 C 3,2 km/h (1 Bft)
23.06.2016 05:30 11,9 C 11,9 C 97 % 1020,2 hPa 0,0 mm 0,5 km/h (0 Bft) S-SO 158 0 min 0,000 mm 0,0 UV-I 7 W/m 11,4 C 1,6 km/h (1 Bft)
23.06.2016 05:31 12,1 C 12,1 C 97 % 1020,1 hPa 0,0 mm 0,1 km/h (0 Bft) S-SO 158 0 min 0,000 mm 0,0 UV-I 9 W/m 11,6 C 1,6 km/h (1 Bft)
23.06.2016 05:32 12,2 C 12,2 C 97 % 1020,1 hPa 0,0 mm 1,1 km/h (1 Bft) S-SO 158 0 min 0,000 mm 0,0 UV-I 9 W/m 11,7 C 1,6 km/h (1 Bft)
23.06.2016 05:33 12,3 C 12,3 C 97 % 1020,1 hPa 0,0 mm 0,9 km/h (0 Bft) S-SO 158 0 min 0,000 mm 0,0 UV-I 11 W/m 11,8 C 1,6 km/h (1 Bft)
23.06.2016 05:34 12,5 C 12,5 C 97 % 1020,1 hPa 0,0 mm 1,3 km/h (1 Bft) S-SO 158 0 min 0,000 mm 0,0 UV-I 11 W/m 12,0 C 3,2 km/h (1 Bft)
23.06.2016 05:35 12,6 C 12,6 C 97 % 1020,1 hPa 0,0 mm 0,5 km/h (0 Bft) S-SO 158 0 min 0,000 mm 0,0 UV-I 11 W/m 12,1 C 1,6 km/h (1 Bft)
23.06.2016 05:36 12,7 C 12,7 C 97 % 1020,1 hPa 0,0 mm 0,0 km/h (0 Bft) S-SO 158 0 min 0,000 mm 0,0 UV-I 11 W/m 12,2 C 0,0 km/h (0 Bft)
23.06.2016 05:37 12,7 C 12,7 C 97 % 1020,1 hPa 0,0 mm 0,0 km/h (0 Bft) S-SO 158 0 min 0,000 mm 0,0 UV-I 12 W/m 12,2 C 0,0 km/h (0 Bft)
23.06.2016 05:38 12,6 C 12,7 C 97 % 1020,0 hPa 0,0 mm 0,0 km/h (0 Bft) S-SO 158 0 min 0,000 mm 0,0 UV-I 12 W/m 12,1 C 0,0 km/h (0 Bft)
23.06.2016 05:39 12,3 C 12,6 C 97 % 1020,1 hPa 0,0 mm 0,0 km/h (0 Bft) S-SO 158 0 min 0,000 mm 0,0 UV-I 12 W/m 11,8 C 0,0 km/h (0 Bft)
23.06.2016 05:40 12,2 C 12,3 C 97 % 1020,1 hPa 0,0 mm 1,1 km/h (1 Bft) S-SO 158 0 min 0,000 mm 0,0 UV-I 12 W/m 11,7 C 1,6 km/h (1 Bft)
23.06.2016 05:41 12,3 C 12,3 C 97 % 1020,1 hPa 0,0 mm 0,5 km/h (0 Bft) S-SO 158 0 min 0,000 mm 0,0 UV-I 14 W/m 11,8 C 1,6 km/h (1 Bft)
23.06.2016 05:42 12,3 C 12,3 C 97 % 1020,0 hPa 0,0 mm 0,0 km/h (0 Bft) S-SO 158 0 min 0,000 mm 0,0 UV-I 14 W/m 11,8 C 0,0 km/h (0 Bft)
23.06.2016 05:43 12,3 C 12,3 C 97 % 1020,1 hPa 0,0 mm 0,0 km/h (0 Bft) S-SO 158 0 min 0,000 mm 0,0 UV-I 14 W/m 11,8 C 0,0 km/h (0 Bft)
23.06.2016 05:44 12,1 C 12,3 C 97 % 1020,1 hPa 0,0 mm 0,0 km/h (0 Bft) S-SO 158 0 min 0,000 mm 0,0 UV-I 14 W/m 11,6 C 0,0 km/h (0 Bft)
23.06.2016 05:45 11,9 C 12,1 C 97 % 1020,0 hPa 0,0 mm 0,0 km/h (0 Bft) S-SO 158 0 min 0,000 mm 0,0 UV-I 14 W/m 11,4 C 0,0 km/h (0 Bft)
23.06.2016 05:46 11,9 C 11,9 C 97 % 1020,1 hPa 0,0 mm 0,0 km/h (0 Bft) S-SO 158 0 min 0,000 mm 0,0 UV-I 16 W/m 11,4 C 0,0 km/h (0 Bft)
23.06.2016 05:47 11,8 C 11,9 C 96 % 1020,1 hPa 0,0 mm 0,0 km/h (0 Bft) S-SO 158 0 min 0,000 mm 0,0 UV-I 16 W/m 11,2 C 0,0 km/h (0 Bft)
23.06.2016 05:48 11,7 C 11,8 C 96 % 1020,0 hPa 0,0 mm 0,0 km/h (0 Bft) S-SO 158 0 min 0,000 mm 0,0 UV-I 16 W/m 11,1 C 0,0 km/h (0 Bft)
23.06.2016 05:49 11,6 C 11,7 C 96 % 1020,1 hPa 0,0 mm 0,0 km/h (0 Bft) S-SO 158 0 min 0,000 mm 0,0 UV-I 16 W/m 11,0 C 0,0 km/h (0 Bft)
23.06.2016 05:50 11,6 C 11,6 C 96 % 1020,0 hPa 0,0 mm 0,0 km/h (0 Bft) S-SO 158 0 min 0,000 mm 0,0 UV-I 16 W/m 11,0 C 0,0 km/h (0 Bft)
23.06.2016 05:51 11,6 C 11,6 C 96 % 1020,0 hPa 0,0 mm 0,2 km/h (0 Bft) S-SO 158 0 min 0,000 mm 0,0 UV-I 18 W/m 11,0 C 1,6 km/h (1 Bft)
23.06.2016 05:52 11,8 C 11,8 C 96 % 1020,0 hPa 0,0 mm 0,3 km/h (0 Bft) S-SO 158 0 min 0,000 mm 0,0 UV-I 18 W/m 11,2 C 1,6 km/h (1 Bft)
23.06.2016 05:53 11,9 C 11,9 C 97 % 1020,0 hPa 0,0 mm 0,0 km/h (0 Bft) S-SO 158 0 min 0,000 mm 0,0 UV-I 18 W/m 11,4 C 0,0 km/h (0 Bft)
23.06.2016 05:54 12,0 C 12,1 C 97 % 1020,0 hPa 0,0 mm 0,0 km/h (0 Bft) S-SO 158 0 min 0,000 mm 0,0 UV-I 18 W/m 11,5 C 0,0 km/h (0 Bft)
23.06.2016 05:55 11,8 C 12,0 C 97 % 1020,0 hPa 0,0 mm 0,3 km/h (0 Bft) S-SO 158 0 min 0,000 mm 0,0 UV-I 18 W/m 11,3 C 1,6 km/h (1 Bft)
23.06.2016 05:56 11,7 C 11,8 C 97 % 1020,0 hPa 0,0 mm 0,0 km/h (0 Bft) S-SO 158 0 min 0,000 mm 0,0 UV-I 19 W/m 11,2 C 0,0 km/h (0 Bft)
23.06.2016 05:57 11,7 C 11,7 C 96 % 1020,0 hPa 0,0 mm 0,0 km/h (0 Bft) S-SO 158 0 min 0,000 mm 0,0 UV-I 19 W/m 11,1 C 0,0 km/h (0 Bft)
23.06.2016 05:58 11,6 C 11,7 C 96 % 1020,0 hPa 0,0 mm 0,1 km/h (0 Bft) S-SO 158 0 min 0,000 mm 0,0 UV-I 19 W/m 11,0 C 1,6 km/h (1 Bft)
23.06.2016 05:59 11,7 C 11,7 C 96 % 1020,0 hPa 0,0 mm 0,1 km/h (0 Bft) S-SO 158 0 min 0,000 mm 0,0 UV-I 19 W/m 11,1 C 1,6 km/h (1 Bft)
23.06.2016 06:00 11,7 C 11,7 C 97 % 1020,0 hPa 0,0 mm 0,0 km/h (0 Bft) S-SO 158 0 min 0,000 mm 0,0 UV-I 21 W/m 11,2 C 0,0 km/h (0 Bft)
23.06.2016 06:01 11,8 C 11,8 C 97 % 1020,0 hPa 0,0 mm 0,1 km/h (0 Bft) S-SO 158 0 min 0,000 mm 0,0 UV-I 25 W/m 11,3 C 1,6 km/h (1 Bft)
23.06.2016 06:02 11,9 C 11,9 C 97 % 1020,0 hPa 0,0 mm 0,0 km/h (0 Bft) S-SO 158 0 min 0,000 mm 0,0 UV-I 28 W/m 11,4 C 0,0 km/h (0 Bft)
23.06.2016 06:03 12,1 C 12,1 C 97 % 1020,0 hPa 0,0 mm 0,1 km/h (0 Bft) S-SO 158 0 min 0,000 mm 0,0 UV-I 33 W/m 11,6 C 1,6 km/h (1 Bft)
23.06.2016 06:04 11,9 C 12,1 C 97 % 1020,0 hPa 0,0 mm 0,0 km/h (0 Bft) S-SO 158 0 min 0,000 mm 0,0 UV-I 39 W/m 11,4 C 0,0 km/h (0 Bft)
23.06.2016 06:05 11,9 C 11,9 C 96 % 1020,0 hPa 0,0 mm 0,0 km/h (0 Bft) S-SO 158 0 min 0,000 mm 0,0 UV-I 44 W/m 11,3 C 0,0 km/h (0 Bft)
23.06.2016 06:06 11,7 C 11,9 C 95 % 1020,0 hPa 0,0 mm 0,5 km/h (0 Bft) S-SO 158 0 min 0,000 mm 0,0 UV-I 46 W/m 10,9 C 1,6 km/h (1 Bft)
23.06.2016 06:07 11,6 C 11,7 C 94 % 1020,0 hPa 0,0 mm 1,2 km/h (1 Bft) S-SO 158 0 min 0,000 mm 0,0 UV-I 49 W/m 10,7 C 1,6 km/h (1 Bft)
23.06.2016 06:08 11,5 C 11,6 C 95 % 1020,1 hPa 0,0 mm 1,5 km/h (1 Bft) S-SO 157 0 min 0,000 mm 0,0 UV-I 51 W/m 10,7 C 3,2 km/h (1 Bft)
23.06.2016 06:09 11,4 C 11,5 C 95 % 1020,1 hPa 0,0 mm 1,8 km/h (1 Bft) S-SO 157 0 min 0,000 mm 0,0 UV-I 53 W/m 10,6 C 3,2 km/h (1 Bft)
23.06.2016 06:10 11,3 C 11,4 C 95 % 1020,1 hPa 0,0 mm 1,6 km/h (1 Bft) S-SO 157 0 min 0,000 mm 0,0 UV-I 54 W/m 10,5 C 3,2 km/h (1 Bft)
23.06.2016 06:11 11,3 C 11,4 C 95 % 1020,1 hPa 0,0 mm 0,2 km/h (0 Bft) S-SO 157 0 min 0,000 mm 0,0 UV-I 56 W/m 10,5 C 1,6 km/h (1 Bft)
23.06.2016 06:12 11,4 C 11,4 C 96 % 1020,1 hPa 0,0 mm 0,1 km/h (0 Bft) S-SO 157 0 min 0,000 mm 0,0 UV-I 56 W/m 10,8 C 1,6 km/h (1 Bft)
23.06.2016 06:13 11,6 C 11,6 C 96 % 1020,1 hPa 0,0 mm 0,1 km/h (0 Bft) S-SO 157 0 min 0,000 mm 0,0 UV-I 62 W/m 11,0 C 1,6 km/h (1 Bft)
23.06.2016 06:14 11,6 C 11,6 C 96 % 1020,1 hPa 0,0 mm 0,0 km/h (0 Bft) S-SO 157 0 min 0,000 mm 0,0 UV-I 62 W/m 11,0 C 0,0 km/h (0 Bft)
23.06.2016 06:15 11,9 C 11,9 C 96 % 1020,1 hPa 0,0 mm 1,0 km/h (0 Bft) S-SO 157 0 min 0,000 mm 0,0 UV-I 63 W/m 11,3 C 1,6 km/h (1 Bft)
23.06.2016 06:16 12,1 C 12,1 C 97 % 1020,1 hPa 0,0 mm 0,0 km/h (0 Bft) S-SO 157 0 min 0,000 mm 0,0 UV-I 63 W/m 11,6 C 0,0 km/h (0 Bft)
23.06.2016 06:17 12,2 C 12,2 C 97 % 1020,1 hPa 0,0 mm 0,0 km/h (0 Bft) S-SO 157 0 min 0,000 mm 0,0 UV-I 63 W/m 11,7 C 0,0 km/h (0 Bft)
23.06.2016 06:18 12,2 C 12,2 C 97 % 1020,1 hPa 0,0 mm 0,0 km/h (0 Bft) S-SO 157 0 min 0,000 mm 0,0 UV-I 65 W/m 11,7 C 0,0 km/h (0 Bft)
23.06.2016 06:19 12,2 C 12,2 C 97 % 1020,1 hPa 0,0 mm 0,0 km/h (0 Bft) S-SO 157 0 min 0,000 mm 0,0 UV-I 65 W/m 11,7 C 0,0 km/h (0 Bft)
23.06.2016 06:20 12,2 C 12,2 C 97 % 1020,1 hPa 0,0 mm 0,0 km/h (0 Bft) S-SO 157 0 min 0,000 mm 0,0 UV-I 65 W/m 11,7 C 0,0 km/h (0 Bft)
23.06.2016 06:21 12,3 C 12,3 C 96 % 1020,1 hPa 0,0 mm 0,1 km/h (0 Bft) S-SO 157 0 min 0,000 mm 0,0 UV-I 65 W/m 11,7 C 1,6 km/h (1 Bft)
23.06.2016 06:22 12,4 C 12,4 C 97 % 1020,1 hPa 0,0 mm 0,9 km/h (0 Bft) S-SO 157 0 min 0,000 mm 0,0 UV-I 65 W/m 11,9 C 1,6 km/h (1 Bft)
23.06.2016 06:23 12,6 C 12,6 C 97 % 1020,1 hPa 0,0 mm 0,9 km/h (0 Bft) S-SO 157 0 min 0,000 mm 0,0 UV-I 67 W/m 12,1 C 1,6 km/h (1 Bft)
23.06.2016 06:24 12,9 C 12,9 C 97 % 1020,1 hPa 0,0 mm 0,7 km/h (0 Bft) S-SO 157 0 min 0,000 mm 0,0 UV-I 67 W/m 12,4 C 1,6 km/h (1 Bft)
23.06.2016 06:25 13,1 C 13,1 C 97 % 1020,1 hPa 0,0 mm 0,1 km/h (0 Bft) S-SO 157 0 min 0,000 mm 0,0 UV-I 67 W/m 12,6 C 1,6 km/h (1 Bft)
23.06.2016 06:26 13,2 C 13,2 C 97 % 1020,1 hPa 0,0 mm 0,0 km/h (0 Bft) S-SO 157 0 min 0,000 mm 0,0 UV-I 69 W/m 12,7 C 0,0 km/h (0 Bft)
23.06.2016 06:27 13,3 C 13,3 C 97 % 1020,1 hPa 0,0 mm 0,0 km/h (0 Bft) S-SO 157 0 min 0,000 mm 0,0 UV-I 69 W/m 12,8 C 0,0 km/h (0 Bft)
23.06.2016 06:28 13,3 C 13,3 C 97 % 1020,1 hPa 0,0 mm 0,0 km/h (0 Bft) S-SO 157 0 min 0,000 mm 0,0 UV-I 70 W/m 12,8 C 0,0 km/h (0 Bft)
23.06.2016 06:29 13,3 C 13,3 C 97 % 1020,1 hPa 0,0 mm 0,0 km/h (0 Bft) S-SO 157 0 min 0,000 mm 0,0 UV-I 72 W/m 12,8 C 0,0 km/h (0 Bft)
23.06.2016 06:30 13,3 C 13,3 C 96 % 1020,1 hPa 0,0 mm 0,3 km/h (0 Bft) S-SO 157 0 min 0,000 mm 0,0 UV-I 76 W/m 12,7 C 1,6 km/h (1 Bft)
23.06.2016 06:31 13,2 C 13,3 C 95 % 1020,2 hPa 0,0 mm 0,0 km/h (0 Bft) S-SO 157 0 min 0,000 mm 0,0 UV-I 81 W/m 12,4 C 0,0 km/h (0 Bft)
23.06.2016 06:32 13,2 C 13,2 C 95 % 1020,1 hPa 0,0 mm 0,0 km/h (0 Bft) S-SO 157 0 min 0,000 mm 0,0 UV-I 84 W/m 12,4 C 0,0 km/h (0 Bft)
23.06.2016 06:33 13,2 C 13,2 C 95 % 1020,2 hPa 0,0 mm 0,0 km/h (0 Bft) S-SO 157 0 min 0,000 mm 0,0 UV-I 88 W/m 12,4 C 0,0 km/h (0 Bft)
23.06.2016 06:34 13,2 C 13,2 C 96 % 1020,1 hPa 0,0 mm 0,0 km/h (0 Bft) S-SO 157 0 min 0,000 mm 0,0 UV-I 90 W/m 12,6 C 0,0 km/h (0 Bft)
23.06.2016 06:35 13,3 C 13,3 C 96 % 1020,1 hPa 0,0 mm 0,0 km/h (0 Bft) S-SO 157 0 min 0,000 mm 0,0 UV-I 93 W/m 12,7 C 0,0 km/h (0 Bft)
23.06.2016 06:36 13,3 C 13,3 C 96 % 1020,1 hPa 0,0 mm 0,0 km/h (0 Bft) S-SO 157 0 min 0,000 mm 0,0 UV-I 100 W/m 12,7 C 0,0 km/h (0 Bft)
23.06.2016 06:37 13,3 C 13,3 C 95 % 1020,1 hPa 0,0 mm 0,0 km/h (0 Bft) S-SO 157 0 min 0,000 mm 0,5 UV-I 102 W/m 12,5 C 0,0 km/h (0 Bft)
23.06.2016 06:38 13,3 C 13,3 C 95 % 1020,1 hPa 0,0 mm 0,1 km/h (0 Bft) S-SO 157 0 min 0,000 mm 0,5 UV-I 107 W/m 12,5 C 1,6 km/h (1 Bft)
23.06.2016 06:39 13,4 C 13,4 C 96 % 1020,1 hPa 0,0 mm 0,0 km/h (0 Bft) S-SO 157 0 min 0,000 mm 0,5 UV-I 111 W/m 12,8 C 0,0 km/h (0 Bft)
23.06.2016 06:40 13,6 C 13,6 C 96 % 1020,1 hPa 0,0 mm 0,1 km/h (0 Bft) S-SO 157 0 min 0,000 mm 0,5 UV-I 113 W/m 13,0 C 1,6 km/h (1 Bft)
23.06.2016 06:41 13,8 C 13,8 C 96 % 1020,1 hPa 0,0 mm 0,1 km/h (0 Bft) S-SO 157 0 min 0,000 mm 0,5 UV-I 118 W/m 13,2 C 1,6 km/h (1 Bft)
23.06.2016 06:42 13,9 C 13,9 C 96 % 1020,1 hPa 0,0 mm 0,0 km/h (0 Bft) S-SO 157 0 min 0,000 mm 0,5 UV-I 125 W/m 13,3 C 0,0 km/h (0 Bft)
23.06.2016 06:43 13,9 C 13,9 C 95 % 1020,1 hPa 0,0 mm 0,0 km/h (0 Bft) S-SO 157 0 min 0,000 mm 0,5 UV-I 128 W/m 13,1 C 0,0 km/h (0 Bft)
23.06.2016 06:44 13,9 C 13,9 C 95 % 1020,1 hPa 0,0 mm 0,0 km/h (0 Bft) S-SO 157 0 min 0,000 mm 0,5 UV-I 132 W/m 13,1 C 0,0 km/h (0 Bft)
23.06.2016 06:45 13,9 C 14,0 C 95 % 1020,1 hPa 0,0 mm 0,2 km/h (0 Bft) S-SO 157 0 min 0,000 mm 0,5 UV-I 135 W/m 13,1 C 1,6 km/h (1 Bft)
23.06.2016 06:46 13,9 C 13,9 C 93 % 1020,1 hPa 0,0 mm 0,0 km/h (0 Bft) S-SO 157 0 min 0,000 mm 0,5 UV-I 139 W/m 12,8 C 0,0 km/h (0 Bft)
23.06.2016 06:47 13,8 C 13,9 C 93 % 1020,1 hPa 0,0 mm 0,0 km/h (0 Bft) S-SO 157 0 min 0,000 mm 0,6 UV-I 142 W/m 12,7 C 0,0 km/h (0 Bft)
23.06.2016 06:48 13,8 C 13,8 C 94 % 1020,1 hPa 0,0 mm 0,0 km/h (0 Bft) S-SO 157 0 min 0,000 mm 0,6 UV-I 148 W/m 12,9 C 0,0 km/h (0 Bft)
23.06.2016 06:49 13,7 C 13,8 C 94 % 1020,1 hPa 0,0 mm 0,0 km/h (0 Bft) S-SO 157 0 min 0,000 mm 0,6 UV-I 151 W/m 12,8 C 0,0 km/h (0 Bft)
23.06.2016 06:50 13,6 C 13,7 C 94 % 1020,1 hPa 0,0 mm 0,0 km/h (0 Bft) S-SO 157 0 min 0,000 mm 0,6 UV-I 155 W/m 12,7 C 0,0 km/h (0 Bft)
23.06.2016 06:51 13,6 C 13,6 C 94 % 1020,1 hPa 0,0 mm 0,1 km/h (0 Bft) S-SO 157 0 min 0,000 mm 0,6 UV-I 158 W/m 12,7 C 1,6 km/h (1 Bft)
23.06.2016 06:52 13,6 C 13,6 C 95 % 1020,1 hPa 0,0 mm 0,2 km/h (0 Bft) S-SO 157 0 min 0,000 mm 0,6 UV-I 162 W/m 12,8 C 1,6 km/h (1 Bft)
23.06.2016 06:53 13,7 C 13,7 C 95 % 1020,1 hPa 0,0 mm 0,2 km/h (0 Bft) S-SO 157 0 min 0,000 mm 0,6 UV-I 167 W/m 12,9 C 1,6 km/h (1 Bft)
23.06.2016 06:54 13,7 C 13,7 C 95 % 1020,1 hPa 0,0 mm 0,5 km/h (0 Bft) S-SO 157 0 min 0,000 mm 0,6 UV-I 171 W/m 12,9 C 1,6 km/h (1 Bft)
23.06.2016 06:55 13,8 C 13,8 C 95 % 1020,1 hPa 0,0 mm 1,0 km/h (0 Bft) S-SO 157 0 min 0,000 mm 0,7 UV-I 174 W/m 13,0 C 1,6 km/h (1 Bft)
23.06.2016 06:56 13,9 C 13,9 C 95 % 1020,1 hPa 0,0 mm 0,4 km/h (0 Bft) S-SO 157 0 min 0,000 mm 0,7 UV-I 178 W/m 13,1 C 1,6 km/h (1 Bft)
23.06.2016 06:57 14,0 C 14,0 C 96 % 1020,1 hPa 0,0 mm 1,0 km/h (0 Bft) S-SO 157 0 min 0,000 mm 0,7 UV-I 179 W/m 13,4 C 1,6 km/h (1 Bft)
23.06.2016 06:58 14,1 C 14,1 C 95 % 1020,1 hPa 0,0 mm 0,8 km/h (0 Bft) S-SO 157 0 min 0,000 mm 0,7 UV-I 183 W/m 13,3 C 1,6 km/h (1 Bft)
23.06.2016 06:59 14,2 C 14,2 C 95 % 1020,0 hPa 0,0 mm 0,0 km/h (0 Bft) S-SO 157 0 min 0,000 mm 0,7 UV-I 183 W/m 13,4 C 0,0 km/h (0 Bft)
23.06.2016 07:00 14,3 C 14,3 C 95 % 1020,1 hPa 0,0 mm 0,3 km/h (0 Bft) S-SO 157 0 min 0,051 mm 0,7 UV-I 193 W/m 13,5 C 1,6 km/h (1 Bft)
23.06.2016 07:01 14,3 C 14,3 C 95 % 1020,1 hPa 0,0 mm 0,4 km/h (0 Bft) S-SO 157 0 min 0,000 mm 0,8 UV-I 197 W/m 13,5 C 1,6 km/h (1 Bft)
23.06.2016 07:02 14,3 C 14,4 C 95 % 1020,1 hPa 0,0 mm 0,0 km/h (0 Bft) S-SO 157 0 min 0,000 mm 0,8 UV-I 199 W/m 13,5 C 1,6 km/h (1 Bft)
23.06.2016 07:04 14,5 C 14,5 C 95 % 1020,1 hPa 0,0 mm 0,0 km/h (0 Bft) S-SO 157 0 min 0,000 mm 0,8 UV-I 206 W/m 13,7 C 0,0 km/h (0 Bft)
23.06.2016 07:05 14,6 C 14,6 C 95 % 1020,1 hPa 0,0 mm 0,0 km/h (0 Bft) S-SO 157 0 min 0,000 mm 0,8 UV-I 211 W/m 13,8 C 0,0 km/h (0 Bft)
23.06.2016 07:06 14,7 C 14,7 C 95 % 1020,1 hPa 0,0 mm 0,1 km/h (0 Bft) S-SO 157 0 min 0,000 mm 0,8 UV-I 214 W/m 13,9 C 1,6 km/h (1 Bft)
23.06.2016 07:07 14,8 C 14,8 C 94 % 1020,1 hPa 0,0 mm 0,0 km/h (0 Bft) S-SO 157 0 min 0,000 mm 0,9 UV-I 216 W/m 13,8 C 0,0 km/h (0 Bft)
23.06.2016 07:08 15,1 C 15,1 C 94 % 1020,1 hPa 0,0 mm 0,0 km/h (0 Bft) S-SO 157 0 min 0,000 mm 0,9 UV-I 218 W/m 14,1 C 0,0 km/h (0 Bft)
23.06.2016 07:09 15,3 C 15,3 C 93 % 1020,1 hPa 0,0 mm 0,3 km/h (0 Bft) S-SO 157 0 min 0,000 mm 0,9 UV-I 221 W/m 14,2 C 1,6 km/h (1 Bft)
23.06.2016 07:10 15,2 C 15,3 C 91 % 1020,1 hPa 0,0 mm 0,1 km/h (0 Bft) S-SO 157 0 min 0,000 mm 0,9 UV-I 223 W/m 13,7 C 1,6 km/h (1 Bft)
23.06.2016 07:11 15,2 C 15,3 C 90 % 1020,1 hPa 0,0 mm 0,0 km/h (0 Bft) S-SO 157 0 min 0,000 mm 0,9 UV-I 229 W/m 13,6 C 0,0 km/h (0 Bft)
23.06.2016 07:12 15,3 C 15,3 C 91 % 1020,1 hPa 0,0 mm 0,0 km/h (0 Bft) S-SO 157 0 min 0,000 mm 0,9 UV-I 232 W/m 13,8 C 0,0 km/h (0 Bft)
23.06.2016 07:13 15,4 C 15,4 C 92 % 1020,1 hPa 0,0 mm 0,0 km/h (0 Bft) S-SO 157 0 min 0,000 mm 1,0 UV-I 234 W/m 14,1 C 0,0 km/h (0 Bft)
23.06.2016 07:14 15,6 C 15,6 C 91 % 1020,2 hPa 0,0 mm 0,0 km/h (0 Bft) S-SO 157 0 min 0,000 mm 1,0 UV-I 236 W/m 14,1 C 0,0 km/h (0 Bft)
23.06.2016 07:15 15,7 C 15,7 C 92 % 1020,2 hPa 0,0 mm 0,0 km/h (0 Bft) S-SO 157 0 min 0,000 mm 1,0 UV-I 237 W/m 14,4 C 0,0 km/h (0 Bft)
23.06.2016 07:16 15,7 C 15,7 C 91 % 1020,1 hPa 0,0 mm 0,0 km/h (0 Bft) S-SO 157 0 min 0,000 mm 1,0 UV-I 241 W/m 14,2 C 0,0 km/h (0 Bft)
23.06.2016 07:17 15,7 C 15,7 C 92 % 1020,1 hPa 0,0 mm 0,1 km/h (0 Bft) S-SO 157 0 min 0,000 mm 1,0 UV-I 246 W/m 14,4 C 1,6 km/h (1 Bft)
23.06.2016 07:18 15,7 C 15,7 C 92 % 1020,1 hPa 0,0 mm 0,1 km/h (0 Bft) S-SO 157 0 min 0,000 mm 1,1 UV-I 250 W/m 14,4 C 1,6 km/h (1 Bft)
23.06.2016 07:19 15,7 C 15,7 C 91 % 1020,1 hPa 0,0 mm 0,6 km/h (0 Bft) S-SO 157 0 min 0,000 mm 1,1 UV-I 251 W/m 14,2 C 1,6 km/h (1 Bft)
23.06.2016 07:20 15,7 C 15,7 C 90 % 1020,1 hPa 0,0 mm 0,1 km/h (0 Bft) S-SO 157 0 min 0,000 mm 1,1 UV-I 253 W/m 14,1 C 1,6 km/h (1 Bft)
23.06.2016 07:21 15,7 C 15,7 C 89 % 1020,1 hPa 0,0 mm 0,2 km/h (0 Bft) S-SO 157 0 min 0,000 mm 1,1 UV-I 255 W/m 13,9 C 1,6 km/h (1 Bft)
23.06.2016 07:22 15,7 C 15,7 C 89 % 1020,1 hPa 0,0 mm 0,6 km/h (0 Bft) S-SO 157 0 min 0,000 mm 1,1 UV-I 258 W/m 13,9 C 1,6 km/h (1 Bft)
23.06.2016 07:23 15,7 C 15,7 C 89 % 1020,1 hPa 0,0 mm 0,1 km/h (0 Bft) S-SO 157 0 min 0,000 mm 1,1 UV-I 264 W/m 13,9 C 1,6 km/h (1 Bft)
23.06.2016 07:24 15,8 C 15,8 C 89 % 1020,1 hPa 0,0 mm 0,2 km/h (0 Bft) S-SO 157 0 min 0,000 mm 1,1 UV-I 265 W/m 14,0 C 1,6 km/h (1 Bft)
23.06.2016 07:25 15,9 C 15,9 C 92 % 1020,0 hPa 0,0 mm 0,9 km/h (0 Bft) S-SO 157 0 min 0,000 mm 1,2 UV-I 267 W/m 14,6 C 1,6 km/h (1 Bft)
23.06.2016 07:26 15,9 C 15,9 C 91 % 1020,1 hPa 0,0 mm 0,3 km/h (0 Bft) S-SO 157 0 min 0,000 mm 1,2 UV-I 269 W/m 14,4 C 1,6 km/h (1 Bft)
23.06.2016 07:27 16,0 C 16,0 C 91 % 1020,1 hPa 0,0 mm 0,0 km/h (0 Bft) S-SO 157 0 min 0,000 mm 1,2 UV-I 271 W/m 14,5 C 0,0 km/h (0 Bft)
23.06.2016 07:28 16,1 C 16,1 C 91 % 1020,0 hPa 0,0 mm 0,1 km/h (0 Bft) S-SO 157 0 min 0,000 mm 1,2 UV-I 272 W/m 14,6 C 1,6 km/h (1 Bft)
23.06.2016 07:29 16,3 C 16,3 C 92 % 1020,0 hPa 0,0 mm 0,6 km/h (0 Bft) S-SO 157 0 min 0,000 mm 1,2 UV-I 278 W/m 15,0 C 1,6 km/h (1 Bft)
23.06.2016 07:30 16,4 C 16,4 C 91 % 1020,1 hPa 0,0 mm 0,1 km/h (0 Bft) S-SO 157 0 min 0,000 mm 1,3 UV-I 279 W/m 14,9 C 1,6 km/h (1 Bft)
23.06.2016 07:31 16,4 C 16,4 C 88 % 1020,0 hPa 0,0 mm 0,0 km/h (0 Bft) S-SO 157 0 min 0,000 mm 1,3 UV-I 283 W/m 14,4 C 0,0 km/h (0 Bft)
23.06.2016 07:32 16,4 C 16,4 C 89 % 1020,0 hPa 0,0 mm 0,2 km/h (0 Bft) S-SO 157 0 min 0,000 mm 1,3 UV-I 285 W/m 14,6 C 1,6 km/h (1 Bft)
23.06.2016 07:33 16,5 C 16,5 C 89 % 1020,0 hPa 0,0 mm 0,0 km/h (0 Bft) S-SO 157 0 min 0,000 mm 1,3 UV-I 287 W/m 14,7 C 0,0 km/h (0 Bft)
23.06.2016 07:34 16,4 C 16,5 C 87 % 1020,0 hPa 0,0 mm 0,0 km/h (0 Bft) S-SO 157 0 min 0,000 mm 1,3 UV-I 290 W/m 14,2 C 0,0 km/h (0 Bft)
23.06.2016 07:35 16,4 C 16,5 C 90 % 1020,0 hPa 0,0 mm 0,0 km/h (0 Bft) S-SO 157 0 min 0,000 mm 1,3 UV-I 294 W/m 14,8 C 0,0 km/h (0 Bft)
23.06.2016 07:36 16,5 C 16,5 C 89 % 1020,0 hPa 0,0 mm 0,0 km/h (0 Bft) S-SO 157 0 min 0,000 mm 1,3 UV-I 297 W/m 14,7 C 0,0 km/h (0 Bft)
23.06.2016 07:37 16,6 C 16,6 C 89 % 1020,0 hPa 0,0 mm 0,0 km/h (0 Bft) S-SO 157 0 min 0,000 mm 1,4 UV-I 301 W/m 14,8 C 0,0 km/h (0 Bft)
23.06.2016 07:38 16,6 C 16,6 C 88 % 1020,0 hPa 0,0 mm 0,0 km/h (0 Bft) S-SO 157 0 min 0,000 mm 1,4 UV-I 304 W/m 14,6 C 0,0 km/h (0 Bft)
23.06.2016 07:39 16,7 C 16,7 C 88 % 1020,0 hPa 0,0 mm 0,0 km/h (0 Bft) S-SO 157 0 min 0,000 mm 1,4 UV-I 306 W/m 14,7 C 0,0 km/h (0 Bft)
23.06.2016 07:40 16,7 C 16,7 C 88 % 1020,0 hPa 0,0 mm 0,0 km/h (0 Bft) S-SO 157 0 min 0,000 mm 1,4 UV-I 309 W/m 14,7 C 0,0 km/h (0 Bft)
23.06.2016 07:41 16,7 C 16,7 C 87 % 1020,0 hPa 0,0 mm 0,0 km/h (0 Bft) S-SO 157 0 min 0,000 mm 1,4 UV-I 315 W/m 14,5 C 0,0 km/h (0 Bft)
23.06.2016 07:42 16,7 C 16,7 C 88 % 1019,9 hPa 0,0 mm 0,5 km/h (0 Bft) S-SO 157 0 min 0,000 mm 1,5 UV-I 318 W/m 14,7 C 1,6 km/h (1 Bft)
23.06.2016 07:43 16,8 C 16,8 C 88 % 1019,9 hPa 0,0 mm 1,7 km/h (1 Bft) S-SO 157 0 min 0,000 mm 1,5 UV-I 322 W/m 14,8 C 3,2 km/h (1 Bft)
23.06.2016 07:44 16,7 C 16,8 C 91 % 1019,9 hPa 0,0 mm 0,7 km/h (0 Bft) S-SO 157 0 min 0,000 mm 1,5 UV-I 323 W/m 15,2 C 1,6 km/h (1 Bft)
23.06.2016 07:45 16,7 C 16,7 C 88 % 1019,9 hPa 0,0 mm 1,3 km/h (1 Bft) S-SO 156 0 min 0,000 mm 1,5 UV-I 325 W/m 14,7 C 1,6 km/h (1 Bft)
23.06.2016 07:46 16,7 C 16,7 C 88 % 1020,0 hPa 0,0 mm 0,7 km/h (0 Bft) S-SO 156 0 min 0,000 mm 1,6 UV-I 330 W/m 14,7 C 1,6 km/h (1 Bft)
23.06.2016 07:47 16,7 C 16,7 C 87 % 1020,0 hPa 0,0 mm 1,0 km/h (0 Bft) S-SO 156 0 min 0,000 mm 1,6 UV-I 332 W/m 14,5 C 1,6 km/h (1 Bft)
23.06.2016 07:48 16,8 C 16,8 C 89 % 1020,0 hPa 0,0 mm 0,7 km/h (0 Bft) S-SO 156 0 min 0,000 mm 1,6 UV-I 334 W/m 15,0 C 1,6 km/h (1 Bft)
23.06.2016 07:49 16,8 C 16,8 C 87 % 1019,9 hPa 0,0 mm 1,1 km/h (1 Bft) S-SO 156 0 min 0,000 mm 1,6 UV-I 336 W/m 14,6 C 1,6 km/h (1 Bft)
23.06.2016 07:50 16,8 C 16,9 C 87 % 1019,9 hPa 0,0 mm 1,4 km/h (1 Bft) S-SO 156 0 min 0,000 mm 1,7 UV-I 339 W/m 14,6 C 3,2 km/h (1 Bft)
23.06.2016 07:51 16,9 C 16,9 C 87 % 1020,0 hPa 0,0 mm 1,2 km/h (1 Bft) S-SO 156 0 min 0,000 mm 1,7 UV-I 339 W/m 14,7 C 1,6 km/h (1 Bft)
23.06.2016 07:52 17,0 C 17,0 C 90 % 1020,0 hPa 0,0 mm 0,2 km/h (0 Bft) S-SO 156 0 min 0,000 mm 1,7 UV-I 345 W/m 15,3 C 1,6 km/h (1 Bft)
23.06.2016 07:53 17,1 C 17,1 C 88 % 1020,0 hPa 0,0 mm 0,1 km/h (0 Bft) S-SO 156 0 min 0,000 mm 1,7 UV-I 346 W/m 15,1 C 1,6 km/h (1 Bft)
23.06.2016 07:54 17,2 C 17,2 C 86 % 1020,0 hPa 0,0 mm 0,0 km/h (0 Bft) S-SO 156 0 min 0,000 mm 1,7 UV-I 350 W/m 14,8 C 0,0 km/h (0 Bft)
23.06.2016 07:55 17,4 C 17,4 C 88 % 1020,0 hPa 0,0 mm 0,1 km/h (0 Bft) S-SO 156 0 min 0,000 mm 1,8 UV-I 352 W/m 15,4 C 1,6 km/h (1 Bft)
23.06.2016 07:56 17,6 C 17,6 C 84 % 1019,9 hPa 0,0 mm 0,1 km/h (0 Bft) S-SO 156 0 min 0,000 mm 1,8 UV-I 353 W/m 14,9 C 1,6 km/h (1 Bft)
23.06.2016 07:57 17,7 C 17,7 C 83 % 1019,9 hPa 0,0 mm 0,2 km/h (0 Bft) S-SO 156 0 min 0,000 mm 1,8 UV-I 357 W/m 14,8 C 1,6 km/h (1 Bft)
23.06.2016 07:58 17,7 C 17,7 C 86 % 1019,9 hPa 0,0 mm 0,0 km/h (0 Bft) S-SO 156 0 min 0,000 mm 1,8 UV-I 362 W/m 15,3 C 0,0 km/h (0 Bft)
23.06.2016 07:59 17,8 C 17,8 C 86 % 1019,9 hPa 0,0 mm 0,2 km/h (0 Bft) S-SO 156 0 min 0,000 mm 1,9 UV-I 364 W/m 15,4 C 1,6 km/h (1 Bft)
23.06.2016 08:00 17,7 C 17,8 C 84 % 1019,9 hPa 0,0 mm 0,2 km/h (0 Bft) S-SO 156 0 min 0,152 mm 1,9 UV-I 364 W/m 15,0 C 1,6 km/h (1 Bft)
23.06.2016 08:01 17,7 C 17,7 C 84 % 1019,9 hPa 0,0 mm 0,1 km/h (0 Bft) S-SO 156 0 min 0,000 mm 1,9 UV-I 369 W/m 15,0 C 1,6 km/h (1 Bft)
23.06.2016 08:02 17,7 C 17,7 C 88 % 1019,9 hPa 0,0 mm 0,6 km/h (0 Bft) S-SO 156 0 min 0,000 mm 1,9 UV-I 371 W/m 15,7 C 1,6 km/h (1 Bft)
23.06.2016 08:03 17,6 C 17,7 C 85 % 1019,9 hPa 0,0 mm 0,6 km/h (0 Bft) S-SO 156 0 min 0,000 mm 1,9 UV-I 374 W/m 15,0 C 1,6 km/h (1 Bft)
23.06.2016 08:04 17,6 C 17,6 C 85 % 1019,9 hPa 0,0 mm 1,2 km/h (1 Bft) S-SO 156 0 min 0,000 mm 1,9 UV-I 378 W/m 15,0 C 1,6 km/h (1 Bft)
23.06.2016 08:05 17,5 C 17,6 C 86 % 1019,9 hPa 0,0 mm 0,8 km/h (0 Bft) S-SO 156 0 min 0,000 mm 2,0 UV-I 381 W/m 15,1 C 1,6 km/h (1 Bft)
23.06.2016 08:06 17,5 C 17,5 C 87 % 1019,9 hPa 0,0 mm 1,3 km/h (1 Bft) S-SO 156 0 min 0,000 mm 2,0 UV-I 385 W/m 15,3 C 1,6 km/h (1 Bft)
23.06.2016 08:07 17,4 C 17,5 C 87 % 1019,9 hPa 0,0 mm 1,9 km/h (1 Bft) S-SO 156 0 min 0,000 mm 2,0 UV-I 387 W/m 15,2 C 3,2 km/h (1 Bft)
23.06.2016 08:08 17,5 C 17,5 C 86 % 1019,9 hPa 0,0 mm 1,5 km/h (1 Bft) S-SO 156 0 min 0,000 mm 2,0 UV-I 390 W/m 15,1 C 1,6 km/h (1 Bft)
23.06.2016 08:09 17,6 C 17,6 C 86 % 1019,9 hPa 0,0 mm 1,3 km/h (1 Bft) S-SO 156 0 min 0,000 mm 2,1 UV-I 392 W/m 15,2 C 1,6 km/h (1 Bft)
23.06.2016 08:10 17,7 C 17,7 C 87 % 1019,9 hPa 0,0 mm 0,9 km/h (0 Bft) S-SO 156 0 min 0,000 mm 2,1 UV-I 396 W/m 15,5 C 1,6 km/h (1 Bft)
23.06.2016 08:11 17,8 C 17,8 C 86 % 1019,9 hPa 0,0 mm 1,5 km/h (1 Bft) S-SO 156 0 min 0,000 mm 2,1 UV-I 397 W/m 15,4 C 3,2 km/h (1 Bft)
23.06.2016 08:12 17,9 C 17,9 C 85 % 1019,9 hPa 0,0 mm 1,3 km/h (1 Bft) S-SO 156 0 min 0,000 mm 2,1 UV-I 399 W/m 15,3 C 1,6 km/h (1 Bft)
23.06.2016 08:13 17,9 C 17,9 C 86 % 1019,9 hPa 0,0 mm 0,9 km/h (0 Bft) S-SO 156 0 min 0,000 mm 2,2 UV-I 403 W/m 15,5 C 1,6 km/h (1 Bft)
23.06.2016 08:14 18,2 C 18,2 C 87 % 1019,9 hPa 0,0 mm 1,0 km/h (0 Bft) S-SO 156 0 min 0,000 mm 2,2 UV-I 404 W/m 16,0 C 1,6 km/h (1 Bft)
23.06.2016 08:15 18,3 C 18,3 C 86 % 1019,9 hPa 0,0 mm 0,1 km/h (0 Bft) S-SO 156 0 min 0,000 mm 2,2 UV-I 406 W/m 15,9 C 1,6 km/h (1 Bft)
23.06.2016 08:16 18,4 C 18,4 C 84 % 1019,9 hPa 0,0 mm 0,1 km/h (0 Bft) S-SO 156 0 min 0,000 mm 2,2 UV-I 413 W/m 15,6 C 1,6 km/h (1 Bft)
23.06.2016 08:17 18,5 C 18,5 C 84 % 1019,9 hPa 0,0 mm 0,0 km/h (0 Bft) S-SO 156 0 min 0,000 mm 2,2 UV-I 415 W/m 15,7 C 0,0 km/h (0 Bft)
23.06.2016 08:18 18,6 C 18,6 C 81 % 1019,9 hPa 0,0 mm 1,1 km/h (1 Bft) S-SO 156 0 min 0,000 mm 2,3 UV-I 418 W/m 15,3 C 3,2 km/h (1 Bft)
23.06.2016 08:19 18,6 C 18,6 C 80 % 1019,9 hPa 0,0 mm 0,5 km/h (0 Bft) S-SO 156 0 min 0,000 mm 2,3 UV-I 420 W/m 15,1 C 1,6 km/h (1 Bft)
23.06.2016 08:20 18,7 C 18,7 C 80 % 1019,9 hPa 0,0 mm 0,1 km/h (0 Bft) S-SO 156 0 min 0,000 mm 2,3 UV-I 422 W/m 15,2 C 1,6 km/h (1 Bft)
23.06.2016 08:21 18,9 C 18,9 C 79 % 1019,9 hPa 0,0 mm 0,1 km/h (0 Bft) S-SO 156 0 min 0,000 mm 2,3 UV-I 427 W/m 15,2 C 1,6 km/h (1 Bft)
23.06.2016 08:22 19,1 C 19,1 C 82 % 1019,9 hPa 0,0 mm 0,7 km/h (0 Bft) S-SO 156 0 min 0,000 mm 2,3 UV-I 431 W/m 16,0 C 1,6 km/h (1 Bft)
23.06.2016 08:23 19,1 C 19,1 C 80 % 1019,9 hPa 0,0 mm 0,6 km/h (0 Bft) S-SO 156 0 min 0,000 mm 2,4 UV-I 434 W/m 15,6 C 1,6 km/h (1 Bft)
23.06.2016 08:24 19,0 C 19,1 C 79 % 1019,9 hPa 0,0 mm 0,4 km/h (0 Bft) S-SO 156 0 min 0,000 mm 2,4 UV-I 436 W/m 15,3 C 1,6 km/h (1 Bft)
23.06.2016 08:25 19,0 C 19,0 C 78 % 1019,9 hPa 0,0 mm 0,0 km/h (0 Bft) S-SO 156 0 min 0,000 mm 2,4 UV-I 438 W/m 15,1 C 0,0 km/h (0 Bft)
23.06.2016 08:26 19,0 C 19,0 C 77 % 1019,9 hPa 0,0 mm 0,1 km/h (0 Bft) S-SO 156 0 min 0,000 mm 2,5 UV-I 441 W/m 14,9 C 1,6 km/h (1 Bft)
23.06.2016 08:27 19,1 C 19,1 C 80 % 1019,9 hPa 0,0 mm 0,4 km/h (0 Bft) S-SO 156 0 min 0,000 mm 2,5 UV-I 443 W/m 15,6 C 1,6 km/h (1 Bft)
23.06.2016 08:28 19,2 C 19,2 C 81 % 1020,0 hPa 0,0 mm 1,7 km/h (1 Bft) S-SO 156 0 min 0,000 mm 2,5 UV-I 448 W/m 15,9 C 3,2 km/h (1 Bft)
23.06.2016 08:29 19,3 C 19,3 C 82 % 1020,0 hPa 0,0 mm 1,1 km/h (1 Bft) S-SO 157 0 min 0,000 mm 2,5 UV-I 452 W/m 16,1 C 1,6 km/h (1 Bft)
23.06.2016 08:30 19,4 C 19,4 C 82 % 1019,9 hPa 0,0 mm 0,5 km/h (0 Bft) S-SO 157 0 min 0,000 mm 2,6 UV-I 452 W/m 16,2 C 1,6 km/h (1 Bft)
23.06.2016 08:31 19,4 C 19,4 C 79 % 1019,9 hPa 0,0 mm 0,7 km/h (0 Bft) S-SO 157 0 min 0,000 mm 2,6 UV-I 455 W/m 15,7 C 1,6 km/h (1 Bft)
23.06.2016 08:32 19,4 C 19,4 C 78 % 1019,9 hPa 0,0 mm 1,5 km/h (1 Bft) S-SO 155 0 min 0,000 mm 2,6 UV-I 459 W/m 15,5 C 3,2 km/h (1 Bft)
23.06.2016 08:33 19,4 C 19,4 C 79 % 1019,9 hPa 0,0 mm 0,8 km/h (0 Bft) S-SO 155 0 min 0,000 mm 2,6 UV-I 464 W/m 15,7 C 1,6 km/h (1 Bft)
23.06.2016 08:34 19,3 C 19,4 C 78 % 1019,9 hPa 0,0 mm 1,2 km/h (1 Bft) S-SO 155 0 min 0,000 mm 2,7 UV-I 466 W/m 15,4 C 1,6 km/h (1 Bft)
23.06.2016 08:35 19,3 C 19,4 C 78 % 1020,0 hPa 0,0 mm 0,5 km/h (0 Bft) S-SO 155 0 min 0,000 mm 2,7 UV-I 469 W/m 15,4 C 1,6 km/h (1 Bft)
23.06.2016 08:36 19,4 C 19,4 C 78 % 1020,0 hPa 0,0 mm 1,8 km/h (1 Bft) S-SO 155 0 min 0,000 mm 2,7 UV-I 471 W/m 15,5 C 3,2 km/h (1 Bft)
23.06.2016 08:37 19,4 C 19,4 C 79 % 1019,9 hPa 0,0 mm 0,6 km/h (0 Bft) S-SO 155 0 min 0,000 mm 2,7 UV-I 475 W/m 15,7 C 1,6 km/h (1 Bft)
23.06.2016 08:38 19,5 C 19,5 C 78 % 1019,9 hPa 0,0 mm 0,0 km/h (0 Bft) S-SO 155 0 min 0,000 mm 2,8 UV-I 476 W/m 15,6 C 0,0 km/h (0 Bft)
23.06.2016 08:39 19,6 C 19,6 C 78 % 1019,9 hPa 0,0 mm 0,2 km/h (0 Bft) S-SO 155 0 min 0,000 mm 2,8 UV-I 480 W/m 15,7 C 1,6 km/h (1 Bft)
23.06.2016 08:40 19,5 C 19,6 C 77 % 1019,9 hPa 0,0 mm 1,5 km/h (1 Bft) S-SO 155 0 min 0,000 mm 2,8 UV-I 483 W/m 15,4 C 3,2 km/h (1 Bft)
23.06.2016 08:41 19,5 C 19,5 C 77 % 1019,9 hPa 0,0 mm 1,1 km/h (1 Bft) S-SO 155 0 min 0,000 mm 2,9 UV-I 485 W/m 15,4 C 1,6 km/h (1 Bft)
23.06.2016 08:42 19,6 C 19,6 C 77 % 1019,9 hPa 0,0 mm 0,2 km/h (0 Bft) S-SO 155 0 min 0,000 mm 2,9 UV-I 489 W/m 15,5 C 1,6 km/h (1 Bft)
23.06.2016 08:43 19,7 C 19,7 C 79 % 1019,9 hPa 0,0 mm 1,4 km/h (1 Bft) S-SO 155 0 min 0,000 mm 2,9 UV-I 490 W/m 16,0 C 1,6 km/h (1 Bft)
23.06.2016 08:44 19,8 C 19,8 C 78 % 1019,9 hPa 0,0 mm 0,9 km/h (0 Bft) S-SO 155 0 min 0,000 mm 2,9 UV-I 492 W/m 15,8 C 1,6 km/h (1 Bft)
23.06.2016 08:45 19,9 C 19,9 C 78 % 1019,9 hPa 0,0 mm 0,5 km/h (0 Bft) S-SO 155 0 min 0,000 mm 2,9 UV-I 497 W/m 15,9 C 1,6 km/h (1 Bft)
23.06.2016 08:46 19,9 C 19,9 C 77 % 1019,9 hPa 0,0 mm 1,4 km/h (1 Bft) S-SO 155 0 min 0,000 mm 3,0 UV-I 501 W/m 15,7 C 3,2 km/h (1 Bft)
23.06.2016 08:47 19,9 C 19,9 C 76 % 1019,9 hPa 0,0 mm 1,4 km/h (1 Bft) S-SO 155 0 min 0,000 mm 3,0 UV-I 503 W/m 15,5 C 3,2 km/h (1 Bft)
23.06.2016 08:48 19,9 C 19,9 C 78 % 1019,9 hPa 0,0 mm 1,7 km/h (1 Bft) S-SO 155 0 min 0,000 mm 3,0 UV-I 506 W/m 15,9 C 3,2 km/h (1 Bft)
23.06.2016 08:49 20,1 C 20,1 C 77 % 1019,9 hPa 0,0 mm 1,4 km/h (1 Bft) S-SO 155 1 min 0,000 mm 3,1 UV-I 510 W/m 15,9 C 3,2 km/h (1 Bft)
23.06.2016 08:50 20,1 C 20,1 C 77 % 1019,9 hPa 0,0 mm 1,5 km/h (1 Bft) S-SO 155 1 min 0,000 mm 3,1 UV-I 512 W/m 15,9 C 3,2 km/h (1 Bft)
23.06.2016 08:51 20,2 C 20,2 C 77 % 1019,9 hPa 0,0 mm 2,4 km/h (1 Bft) O 96 1 min 0,000 mm 3,1 UV-I 517 W/m 16,0 C 4,8 km/h (1 Bft)
23.06.2016 08:52 20,3 C 20,3 C 79 % 1019,9 hPa 0,0 mm 1,7 km/h (1 Bft) O 96 1 min 0,000 mm 3,1 UV-I 519 W/m 16,5 C 3,2 km/h (1 Bft)
23.06.2016 08:53 20,4 C 20,4 C 75 % 1020,0 hPa 0,0 mm 1,1 km/h (1 Bft) O 96 1 min 0,000 mm 3,1 UV-I 520 W/m 15,8 C 1,6 km/h (1 Bft)
23.06.2016 08:54 20,4 C 20,4 C 76 % 1019,9 hPa 0,0 mm 1,0 km/h (0 Bft) O 96 1 min 0,000 mm 3,2 UV-I 524 W/m 16,0 C 1,6 km/h (1 Bft)
23.06.2016 08:55 20,5 C 20,5 C 76 % 1019,9 hPa 0,0 mm 1,3 km/h (1 Bft) O 96 1 min 0,000 mm 3,2 UV-I 526 W/m 16,1 C 1,6 km/h (1 Bft)
23.06.2016 08:56 20,6 C 20,6 C 75 % 1019,9 hPa 0,0 mm 0,9 km/h (0 Bft) O 96 1 min 0,000 mm 3,2 UV-I 527 W/m 16,0 C 1,6 km/h (1 Bft)
23.06.2016 08:57 20,6 C 20,6 C 77 % 1019,9 hPa 0,0 mm 0,4 km/h (0 Bft) O 96 1 min 0,000 mm 3,2 UV-I 533 W/m 16,4 C 1,6 km/h (1 Bft)
23.06.2016 08:58 20,8 C 20,8 C 81 % 1019,9 hPa 0,0 mm 0,9 km/h (0 Bft) O 95 1 min 0,000 mm 3,3 UV-I 534 W/m 17,4 C 1,6 km/h (1 Bft)
23.06.2016 08:59 20,9 C 20,9 C 78 % 1019,9 hPa 0,0 mm 1,7 km/h (1 Bft) O 95 1 min 0,000 mm 3,3 UV-I 538 W/m 16,9 C 3,2 km/h (1 Bft)
23.06.2016 09:00 21,0 C 21,0 C 82 % 1019,9 hPa 0,0 mm 1,1 km/h (1 Bft) O 95 1 min 0,000 mm 3,3 UV-I 540 W/m 17,8 C 1,6 km/h (1 Bft)
23.06.2016 09:01 21,0 C 21,0 C 76 % 1019,9 hPa 0,0 mm 0,5 km/h (0 Bft) O 95 1 min 0,254 mm 3,3 UV-I 541 W/m 16,6 C 1,6 km/h (1 Bft)
23.06.2016 09:02 21,1 C 21,1 C 78 % 1019,9 hPa 0,0 mm 0,8 km/h (0 Bft) O 93 1 min 0,000 mm 3,4 UV-I 545 W/m 17,1 C 1,6 km/h (1 Bft)
23.06.2016 09:03 21,1 C 21,2 C 76 % 1019,9 hPa 0,0 mm 1,6 km/h (1 Bft) O-NO 57 1 min 0,000 mm 3,4 UV-I 548 W/m 16,7 C 3,2 km/h (1 Bft)
23.06.2016 09:04 21,2 C 21,2 C 76 % 1019,9 hPa 0,0 mm 2,7 km/h (1 Bft) O-NO 57 1 min 0,000 mm 3,4 UV-I 552 W/m 16,8 C 4,8 km/h (1 Bft)
23.06.2016 09:05 21,3 C 21,3 C 78 % 1019,9 hPa 0,0 mm 3,0 km/h (1 Bft) NO 44 1 min 0,000 mm 3,5 UV-I 554 W/m 17,3 C 4,8 km/h (1 Bft)
23.06.2016 09:06 21,4 C 21,4 C 72 % 1020,0 hPa 0,0 mm 2,3 km/h (1 Bft) NO 49 1 min 0,000 mm 3,5 UV-I 555 W/m 16,1 C 3,2 km/h (1 Bft)
23.06.2016 09:07 21,4 C 21,4 C 72 % 1019,9 hPa 0,0 mm 3,8 km/h (1 Bft) O-NO 57 1 min 0,000 mm 3,5 UV-I 559 W/m 16,1 C 4,8 km/h (1 Bft)
23.06.2016 09:08 21,6 C 21,6 C 74 % 1019,9 hPa 0,0 mm 4,0 km/h (1 Bft) O-NO 58 1 min 0,000 mm 3,5 UV-I 561 W/m 16,8 C 6,4 km/h (2 Bft)
23.06.2016 09:09 21,6 C 21,6 C 69 % 1019,9 hPa 0,0 mm 2,0 km/h (1 Bft) NO 46 1 min 0,000 mm 3,5 UV-I 564 W/m 15,7 C 3,2 km/h (1 Bft)
23.06.2016 09:10 21,6 C 21,6 C 74 % 1019,9 hPa 0,0 mm 2,8 km/h (1 Bft) NO 46 1 min 0,000 mm 3,6 UV-I 568 W/m 16,8 C 4,8 km/h (1 Bft)
23.06.2016 09:11 21,7 C 21,7 C 75 % 1019,9 hPa 0,0 mm 3,0 km/h (1 Bft) NO 45 1 min 0,000 mm 3,6 UV-I 570 W/m 17,1 C 3,2 km/h (1 Bft)
23.06.2016 09:12 21,7 C 21,7 C 72 % 1019,9 hPa 0,0 mm 1,9 km/h (1 Bft) NO 46 1 min 0,000 mm 3,6 UV-I 573 W/m 16,4 C 3,2 km/h (1 Bft)
23.06.2016 09:13 21,6 C 21,7 C 68 % 1019,9 hPa 0,0 mm 2,5 km/h (1 Bft) NO 56 1 min 0,000 mm 3,7 UV-I 575 W/m 15,4 C 3,2 km/h (1 Bft)
23.06.2016 09:14 21,6 C 21,6 C 68 % 1019,9 hPa 0,0 mm 1,3 km/h (1 Bft) NO 56 1 min 0,000 mm 3,7 UV-I 578 W/m 15,4 C 1,6 km/h (1 Bft)
23.06.2016 09:15 21,6 C 21,6 C 70 % 1020,0 hPa 0,0 mm 2,1 km/h (1 Bft) NO 56 1 min 0,000 mm 3,7 UV-I 582 W/m 15,9 C 3,2 km/h (1 Bft)
23.06.2016 09:16 21,6 C 21,6 C 71 % 1020,0 hPa 0,0 mm 3,3 km/h (1 Bft) NO 56 1 min 0,000 mm 3,7 UV-I 585 W/m 16,1 C 4,8 km/h (1 Bft)
23.06.2016 09:17 21,7 C 21,7 C 70 % 1020,0 hPa 0,0 mm 2,2 km/h (1 Bft) NO 56 1 min 0,000 mm 3,8 UV-I 587 W/m 16,0 C 3,2 km/h (1 Bft)
23.06.2016 09:18 21,8 C 21,8 C 74 % 1019,9 hPa 0,0 mm 1,5 km/h (1 Bft) NO 56 1 min 0,000 mm 3,8 UV-I 589 W/m 17,0 C 3,2 km/h (1 Bft)
23.06.2016 09:19 21,8 C 21,8 C 71 % 1019,9 hPa 0,0 mm 1,9 km/h (1 Bft) O 80 1 min 0,000 mm 3,8 UV-I 591 W/m 16,3 C 4,8 km/h (1 Bft)
23.06.2016 09:20 21,8 C 21,8 C 73 % 1019,9 hPa 0,0 mm 1,5 km/h (1 Bft) O 80 1 min 0,000 mm 3,8 UV-I 596 W/m 16,7 C 3,2 km/h (1 Bft)
23.06.2016 09:21 21,8 C 21,8 C 71 % 1019,9 hPa 0,0 mm 1,2 km/h (1 Bft) O 80 1 min 0,000 mm 3,9 UV-I 598 W/m 16,3 C 3,2 km/h (1 Bft)
23.06.2016 09:22 21,7 C 21,8 C 74 % 1019,9 hPa 0,0 mm 4,0 km/h (1 Bft) O-NO 69 1 min 0,000 mm 3,9 UV-I 601 W/m 16,9 C 4,8 km/h (1 Bft)
23.06.2016 09:23 21,7 C 21,7 C 71 % 1019,9 hPa 0,0 mm 2,6 km/h (1 Bft) O-NO 69 1 min 0,000 mm 3,9 UV-I 603 W/m 16,2 C 4,8 km/h (1 Bft)
23.06.2016 09:24 21,7 C 21,7 C 74 % 1019,9 hPa 0,0 mm 2,8 km/h (1 Bft) O-NO 69 1 min 0,000 mm 3,9 UV-I 605 W/m 16,9 C 4,8 km/h (1 Bft)
23.06.2016 09:25 21,8 C 21,8 C 68 % 1019,9 hPa 0,0 mm 2,1 km/h (1 Bft) O-NO 69 1 min 0,000 mm 4,0 UV-I 606 W/m 15,6 C 3,2 km/h (1 Bft)
23.06.2016 09:26 21,9 C 21,9 C 68 % 1019,9 hPa 0,0 mm 2,1 km/h (1 Bft) NO 50 1 min 0,000 mm 4,0 UV-I 612 W/m 15,7 C 3,2 km/h (1 Bft)
23.06.2016 09:27 22,0 C 22,0 C 71 % 1019,9 hPa 0,0 mm 3,1 km/h (1 Bft) NO 46 1 min 0,000 mm 4,0 UV-I 613 W/m 16,5 C 4,8 km/h (1 Bft)
23.06.2016 09:28 22,2 C 22,2 C 68 % 1019,9 hPa 0,0 mm 2,0 km/h (1 Bft) NO 47 1 min 0,000 mm 4,0 UV-I 615 W/m 16,0 C 3,2 km/h (1 Bft)
23.06.2016 09:29 22,2 C 22,2 C 68 % 1019,9 hPa 0,0 mm 0,8 km/h (0 Bft) NO 47 1 min 0,000 mm 4,1 UV-I 617 W/m 16,0 C 1,6 km/h (1 Bft)
23.06.2016 09:30 22,1 C 22,2 C 69 % 1019,9 hPa 0,0 mm 3,7 km/h (1 Bft) O 89 1 min 0,000 mm 4,1 UV-I 621 W/m 16,1 C 4,8 km/h (1 Bft)
23.06.2016 09:31 21,9 C 22,1 C 69 % 1019,9 hPa 0,0 mm 2,8 km/h (1 Bft) O 89 1 min 0,000 mm 4,1 UV-I 624 W/m 15,9 C 3,2 km/h (1 Bft)
23.06.2016 09:32 21,9 C 21,9 C 68 % 1019,9 hPa 0,0 mm 1,6 km/h (1 Bft) O 90 1 min 0,000 mm 4,1 UV-I 628 W/m 15,7 C 3,2 km/h (1 Bft)
23.06.2016 09:33 22,0 C 22,0 C 66 % 1019,8 hPa 0,0 mm 1,4 km/h (1 Bft) O 96 1 min 0,000 mm 4,2 UV-I 629 W/m 15,3 C 3,2 km/h (1 Bft)
23.06.2016 09:34 22,1 C 22,1 C 70 % 1019,8 hPa 0,0 mm 1,2 km/h (1 Bft) O 96 1 min 0,000 mm 4,2 UV-I 633 W/m 16,4 C 1,6 km/h (1 Bft)
23.06.2016 09:35 22,2 C 22,2 C 68 % 1019,8 hPa 0,0 mm 2,0 km/h (1 Bft) O 96 1 min 0,000 mm 4,2 UV-I 635 W/m 16,0 C 3,2 km/h (1 Bft)
23.06.2016 09:36 22,2 C 22,2 C 67 % 1019,8 hPa 0,0 mm 0,6 km/h (0 Bft) NO 34 1 min 0,000 mm 4,2 UV-I 636 W/m 15,8 C 1,6 km/h (1 Bft)
23.06.2016 09:37 22,1 C 22,2 C 73 % 1019,8 hPa 0,0 mm 3,0 km/h (1 Bft) NO 44 1 min 0,000 mm 4,2 UV-I 638 W/m 17,0 C 4,8 km/h (1 Bft)
23.06.2016 09:38 22,2 C 22,2 C 71 % 1019,8 hPa 0,0 mm 2,5 km/h (1 Bft) NO 48 1 min 0,000 mm 4,3 UV-I 643 W/m 16,7 C 3,2 km/h (1 Bft)
23.06.2016 09:39 22,2 C 22,2 C 67 % 1019,8 hPa 0,0 mm 1,0 km/h (0 Bft) NO 47 1 min 0,000 mm 4,3 UV-I 645 W/m 15,8 C 3,2 km/h (1 Bft)
23.06.2016 09:40 22,3 C 22,3 C 67 % 1019,8 hPa 0,0 mm 2,2 km/h (1 Bft) NO 48 1 min 0,000 mm 4,3 UV-I 647 W/m 15,9 C 4,8 km/h (1 Bft)
23.06.2016 09:41 22,3 C 22,3 C 70 % 1019,8 hPa 0,0 mm 1,3 km/h (1 Bft) NO 51 1 min 0,000 mm 4,4 UV-I 650 W/m 16,6 C 3,2 km/h (1 Bft)
23.06.2016 09:42 22,3 C 22,3 C 69 % 1019,9 hPa 0,0 mm 2,1 km/h (1 Bft) N 355 1 min 0,000 mm 4,4 UV-I 650 W/m 16,3 C 3,2 km/h (1 Bft)
23.06.2016 09:43 22,6 C 22,6 C 69 % 1019,9 hPa 0,0 mm 1,3 km/h (1 Bft) N 360 1 min 0,000 mm 4,4 UV-I 654 W/m 16,6 C 3,2 km/h (1 Bft)
23.06.2016 09:44 22,7 C 22,7 C 69 % 1019,9 hPa 0,0 mm 3,4 km/h (1 Bft) N 5 1 min 0,000 mm 4,4 UV-I 657 W/m 16,7 C 4,8 km/h (1 Bft)
23.06.2016 09:45 22,7 C 22,7 C 72 % 1019,9 hPa 0,0 mm 1,1 km/h (1 Bft) N 5 1 min 0,000 mm 4,5 UV-I 659 W/m 17,4 C 3,2 km/h (1 Bft)
23.06.2016 09:46 22,7 C 22,7 C 67 % 1019,9 hPa 0,0 mm 1,3 km/h (1 Bft) O 82 1 min 0,000 mm 4,5 UV-I 661 W/m 16,2 C 4,8 km/h (1 Bft)
23.06.2016 09:47 22,6 C 22,7 C 66 % 1019,8 hPa 0,0 mm 3,7 km/h (1 Bft) O-NO 76 1 min 0,000 mm 4,5 UV-I 664 W/m 15,9 C 4,8 km/h (1 Bft)
23.06.2016 09:48 22,6 C 22,6 C 69 % 1019,9 hPa 0,0 mm 1,4 km/h (1 Bft) O-NO 76 1 min 0,000 mm 4,6 UV-I 666 W/m 16,6 C 3,2 km/h (1 Bft)
23.06.2016 09:49 22,7 C 22,7 C 65 % 1019,8 hPa 0,0 mm 1,9 km/h (1 Bft) O-NO 76 1 min 0,000 mm 4,6 UV-I 670 W/m 15,8 C 3,2 km/h (1 Bft)
23.06.2016 09:50 22,6 C 22,7 C 66 % 1019,8 hPa 0,0 mm 0,7 km/h (0 Bft) O-SO 106 1 min 0,000 mm 4,6 UV-I 673 W/m 15,9 C 1,6 km/h (1 Bft)
23.06.2016 09:51 22,6 C 22,6 C 63 % 1019,9 hPa 0,0 mm 1,0 km/h (0 Bft) O-SO 106 1 min 0,000 mm 4,6 UV-I 675 W/m 15,2 C 3,2 km/h (1 Bft)
23.06.2016 09:52 22,7 C 22,7 C 66 % 1019,9 hPa 0,0 mm 1,8 km/h (1 Bft) O-SO 106 1 min 0,000 mm 4,7 UV-I 679 W/m 16,0 C 3,2 km/h (1 Bft)
23.06.2016 09:53 22,8 C 22,8 C 65 % 1019,9 hPa 0,0 mm 1,4 km/h (1 Bft) O-SO 106 1 min 0,000 mm 4,7 UV-I 679 W/m 15,9 C 3,2 km/h (1 Bft)
23.06.2016 09:54 22,9 C 22,9 C 63 % 1019,9 hPa 0,0 mm 0,3 km/h (0 Bft) O-SO 106 1 min 0,000 mm 4,7 UV-I 680 W/m 15,5 C 1,6 km/h (1 Bft)
23.06.2016 09:55 23,1 C 23,1 C 63 % 1019,9 hPa 0,0 mm 0,9 km/h (0 Bft) O-SO 106 1 min 0,000 mm 4,7 UV-I 684 W/m 15,7 C 1,6 km/h (1 Bft)
23.06.2016 09:56 23,2 C 23,2 C 67 % 1019,9 hPa 0,0 mm 1,9 km/h (1 Bft) N-NO 32 1 min 0,000 mm 4,8 UV-I 687 W/m 16,7 C 3,2 km/h (1 Bft)
23.06.2016 09:57 23,3 C 23,3 C 64 % 1019,9 hPa 0,0 mm 2,9 km/h (1 Bft) N-NW 330 1 min 0,000 mm 4,8 UV-I 689 W/m 16,1 C 4,8 km/h (1 Bft)
23.06.2016 09:58 23,4 C 23,4 C 63 % 1019,9 hPa 0,0 mm 1,9 km/h (1 Bft) N-NW 329 1 min 0,000 mm 4,8 UV-I 689 W/m 15,9 C 3,2 km/h (1 Bft)
23.06.2016 09:59 23,6 C 23,6 C 64 % 1019,9 hPa 0,0 mm 3,4 km/h (1 Bft) NO 45 1 min 0,000 mm 4,9 UV-I 693 W/m 16,4 C 4,8 km/h (1 Bft)
23.06.2016 10:00 23,6 C 23,6 C 59 % 1019,9 hPa 0,0 mm 1,7 km/h (1 Bft) NO 43 1 min 0,381 mm 4,9 UV-I 694 W/m 15,1 C 3,2 km/h (1 Bft)
23.06.2016 10:01 23,6 C 23,6 C 65 % 1019,9 hPa 0,0 mm 1,9 km/h (1 Bft) NO 47 1 min 0,000 mm 4,9 UV-I 700 W/m 16,6 C 3,2 km/h (1 Bft)
23.06.2016 10:02 23,3 C 23,6 C 62 % 1019,9 hPa 0,0 mm 0,5 km/h (0 Bft) NO 47 1 min 0,000 mm 4,9 UV-I 701 W/m 15,6 C 1,6 km/h (1 Bft)
23.06.2016 10:03 23,2 C 23,3 C 61 % 1019,9 hPa 0,0 mm 1,6 km/h (1 Bft) N-NO 22 1 min 0,000 mm 4,9 UV-I 703 W/m 15,3 C 4,8 km/h (1 Bft)
23.06.2016 10:07 23,1 C 23,3 C 62 % 1019,8 hPa 0,0 mm 3,8 km/h (1 Bft) O 95 4 min 0,000 mm 5,0 UV-I 714 W/m 15,4 C 6,4 km/h (2 Bft)
23.06.2016 10:08 23,1 C 23,1 C 61 % 1019,8 hPa 0,0 mm 1,5 km/h (1 Bft) O 96 1 min 0,000 mm 5,1 UV-I 715 W/m 15,2 C 3,2 km/h (1 Bft)
23.06.2016 10:09 23,2 C 23,2 C 60 % 1019,8 hPa 0,0 mm 1,2 km/h (1 Bft) O 95 1 min 0,000 mm 5,1 UV-I 717 W/m 15,0 C 3,2 km/h (1 Bft)
23.06.2016 10:10 23,3 C 23,3 C 60 % 1019,9 hPa 0,0 mm 0,5 km/h (0 Bft) O 96 1 min 0,000 mm 5,1 UV-I 719 W/m 15,1 C 1,6 km/h (1 Bft)
23.06.2016 10:11 23,4 C 23,4 C 62 % 1019,8 hPa 0,0 mm 1,7 km/h (1 Bft) O 96 1 min 0,000 mm 5,1 UV-I 721 W/m 15,7 C 3,2 km/h (1 Bft)
23.06.2016 10:12 23,3 C 23,4 C 65 % 1019,8 hPa 0,0 mm 0,7 km/h (0 Bft) O 96 1 min 0,000 mm 5,2 UV-I 722 W/m 16,3 C 1,6 km/h (1 Bft)
23.06.2016 10:13 23,4 C 23,4 C 62 % 1019,8 hPa 0,0 mm 0,3 km/h (0 Bft) O 96 1 min 0,000 mm 5,2 UV-I 726 W/m 15,7 C 1,6 km/h (1 Bft)
23.06.2016 10:14 23,4 C 23,4 C 63 % 1019,8 hPa 0,0 mm 0,7 km/h (0 Bft) O 95 1 min 0,000 mm 5,2 UV-I 728 W/m 15,9 C 1,6 km/h (1 Bft)
23.06.2016 10:15 23,6 C 23,6 C 69 % 1019,8 hPa 0,0 mm 0,9 km/h (0 Bft) O 95 1 min 0,000 mm 5,2 UV-I 728 W/m 17,6 C 1,6 km/h (1 Bft)
23.06.2016 10:16 23,7 C 23,7 C 66 % 1019,9 hPa 0,0 mm 2,0 km/h (1 Bft) O 94 1 min 0,000 mm 5,3 UV-I 731 W/m 17,0 C 3,2 km/h (1 Bft)
23.06.2016 10:17 23,6 C 23,7 C 63 % 1019,9 hPa 0,0 mm 0,9 km/h (0 Bft) O 95 1 min 0,000 mm 5,3 UV-I 733 W/m 16,1 C 1,6 km/h (1 Bft)
23.06.2016 10:18 23,6 C 23,7 C 62 % 1019,9 hPa 0,0 mm 0,5 km/h (0 Bft) O 95 1 min 0,000 mm 5,3 UV-I 737 W/m 15,9 C 1,6 km/h (1 Bft)
23.06.2016 10:19 23,7 C 23,7 C 64 % 1019,9 hPa 0,0 mm 3,4 km/h (1 Bft) O 88 1 min 0,000 mm 5,3 UV-I 740 W/m 16,5 C 4,8 km/h (1 Bft)
23.06.2016 10:20 23,7 C 23,7 C 64 % 1019,9 hPa 0,0 mm 4,8 km/h (1 Bft) O 81 1 min 0,000 mm 5,4 UV-I 742 W/m 16,5 C 6,4 km/h (2 Bft)
23.06.2016 10:21 23,8 C 23,8 C 61 % 1019,9 hPa 0,0 mm 2,1 km/h (1 Bft) O 82 1 min 0,000 mm 5,4 UV-I 744 W/m 15,8 C 3,2 km/h (1 Bft)
23.06.2016 10:22 23,9 C 23,9 C 64 % 1019,9 hPa 0,0 mm 1,7 km/h (1 Bft) O 84 1 min 0,000 mm 5,4 UV-I 744 W/m 16,7 C 3,2 km/h (1 Bft)
23.06.2016 10:23 23,9 C 24,0 C 63 % 1019,9 hPa 0,0 mm 3,1 km/h (1 Bft) O 84 1 min 0,000 mm 5,4 UV-I 745 W/m 16,4 C 4,8 km/h (1 Bft)
23.06.2016 10:24 23,8 C 23,9 C 58 % 1019,9 hPa 0,0 mm 3,7 km/h (1 Bft) O-SO 104 1 min 0,000 mm 5,5 UV-I 749 W/m 15,0 C 6,4 km/h (2 Bft)
23.06.2016 10:25 23,8 C 23,8 C 59 % 1019,9 hPa 0,0 mm 1,7 km/h (1 Bft) O-SO 104 1 min 0,000 mm 5,5 UV-I 752 W/m 15,3 C 3,2 km/h (1 Bft)
23.06.2016 10:26 23,9 C 23,9 C 62 % 1019,9 hPa 0,0 mm 4,5 km/h (1 Bft) O 84 1 min 0,000 mm 5,5 UV-I 756 W/m 16,2 C 4,8 km/h (1 Bft)
23.06.2016 10:27 23,8 C 23,9 C 60 % 1019,9 hPa 0,0 mm 4,1 km/h (1 Bft) O-SO 112 1 min 0,000 mm 5,5 UV-I 756 W/m 15,6 C 6,4 km/h (2 Bft)
23.06.2016 10:28 23,8 C 23,8 C 61 % 1019,9 hPa 0,0 mm 3,0 km/h (1 Bft) O 88 1 min 0,000 mm 5,5 UV-I 758 W/m 15,8 C 4,8 km/h (1 Bft)
23.06.2016 10:29 23,9 C 23,9 C 65 % 1019,9 hPa 0,0 mm 2,9 km/h (1 Bft) NO 47 1 min 0,000 mm 5,6 UV-I 759 W/m 16,9 C 3,2 km/h (1 Bft)
23.06.2016 10:30 24,0 C 24,0 C 62 % 1019,9 hPa 0,0 mm 3,2 km/h (1 Bft) O-NO 76 1 min 0,000 mm 5,6 UV-I 761 W/m 16,3 C 3,2 km/h (1 Bft)
23.06.2016 10:31 24,1 C 24,1 C 62 % 1019,9 hPa 0,0 mm 2,1 km/h (1 Bft) O-NO 75 1 min 0,000 mm 5,6 UV-I 765 W/m 16,4 C 3,2 km/h (1 Bft)
23.06.2016 10:32 23,9 C 24,1 C 62 % 1019,9 hPa 0,0 mm 2,4 km/h (1 Bft) O-NO 78 1 min 0,000 mm 5,7 UV-I 766 W/m 16,2 C 3,2 km/h (1 Bft)
23.06.2016 10:33 24,0 C 24,0 C 62 % 1019,9 hPa 0,0 mm 0,5 km/h (0 Bft) O-NO 78 1 min 0,000 mm 5,7 UV-I 768 W/m 16,3 C 1,6 km/h (1 Bft)
23.06.2016 10:34 24,1 C 24,1 C 61 % 1019,9 hPa 0,0 mm 0,7 km/h (0 Bft) O-NO 78 1 min 0,000 mm 5,7 UV-I 770 W/m 16,1 C 3,2 km/h (1 Bft)
23.06.2016 10:35 24,2 C 24,2 C 68 % 1019,9 hPa 0,0 mm 2,4 km/h (1 Bft) O-NO 65 1 min 0,000 mm 5,7 UV-I 770 W/m 17,9 C 4,8 km/h (1 Bft)
23.06.2016 10:36 24,3 C 24,3 C 69 % 1019,9 hPa 0,0 mm 1,5 km/h (1 Bft) O-NO 69 1 min 0,000 mm 5,8 UV-I 772 W/m 18,2 C 3,2 km/h (1 Bft)
23.06.2016 10:37 24,3 C 24,3 C 68 % 1019,9 hPa 0,0 mm 3,0 km/h (1 Bft) N-NO 19 1 min 0,000 mm 5,8 UV-I 773 W/m 18,0 C 4,8 km/h (1 Bft)
23.06.2016 10:38 24,4 C 24,4 C 66 % 1019,9 hPa 0,0 mm 1,6 km/h (1 Bft) NO 44 1 min 0,000 mm 5,8 UV-I 775 W/m 17,6 C 3,2 km/h (1 Bft)
23.06.2016 10:39 24,4 C 24,5 C 64 % 1019,8 hPa 0,0 mm 2,5 km/h (1 Bft) O-NO 69 1 min 0,000 mm 5,8 UV-I 779 W/m 17,1 C 4,8 km/h (1 Bft)
23.06.2016 10:40 24,4 C 24,4 C 62 % 1019,9 hPa 0,0 mm 3,5 km/h (1 Bft) O-NO 77 1 min 0,000 mm 5,8 UV-I 780 W/m 16,6 C 4,8 km/h (1 Bft)
23.06.2016 10:41 24,4 C 24,5 C 66 % 1019,9 hPa 0,0 mm 2,8 km/h (1 Bft) O 86 1 min 0,000 mm 5,9 UV-I 780 W/m 17,6 C 3,2 km/h (1 Bft)
23.06.2016 10:42 24,4 C 24,5 C 64 % 1019,9 hPa 0,0 mm 1,1 km/h (1 Bft) NW 321 1 min 0,000 mm 5,9 UV-I 786 W/m 17,1 C 1,6 km/h (1 Bft)
23.06.2016 10:43 24,4 C 24,4 C 63 % 1019,8 hPa 0,0 mm 0,8 km/h (0 Bft) O 96 1 min 0,000 mm 5,9 UV-I 788 W/m 16,9 C 3,2 km/h (1 Bft)
23.06.2016 10:44 24,4 C 24,4 C 61 % 1019,8 hPa 0,0 mm 3,1 km/h (1 Bft) SO 128 1 min 0,000 mm 5,9 UV-I 789 W/m 16,4 C 4,8 km/h (1 Bft)
23.06.2016 10:45 24,4 C 24,4 C 61 % 1019,8 hPa 0,0 mm 2,2 km/h (1 Bft) SO 126 1 min 0,000 mm 6,0 UV-I 789 W/m 16,4 C 3,2 km/h (1 Bft)
23.06.2016 10:46 24,4 C 24,4 C 62 % 1019,9 hPa 0,0 mm 5,0 km/h (1 Bft) O 91 1 min 0,000 mm 6,0 UV-I 793 W/m 16,6 C 6,4 km/h (2 Bft)
23.06.2016 10:47 24,5 C 24,5 C 62 % 1019,8 hPa 0,0 mm 5,1 km/h (1 Bft) O 89 1 min 0,000 mm 6,0 UV-I 795 W/m 16,7 C 6,4 km/h (2 Bft)
23.06.2016 10:48 24,6 C 24,6 C 64 % 1019,9 hPa 0,0 mm 3,2 km/h (1 Bft) O 89 1 min 0,000 mm 6,0 UV-I 798 W/m 17,3 C 4,8 km/h (1 Bft)
23.06.2016 10:49 24,6 C 24,6 C 61 % 1019,9 hPa 0,0 mm 1,4 km/h (1 Bft) O-SO 106 1 min 0,000 mm 6,1 UV-I 798 W/m 16,6 C 3,2 km/h (1 Bft)
23.06.2016 10:50 24,6 C 24,6 C 63 % 1019,9 hPa 0,0 mm 1,6 km/h (1 Bft) O-SO 104 1 min 0,000 mm 6,1 UV-I 798 W/m 17,1 C 3,2 km/h (1 Bft)
23.06.2016 10:51 24,7 C 24,7 C 62 % 1019,9 hPa 0,0 mm 3,3 km/h (1 Bft) NO 50 1 min 0,000 mm 6,1 UV-I 802 W/m 16,9 C 4,8 km/h (1 Bft)
23.06.2016 10:52 24,8 C 24,8 C 63 % 1019,8 hPa 0,0 mm 3,4 km/h (1 Bft) N-NO 31 1 min 0,000 mm 6,1 UV-I 802 W/m 17,3 C 6,4 km/h (2 Bft)
23.06.2016 10:53 24,8 C 24,9 C 61 % 1019,8 hPa 0,0 mm 0,9 km/h (0 Bft) O-NO 61 1 min 0,000 mm 6,1 UV-I 803 W/m 16,8 C 1,6 km/h (1 Bft)
23.06.2016 10:54 24,9 C 24,9 C 59 % 1019,9 hPa 0,0 mm 0,9 km/h (0 Bft) O-SO 120 1 min 0,000 mm 6,2 UV-I 809 W/m 16,3 C 1,6 km/h (1 Bft)
23.06.2016 10:55 24,8 C 24,9 C 59 % 1019,8 hPa 0,0 mm 4,2 km/h (1 Bft) O 84 1 min 0,000 mm 6,2 UV-I 810 W/m 16,2 C 6,4 km/h (2 Bft)
23.06.2016 10:56 25,0 C 25,0 C 62 % 1019,9 hPa 0,0 mm 1,1 km/h (1 Bft) O 84 1 min 0,000 mm 6,2 UV-I 810 W/m 17,2 C 1,6 km/h (1 Bft)
23.06.2016 10:57 25,1 C 25,1 C 58 % 1019,9 hPa 0,0 mm 1,4 km/h (1 Bft) O-SO 102 1 min 0,000 mm 6,2 UV-I 812 W/m 16,2 C 4,8 km/h (1 Bft)
23.06.2016 10:58 25,1 C 25,2 C 57 % 1019,9 hPa 0,0 mm 3,2 km/h (1 Bft) N-NO 32 1 min 0,000 mm 6,3 UV-I 814 W/m 16,0 C 4,8 km/h (1 Bft)
23.06.2016 10:59 25,3 C 25,3 C 58 % 1019,9 hPa 0,0 mm 4,5 km/h (1 Bft) N-NO 30 1 min 0,000 mm 6,3 UV-I 816 W/m 16,4 C 6,4 km/h (2 Bft)
23.06.2016 11:00 25,3 C 25,4 C 59 % 1019,9 hPa 0,0 mm 4,2 km/h (1 Bft) O 86 1 min 0,483 mm 6,3 UV-I 817 W/m 16,7 C 8,0 km/h (2 Bft)
23.06.2016 11:01 25,3 C 25,4 C 60 % 1019,9 hPa 0,0 mm 4,2 km/h (1 Bft) O 82 1 min 0,000 mm 6,3 UV-I 819 W/m 17,0 C 8,0 km/h (2 Bft)
23.06.2016 11:02 25,2 C 25,3 C 56 % 1019,9 hPa 0,0 mm 3,3 km/h (1 Bft) N-NO 12 1 min 0,000 mm 6,3 UV-I 819 W/m 15,8 C 6,4 km/h (2 Bft)
23.06.2016 11:03 25,3 C 25,3 C 56 % 1019,9 hPa 0,0 mm 4,8 km/h (1 Bft) N 5 1 min 0,000 mm 6,4 UV-I 821 W/m 15,9 C 6,4 km/h (2 Bft)
23.06.2016 11:04 25,3 C 25,3 C 55 % 1019,9 hPa 0,0 mm 4,6 km/h (1 Bft) N-NW 343 1 min 0,000 mm 6,4 UV-I 823 W/m 15,6 C 6,4 km/h (2 Bft)
23.06.2016 11:05 25,4 C 25,4 C 55 % 1019,9 hPa 0,0 mm 3,0 km/h (1 Bft) N-NW 332 1 min 0,000 mm 6,4 UV-I 824 W/m 15,7 C 4,8 km/h (1 Bft)
23.06.2016 11:06 25,4 C 25,4 C 56 % 1019,8 hPa 0,0 mm 3,9 km/h (1 Bft) N-NW 327 1 min 0,000 mm 6,4 UV-I 828 W/m 16,0 C 6,4 km/h (2 Bft)
23.06.2016 11:07 25,5 C 25,5 C 56 % 1019,8 hPa 0,0 mm 4,6 km/h (1 Bft) NW 313 1 min 0,000 mm 6,5 UV-I 830 W/m 16,1 C 6,4 km/h (2 Bft)
23.06.2016 11:08 25,6 C 25,6 C 61 % 1019,8 hPa 0,0 mm 3,6 km/h (1 Bft) NO 44 1 min 0,000 mm 6,5 UV-I 830 W/m 17,5 C 4,8 km/h (1 Bft)
23.06.2016 11:09 25,8 C 25,8 C 58 % 1019,8 hPa 0,0 mm 5,3 km/h (1 Bft) O-NO 68 1 min 0,000 mm 6,5 UV-I 831 W/m 16,9 C 8,0 km/h (2 Bft)
23.06.2016 11:10 25,7 C 25,8 C 57 % 1019,8 hPa 0,0 mm 4,2 km/h (1 Bft) O-SO 119 1 min 0,000 mm 6,5 UV-I 835 W/m 16,5 C 6,4 km/h (2 Bft)
23.06.2016 11:11 25,6 C 25,7 C 54 % 1019,8 hPa 0,0 mm 4,4 km/h (1 Bft) O 95 1 min 0,000 mm 6,5 UV-I 837 W/m 15,6 C 4,8 km/h (1 Bft)
23.06.2016 11:12 25,4 C 25,6 C 55 % 1019,9 hPa 0,0 mm 1,4 km/h (1 Bft) O 95 1 min 0,000 mm 6,6 UV-I 837 W/m 15,7 C 3,2 km/h (1 Bft)
23.06.2016 11:13 25,4 C 25,4 C 58 % 1019,8 hPa 0,0 mm 2,3 km/h (1 Bft) O 86 1 min 0,000 mm 6,6 UV-I 840 W/m 16,5 C 4,8 km/h (1 Bft)
23.06.2016 11:14 25,4 C 25,4 C 57 % 1019,9 hPa 0,0 mm 2,1 km/h (1 Bft) S-SO 155 1 min 0,000 mm 6,6 UV-I 842 W/m 16,2 C 3,2 km/h (1 Bft)
23.06.2016 11:15 25,5 C 25,5 C 57 % 1019,8 hPa 0,0 mm 2,9 km/h (1 Bft) O-NO 63 1 min 0,000 mm 6,6 UV-I 842 W/m 16,3 C 6,4 km/h (2 Bft)
23.06.2016 11:16 25,4 C 25,5 C 56 % 1019,8 hPa 0,0 mm 1,9 km/h (1 Bft) NO 47 1 min 0,000 mm 6,6 UV-I 844 W/m 16,0 C 4,8 km/h (1 Bft)
23.06.2016 11:17 25,4 C 25,4 C 55 % 1019,8 hPa 0,0 mm 0,7 km/h (0 Bft) NO 50 1 min 0,000 mm 6,6 UV-I 844 W/m 15,7 C 1,6 km/h (1 Bft)
23.06.2016 11:18 25,5 C 25,5 C 56 % 1019,8 hPa 0,0 mm 2,3 km/h (1 Bft) N-NO 30 1 min 0,000 mm 6,7 UV-I 846 W/m 16,1 C 4,8 km/h (1 Bft)
23.06.2016 11:19 25,6 C 25,6 C 61 % 1019,8 hPa 0,0 mm 3,5 km/h (1 Bft) O-NO 74 1 min 0,000 mm 6,7 UV-I 846 W/m 17,5 C 8,0 km/h (2 Bft)
23.06.2016 11:20 25,6 C 25,6 C 58 % 1019,8 hPa 0,0 mm 5,6 km/h (1 Bft) O-SO 107 1 min 0,000 mm 6,7 UV-I 851 W/m 16,7 C 11,3 km/h (2 Bft)
23.06.2016 11:21 25,5 C 25,6 C 57 % 1019,8 hPa 0,0 mm 6,1 km/h (2 Bft) O 96 1 min 0,000 mm 6,7 UV-I 851 W/m 16,3 C 8,0 km/h (2 Bft)
23.06.2016 11:22 25,4 C 25,5 C 56 % 1019,8 hPa 0,0 mm 4,0 km/h (1 Bft) O-SO 108 1 min 0,000 mm 6,8 UV-I 853 W/m 16,0 C 6,4 km/h (2 Bft)
23.06.2016 11:23 25,5 C 25,5 C 58 % 1019,8 hPa 0,0 mm 4,7 km/h (1 Bft) O-NO 63 1 min 0,000 mm 6,8 UV-I 854 W/m 16,6 C 6,4 km/h (2 Bft)
23.06.2016 11:24 25,4 C 25,5 C 57 % 1019,8 hPa 0,0 mm 2,9 km/h (1 Bft) O-NO 59 1 min 0,000 mm 6,8 UV-I 854 W/m 16,2 C 4,8 km/h (1 Bft)
23.06.2016 11:25 25,5 C 25,5 C 59 % 1019,8 hPa 0,0 mm 0,5 km/h (0 Bft) O-NO 59 1 min 0,000 mm 6,8 UV-I 854 W/m 16,9 C 1,6 km/h (1 Bft)
23.06.2016 11:26 25,6 C 25,6 C 59 % 1019,7 hPa 0,0 mm 0,0 km/h (0 Bft) O-NO 59 1 min 0,000 mm 6,8 UV-I 858 W/m 17,0 C 0,0 km/h (0 Bft)
23.06.2016 11:27 25,6 C 25,6 C 57 % 1019,8 hPa 0,0 mm 2,8 km/h (1 Bft) N 355 1 min 0,000 mm 6,8 UV-I 854 W/m 16,4 C 6,4 km/h (2 Bft)
23.06.2016 11:28 25,7 C 25,7 C 55 % 1019,7 hPa 0,0 mm 2,9 km/h (1 Bft) N-NW 333 1 min 0,000 mm 6,8 UV-I 858 W/m 16,0 C 4,8 km/h (1 Bft)
23.06.2016 11:29 25,9 C 25,9 C 58 % 1019,7 hPa 0,0 mm 2,5 km/h (1 Bft) NO 39 1 min 0,000 mm 6,9 UV-I 863 W/m 17,0 C 4,8 km/h (1 Bft)
23.06.2016 11:30 25,9 C 26,0 C 54 % 1019,8 hPa 0,0 mm 4,5 km/h (1 Bft) N 351 1 min 0,000 mm 6,9 UV-I 863 W/m 15,9 C 8,0 km/h (2 Bft)
23.06.2016 11:31 26,0 C 26,0 C 54 % 1019,8 hPa 0,0 mm 3,5 km/h (1 Bft) N-NO 26 1 min 0,000 mm 6,9 UV-I 865 W/m 16,0 C 6,4 km/h (2 Bft)
23.06.2016 11:32 26,1 C 26,1 C 58 % 1019,8 hPa 0,0 mm 2,4 km/h (1 Bft) NO 42 1 min 0,000 mm 7,0 UV-I 867 W/m 17,2 C 3,2 km/h (1 Bft)
23.06.2016 11:33 26,1 C 26,1 C 57 % 1019,7 hPa 0,0 mm 2,6 km/h (1 Bft) N 5 1 min 0,000 mm 7,0 UV-I 867 W/m 16,9 C 6,4 km/h (2 Bft)
23.06.2016 11:34 25,9 C 26,1 C 55 % 1019,7 hPa 0,0 mm 3,2 km/h (1 Bft) O 80 1 min 0,000 mm 7,0 UV-I 867 W/m 16,2 C 4,8 km/h (1 Bft)
23.06.2016 11:35 25,9 C 25,9 C 56 % 1019,7 hPa 0,0 mm 2,3 km/h (1 Bft) O-NO 74 1 min 0,000 mm 7,0 UV-I 870 W/m 16,4 C 3,2 km/h (1 Bft)
23.06.2016 11:36 25,9 C 25,9 C 59 % 1019,7 hPa 0,0 mm 5,6 km/h (1 Bft) O 90 1 min 0,000 mm 7,0 UV-I 874 W/m 17,3 C 11,3 km/h (2 Bft)
23.06.2016 11:37 25,9 C 25,9 C 58 % 1019,7 hPa 0,0 mm 2,2 km/h (1 Bft) N-NW 333 1 min 0,000 mm 7,1 UV-I 874 W/m 17,0 C 4,8 km/h (1 Bft)
23.06.2016 11:38 26,0 C 26,0 C 56 % 1019,7 hPa 0,0 mm 2,2 km/h (1 Bft) N-NW 342 1 min 0,000 mm 7,1 UV-I 875 W/m 16,5 C 3,2 km/h (1 Bft)
23.06.2016 11:39 26,2 C 26,2 C 62 % 1019,7 hPa 0,0 mm 1,3 km/h (1 Bft) NO 49 1 min 0,000 mm 7,1 UV-I 874 W/m 18,3 C 3,2 km/h (1 Bft)
23.06.2016 11:40 26,3 C 26,3 C 56 % 1019,7 hPa 0,0 mm 3,4 km/h (1 Bft) N 349 1 min 0,000 mm 7,1 UV-I 875 W/m 16,8 C 6,4 km/h (2 Bft)
23.06.2016 11:41 26,2 C 26,3 C 55 % 1019,7 hPa 0,0 mm 2,8 km/h (1 Bft) W-NW 298 1 min 0,000 mm 7,1 UV-I 879 W/m 16,4 C 4,8 km/h (1 Bft)
23.06.2016 11:42 26,2 C 26,2 C 53 % 1019,7 hPa 0,0 mm 2,0 km/h (1 Bft) NO 38 1 min 0,000 mm 7,2 UV-I 879 W/m 15,8 C 4,8 km/h (1 Bft)
23.06.2016 11:43 26,1 C 26,2 C 56 % 1019,7 hPa 0,0 mm 7,2 km/h (2 Bft) O 90 1 min 0,000 mm 7,2 UV-I 881 W/m 16,6 C 9,7 km/h (2 Bft)
23.06.2016 11:44 26,1 C 26,1 C 54 % 1019,7 hPa 0,0 mm 5,0 km/h (1 Bft) NO 37 1 min 0,000 mm 7,2 UV-I 882 W/m 16,0 C 6,4 km/h (2 Bft)
23.06.2016 11:45 26,2 C 26,2 C 56 % 1019,7 hPa 0,0 mm 5,1 km/h (1 Bft) N 5 1 min 0,000 mm 7,2 UV-I 881 W/m 16,7 C 8,0 km/h (2 Bft)
23.06.2016 11:46 26,3 C 26,3 C 52 % 1019,7 hPa 0,0 mm 5,4 km/h (1 Bft) NO 45 1 min 0,000 mm 7,2 UV-I 881 W/m 15,6 C 8,0 km/h (2 Bft)
23.06.2016 11:47 26,4 C 26,4 C 51 % 1019,7 hPa 0,0 mm 3,5 km/h (1 Bft) O-NO 76 1 min 0,000 mm 7,2 UV-I 882 W/m 15,4 C 4,8 km/h (1 Bft)
23.06.2016 11:48 26,4 C 26,4 C 52 % 1019,7 hPa 0,0 mm 3,5 km/h (1 Bft) O-SO 103 1 min 0,000 mm 7,2 UV-I 886 W/m 15,7 C 4,8 km/h (1 Bft)
23.06.2016 11:49 26,2 C 26,4 C 49 % 1019,7 hPa 0,0 mm 3,7 km/h (1 Bft) O 97 1 min 0,000 mm 7,3 UV-I 886 W/m 14,6 C 6,4 km/h (2 Bft)
23.06.2016 11:50 26,1 C 26,2 C 51 % 1019,7 hPa 0,0 mm 5,4 km/h (1 Bft) NO 38 1 min 0,000 mm 7,3 UV-I 888 W/m 15,2 C 6,4 km/h (2 Bft)
23.06.2016 11:51 26,1 C 26,1 C 54 % 1019,7 hPa 0,0 mm 5,5 km/h (1 Bft) N 355 1 min 0,000 mm 7,3 UV-I 891 W/m 16,0 C 11,3 km/h (2 Bft)
23.06.2016 11:52 26,3 C 26,3 C 57 % 1019,7 hPa 0,0 mm 5,2 km/h (1 Bft) N 355 1 min 0,000 mm 7,3 UV-I 888 W/m 17,1 C 8,0 km/h (2 Bft)
23.06.2016 11:53 26,5 C 26,5 C 54 % 1019,8 hPa 0,0 mm 4,1 km/h (1 Bft) N 360 1 min 0,000 mm 7,3 UV-I 893 W/m 16,4 C 8,0 km/h (2 Bft)
23.06.2016 11:54 26,7 C 26,7 C 56 % 1019,7 hPa 0,0 mm 6,3 km/h (2 Bft) N-NO 20 1 min 0,000 mm 7,3 UV-I 891 W/m 17,2 C 11,3 km/h (2 Bft)
23.06.2016 11:55 26,8 C 26,8 C 58 % 1019,8 hPa 0,0 mm 8,9 km/h (2 Bft) NO 36 1 min 0,000 mm 7,3 UV-I 891 W/m 17,8 C 14,5 km/h (3 Bft)
23.06.2016 11:56 26,8 C 26,8 C 53 % 1019,8 hPa 0,0 mm 5,2 km/h (1 Bft) N-NO 15 1 min 0,000 mm 7,3 UV-I 889 W/m 16,4 C 8,0 km/h (2 Bft)
23.06.2016 11:57 26,7 C 26,8 C 51 % 1019,8 hPa 0,0 mm 6,7 km/h (2 Bft) NO 40 1 min 0,000 mm 7,4 UV-I 895 W/m 15,7 C 8,0 km/h (2 Bft)
23.06.2016 11:58 26,7 C 26,8 C 53 % 1019,8 hPa 0,0 mm 4,6 km/h (1 Bft) NO 34 1 min 0,000 mm 7,4 UV-I 896 W/m 16,3 C 6,4 km/h (2 Bft)
23.06.2016 11:59 26,6 C 26,7 C 53 % 1019,7 hPa 0,0 mm 4,7 km/h (1 Bft) N-NO 21 1 min 0,000 mm 7,4 UV-I 898 W/m 16,2 C 6,4 km/h (2 Bft)
23.06.2016 12:00 26,6 C 26,6 C 51 % 1019,7 hPa 0,0 mm 3,5 km/h (1 Bft) N 355 1 min 0,000 mm 7,4 UV-I 900 W/m 15,6 C 4,8 km/h (1 Bft)
23.06.2016 12:01 26,8 C 26,8 C 52 % 1019,8 hPa 0,0 mm 6,6 km/h (2 Bft) N-NW 348 1 min 0,559 mm 7,4 UV-I 900 W/m 16,1 C 9,7 km/h (2 Bft)
23.06.2016 12:02 26,9 C 26,9 C 51 % 1019,8 hPa 0,0 mm 5,8 km/h (2 Bft) N-NW 342 1 min 0,000 mm 7,4 UV-I 900 W/m 15,9 C 8,0 km/h (2 Bft)
23.06.2016 12:03 26,9 C 26,9 C 50 % 1019,8 hPa 0,0 mm 3,0 km/h (1 Bft) W-NW 299 1 min 0,000 mm 7,5 UV-I 900 W/m 15,6 C 4,8 km/h (1 Bft)
23.06.2016 12:04 26,8 C 26,9 C 50 % 1019,7 hPa 0,0 mm 3,8 km/h (1 Bft) N-NW 327 1 min 0,000 mm 7,5 UV-I 900 W/m 15,5 C 6,4 km/h (2 Bft)
23.06.2016 12:05 26,8 C 26,8 C 52 % 1019,7 hPa 0,0 mm 4,8 km/h (1 Bft) W-NW 300 1 min 0,000 mm 7,5 UV-I 900 W/m 16,1 C 6,4 km/h (2 Bft)
23.06.2016 12:06 26,8 C 26,8 C 55 % 1019,7 hPa 0,0 mm 5,9 km/h (2 Bft) N 5 1 min 0,000 mm 7,5 UV-I 898 W/m 17,0 C 8,0 km/h (2 Bft)
23.06.2016 12:07 26,7 C 26,8 C 52 % 1019,7 hPa 0,0 mm 4,6 km/h (1 Bft) NO 51 1 min 0,000 mm 7,5 UV-I 900 W/m 16,0 C 8,0 km/h (2 Bft)
23.06.2016 12:08 26,7 C 26,7 C 55 % 1019,7 hPa 0,0 mm 5,7 km/h (1 Bft) N-NO 28 1 min 0,000 mm 7,5 UV-I 898 W/m 16,9 C 9,7 km/h (2 Bft)
23.06.2016 12:09 26,8 C 26,8 C 55 % 1019,7 hPa 0,0 mm 6,2 km/h (2 Bft) O-NO 63 1 min 0,000 mm 7,5 UV-I 898 W/m 17,0 C 9,7 km/h (2 Bft)
23.06.2016 12:10 26,7 C 26,8 C 53 % 1019,7 hPa 0,0 mm 4,6 km/h (1 Bft) NO 51 1 min 0,000 mm 7,5 UV-I 904 W/m 16,3 C 8,0 km/h (2 Bft)
23.06.2016 12:11 26,7 C 26,7 C 54 % 1019,7 hPa 0,0 mm 4,9 km/h (1 Bft) O-NO 74 1 min 0,000 mm 7,6 UV-I 907 W/m 16,6 C 6,4 km/h (2 Bft)
23.06.2016 12:12 26,7 C 26,7 C 52 % 1019,7 hPa 0,0 mm 3,6 km/h (1 Bft) O-NO 57 1 min 0,000 mm 7,6 UV-I 909 W/m 16,0 C 6,4 km/h (2 Bft)
23.06.2016 12:13 26,8 C 26,8 C 54 % 1019,7 hPa 0,0 mm 3,9 km/h (1 Bft) O-NO 63 1 min 0,000 mm 7,5 UV-I 904 W/m 16,7 C 4,8 km/h (1 Bft)
23.06.2016 12:14 26,9 C 26,9 C 52 % 1019,7 hPa 0,0 mm 7,0 km/h (2 Bft) N 5 1 min 0,000 mm 7,6 UV-I 904 W/m 16,2 C 9,7 km/h (2 Bft)
23.06.2016 12:15 27,0 C 27,0 C 52 % 1019,7 hPa 0,0 mm 3,6 km/h (1 Bft) O 98 1 min 0,000 mm 7,6 UV-I 909 W/m 16,3 C 6,4 km/h (2 Bft)
23.06.2016 12:16 26,9 C 27,0 C 52 % 1019,8 hPa 0,0 mm 3,7 km/h (1 Bft) O 95 1 min 0,000 mm 7,6 UV-I 909 W/m 16,2 C 4,8 km/h (1 Bft)
23.06.2016 12:17 26,9 C 26,9 C 52 % 1019,7 hPa 0,0 mm 2,4 km/h (1 Bft) O 96 1 min 0,000 mm 7,6 UV-I 911 W/m 16,2 C 4,8 km/h (1 Bft)
23.06.2016 12:18 26,8 C 26,9 C 51 % 1019,7 hPa 0,0 mm 2,3 km/h (1 Bft) O-SO 103 1 min 0,000 mm 7,6 UV-I 914 W/m 15,8 C 4,8 km/h (1 Bft)
23.06.2016 12:19 26,8 C 26,8 C 53 % 1019,7 hPa 0,0 mm 5,1 km/h (1 Bft) N-NO 16 1 min 0,000 mm 7,7 UV-I 916 W/m 16,4 C 8,0 km/h (2 Bft)
23.06.2016 12:20 26,8 C 26,8 C 51 % 1019,7 hPa 0,0 mm 6,2 km/h (2 Bft) NO 36 1 min 0,000 mm 7,6 UV-I 911 W/m 15,8 C 9,7 km/h (2 Bft)
23.06.2016 12:21 27,0 C 27,0 C 54 % 1019,7 hPa 0,0 mm 4,4 km/h (1 Bft) N-NO 13 1 min 0,000 mm 7,6 UV-I 914 W/m 16,9 C 6,4 km/h (2 Bft)
23.06.2016 12:22 27,1 C 27,1 C 49 % 1019,7 hPa 0,0 mm 3,4 km/h (1 Bft) N-NW 332 1 min 0,000 mm 7,7 UV-I 916 W/m 15,4 C 6,4 km/h (2 Bft)
23.06.2016 12:23 27,1 C 27,1 C 50 % 1019,7 hPa 0,0 mm 3,0 km/h (1 Bft) N 10 1 min 0,000 mm 7,7 UV-I 919 W/m 15,8 C 4,8 km/h (1 Bft)
23.06.2016 12:24 27,2 C 27,2 C 56 % 1019,7 hPa 0,0 mm 3,8 km/h (1 Bft) N 10 1 min 0,000 mm 7,7 UV-I 919 W/m 17,6 C 4,8 km/h (1 Bft)
23.06.2016 12:25 27,2 C 27,2 C 52 % 1019,7 hPa 0,0 mm 3,4 km/h (1 Bft) N 5 1 min 0,000 mm 7,7 UV-I 919 W/m 16,5 C 6,4 km/h (2 Bft)
23.06.2016 12:26 27,2 C 27,2 C 50 % 1019,7 hPa 0,0 mm 5,0 km/h (1 Bft) N-NO 28 1 min 0,000 mm 7,7 UV-I 919 W/m 15,9 C 8,0 km/h (2 Bft)
23.06.2016 12:27 27,2 C 27,2 C 49 % 1019,7 hPa 0,0 mm 4,1 km/h (1 Bft) N-NO 25 1 min 0,000 mm 7,7 UV-I 921 W/m 15,5 C 6,4 km/h (2 Bft)
23.06.2016 12:28 27,3 C 27,3 C 47 % 1019,7 hPa 0,0 mm 1,9 km/h (1 Bft) NO 40 1 min 0,000 mm 7,8 UV-I 923 W/m 15,0 C 3,2 km/h (1 Bft)
23.06.2016 12:29 27,2 C 27,3 C 49 % 1019,7 hPa 0,0 mm 3,1 km/h (1 Bft) O 97 1 min 0,000 mm 7,7 UV-I 919 W/m 15,5 C 4,8 km/h (1 Bft)
23.06.2016 12:30 27,1 C 27,2 C 50 % 1019,7 hPa 0,0 mm 1,8 km/h (1 Bft) NO 35 1 min 0,000 mm 7,7 UV-I 918 W/m 15,8 C 3,2 km/h (1 Bft)
23.06.2016 12:31 27,1 C 27,1 C 49 % 1019,7 hPa 0,0 mm 4,8 km/h (1 Bft) N 360 1 min 0,000 mm 7,8 UV-I 919 W/m 15,4 C 6,4 km/h (2 Bft)
23.06.2016 12:32 27,2 C 27,2 C 51 % 1019,7 hPa 0,0 mm 4,2 km/h (1 Bft) O-NO 61 1 min 0,000 mm 7,8 UV-I 921 W/m 16,2 C 4,8 km/h (1 Bft)
23.06.2016 12:33 27,2 C 27,2 C 54 % 1019,7 hPa 0,0 mm 7,4 km/h (2 Bft) O-NO 61 1 min 0,000 mm 7,7 UV-I 921 W/m 17,1 C 11,3 km/h (2 Bft)
23.06.2016 12:34 27,1 C 27,2 C 50 % 1019,7 hPa 0,0 mm 4,0 km/h (1 Bft) O-NO 75 1 min 0,000 mm 7,8 UV-I 919 W/m 15,8 C 6,4 km/h (2 Bft)
23.06.2016 12:35 27,0 C 27,1 C 52 % 1019,7 hPa 0,0 mm 3,2 km/h (1 Bft) O-NO 75 1 min 0,000 mm 7,8 UV-I 919 W/m 16,3 C 4,8 km/h (1 Bft)
23.06.2016 12:36 26,9 C 27,0 C 52 % 1019,7 hPa 0,0 mm 3,8 km/h (1 Bft) NO 55 1 min 0,000 mm 7,8 UV-I 923 W/m 16,2 C 6,4 km/h (2 Bft)
23.06.2016 12:37 27,0 C 27,0 C 48 % 1019,7 hPa 0,0 mm 4,8 km/h (1 Bft) N-NO 21 1 min 0,000 mm 7,8 UV-I 926 W/m 15,0 C 6,4 km/h (2 Bft)
23.06.2016 12:38 27,1 C 27,1 C 51 % 1019,7 hPa 0,0 mm 4,3 km/h (1 Bft) NO 45 1 min 0,000 mm 7,8 UV-I 926 W/m 16,1 C 6,4 km/h (2 Bft)
23.06.2016 12:39 27,2 C 27,2 C 49 % 1019,7 hPa 0,0 mm 5,1 km/h (1 Bft) O 82 1 min 0,000 mm 7,8 UV-I 926 W/m 15,5 C 11,3 km/h (2 Bft)
23.06.2016 12:40 27,2 C 27,2 C 47 % 1019,7 hPa 0,0 mm 3,7 km/h (1 Bft) O-NO 57 1 min 0,000 mm 7,8 UV-I 925 W/m 14,9 C 6,4 km/h (2 Bft)
23.06.2016 12:41 27,2 C 27,2 C 50 % 1019,7 hPa 0,0 mm 5,2 km/h (1 Bft) O-NO 67 1 min 0,000 mm 7,8 UV-I 925 W/m 15,9 C 6,4 km/h (2 Bft)
23.06.2016 12:42 27,2 C 27,2 C 49 % 1019,7 hPa 0,0 mm 8,1 km/h (2 Bft) NO 36 1 min 0,000 mm 7,8 UV-I 925 W/m 15,5 C 11,3 km/h (2 Bft)
23.06.2016 12:43 27,2 C 27,2 C 54 % 1019,7 hPa 0,0 mm 5,1 km/h (1 Bft) O-SO 109 1 min 0,000 mm 7,9 UV-I 926 W/m 17,1 C 8,0 km/h (2 Bft)
23.06.2016 12:44 27,2 C 27,2 C 44 % 1019,7 hPa 0,0 mm 1,6 km/h (1 Bft) O 86 1 min 0,000 mm 7,9 UV-I 928 W/m 13,9 C 3,2 km/h (1 Bft)
23.06.2016 12:45 27,2 C 27,2 C 45 % 1019,7 hPa 0,0 mm 5,2 km/h (1 Bft) O 84 1 min 0,000 mm 7,9 UV-I 933 W/m 14,2 C 8,0 km/h (2 Bft)
23.06.2016 12:46 27,2 C 27,2 C 43 % 1019,7 hPa 0,0 mm 4,5 km/h (1 Bft) O-NO 57 1 min 0,000 mm 7,9 UV-I 932 W/m 13,5 C 6,4 km/h (2 Bft)
23.06.2016 12:47 27,2 C 27,2 C 48 % 1019,7 hPa 0,0 mm 1,7 km/h (1 Bft) O-SO 105 1 min 0,000 mm 7,9 UV-I 933 W/m 15,2 C 3,2 km/h (1 Bft)
23.06.2016 12:48 27,3 C 27,3 C 44 % 1019,6 hPa 0,0 mm 3,8 km/h (1 Bft) O-NO 67 1 min 0,000 mm 7,9 UV-I 933 W/m 14,0 C 6,4 km/h (2 Bft)
23.06.2016 12:49 27,3 C 27,3 C 46 % 1019,7 hPa 0,0 mm 4,2 km/h (1 Bft) NO 40 1 min 0,000 mm 7,9 UV-I 935 W/m 14,6 C 8,0 km/h (2 Bft)
23.06.2016 12:50 27,4 C 27,4 C 41 % 1019,6 hPa 0,0 mm 6,2 km/h (2 Bft) NO 49 1 min 0,000 mm 7,9 UV-I 935 W/m 13,0 C 8,0 km/h (2 Bft)
23.06.2016 12:51 27,4 C 27,4 C 41 % 1019,6 hPa 0,0 mm 5,6 km/h (1 Bft) O-NO 65 1 min 0,000 mm 7,9 UV-I 937 W/m 13,0 C 6,4 km/h (2 Bft)
23.06.2016 12:52 27,4 C 27,4 C 35 % 1019,6 hPa 0,0 mm 2,4 km/h (1 Bft) O-NO 65 1 min 0,000 mm 7,9 UV-I 937 W/m 10,6 C 4,8 km/h (1 Bft)
23.06.2016 12:53 27,4 C 27,4 C 39 % 1019,6 hPa 0,0 mm 0,9 km/h (0 Bft) O-SO 113 1 min 0,000 mm 8,0 UV-I 937 W/m 12,2 C 3,2 km/h (1 Bft)
23.06.2016 12:54 27,4 C 27,4 C 39 % 1019,6 hPa 0,0 mm 2,4 km/h (1 Bft) S-SO 156 1 min 0,000 mm 8,0 UV-I 937 W/m 12,2 C 3,2 km/h (1 Bft)
23.06.2016 12:55 27,4 C 27,4 C 35 % 1019,6 hPa 0,0 mm 3,6 km/h (1 Bft) S-SO 163 1 min 0,000 mm 8,0 UV-I 937 W/m 10,6 C 6,4 km/h (2 Bft)
23.06.2016 12:56 27,4 C 27,4 C 42 % 1019,6 hPa 0,0 mm 1,8 km/h (1 Bft) S-SO 163 1 min 0,000 mm 8,0 UV-I 935 W/m 13,3 C 3,2 km/h (1 Bft)
23.06.2016 12:57 27,3 C 27,4 C 41 % 1019,6 hPa 0,0 mm 1,5 km/h (1 Bft) O 84 1 min 0,000 mm 8,0 UV-I 935 W/m 12,9 C 3,2 km/h (1 Bft)
23.06.2016 12:58 27,3 C 27,3 C 45 % 1019,6 hPa 0,0 mm 2,1 km/h (1 Bft) SO 130 1 min 0,000 mm 7,9 UV-I 933 W/m 14,3 C 4,8 km/h (1 Bft)
23.06.2016 12:59 27,3 C 27,3 C 42 % 1019,6 hPa 0,0 mm 1,7 km/h (1 Bft) SO 126 1 min 0,000 mm 8,0 UV-I 933 W/m 13,2 C 3,2 km/h (1 Bft)
23.06.2016 13:00 27,4 C 27,4 C 46 % 1019,6 hPa 0,0 mm 2,1 km/h (1 Bft) NO 49 1 min 0,635 mm 8,0 UV-I 933 W/m 14,7 C 4,8 km/h (1 Bft)
23.06.2016 13:01 27,4 C 27,4 C 46 % 1019,5 hPa 0,0 mm 5,2 km/h (1 Bft) N-NO 24 1 min 0,000 mm 8,0 UV-I 933 W/m 14,7 C 6,4 km/h (2 Bft)
23.06.2016 13:02 27,6 C 27,6 C 49 % 1019,5 hPa 0,0 mm 3,6 km/h (1 Bft) NO 51 1 min 0,000 mm 8,0 UV-I 937 W/m 15,9 C 4,8 km/h (1 Bft)
23.06.2016 13:03 27,7 C 27,7 C 44 % 1019,5 hPa 0,0 mm 4,9 km/h (1 Bft) NO 44 1 min 0,000 mm 8,0 UV-I 935 W/m 14,3 C 8,0 km/h (2 Bft)
23.06.2016 13:04 27,7 C 27,7 C 42 % 1019,5 hPa 0,0 mm 1,6 km/h (1 Bft) NO 45 1 min 0,000 mm 8,0 UV-I 935 W/m 13,6 C 4,8 km/h (1 Bft)
23.06.2016 13:05 27,7 C 27,7 C 42 % 1019,5 hPa 0,0 mm 6,4 km/h (2 Bft) N-NO 22 1 min 0,000 mm 8,0 UV-I 933 W/m 13,6 C 9,7 km/h (2 Bft)
23.06.2016 13:06 27,8 C 27,8 C 48 % 1019,5 hPa 0,0 mm 3,2 km/h (1 Bft) O-NO 67 1 min 0,000 mm 8,0 UV-I 932 W/m 15,8 C 8,0 km/h (2 Bft)
23.06.2016 13:07 27,7 C 27,8 C 43 % 1019,5 hPa 0,0 mm 1,6 km/h (1 Bft) O 90 1 min 0,000 mm 8,0 UV-I 932 W/m 14,0 C 3,2 km/h (1 Bft)
23.06.2016 13:08 27,6 C 27,7 C 43 % 1019,5 hPa 0,0 mm 4,8 km/h (1 Bft) O-NO 67 1 min 0,000 mm 8,0 UV-I 933 W/m 13,9 C 8,0 km/h (2 Bft)
23.06.2016 13:09 27,6 C 27,7 C 42 % 1019,5 hPa 0,0 mm 1,6 km/h (1 Bft) O-NO 67 1 min 0,000 mm 8,0 UV-I 933 W/m 13,5 C 4,8 km/h (1 Bft)
23.06.2016 13:10 27,6 C 27,6 C 50 % 1019,5 hPa 0,0 mm 1,6 km/h (1 Bft) NO 45 1 min 0,000 mm 8,0 UV-I 933 W/m 16,2 C 6,4 km/h (2 Bft)
23.06.2016 13:11 27,6 C 27,7 C 47 % 1019,4 hPa 0,0 mm 3,2 km/h (1 Bft) O-SO 112 1 min 0,000 mm 8,0 UV-I 933 W/m 15,3 C 6,4 km/h (2 Bft)
23.06.2016 13:12 27,7 C 27,7 C 45 % 1019,4 hPa 0,0 mm 8,0 km/h (2 Bft) O-NO 67 1 min 0,000 mm 8,0 UV-I 933 W/m 14,7 C 16,1 km/h (3 Bft)
23.06.2016 13:13 27,7 C 27,7 C 48 % 1019,5 hPa 0,0 mm 4,8 km/h (1 Bft) NO 45 1 min 0,000 mm 8,0 UV-I 930 W/m 15,7 C 16,1 km/h (3 Bft)
23.06.2016 13:14 27,7 C 27,7 C 44 % 1019,4 hPa 0,0 mm 6,4 km/h (2 Bft) NO 45 1 min 0,000 mm 8,0 UV-I 928 W/m 14,3 C 9,7 km/h (2 Bft)
23.06.2016 13:15 27,8 C 27,8 C 43 % 1019,5 hPa 0,0 mm 3,2 km/h (1 Bft) NO 45 1 min 0,000 mm 8,0 UV-I 928 W/m 14,1 C 4,8 km/h (1 Bft)
23.06.2016 13:16 27,8 C 27,8 C 45 % 1019,5 hPa 0,0 mm 3,2 km/h (1 Bft) NO 45 1 min 0,000 mm 8,0 UV-I 930 W/m 14,8 C 8,0 km/h (2 Bft)
23.06.2016 13:17 27,9 C 27,9 C 45 % 1019,5 hPa 0,0 mm 6,4 km/h (2 Bft) NO 45 1 min 0,000 mm 8,0 UV-I 930 W/m 14,8 C 11,3 km/h (2 Bft)
23.06.2016 13:18 28,0 C 28,1 C 42 % 1019,4 hPa 0,0 mm 6,4 km/h (2 Bft) O-NO 67 1 min 0,000 mm 8,0 UV-I 932 W/m 13,9 C 11,3 km/h (2 Bft)
23.06.2016 13:19 28,0 C 28,1 C 41 % 1019,4 hPa 0,0 mm 6,4 km/h (2 Bft) O-NO 67 1 min 0,000 mm 8,0 UV-I 932 W/m 13,5 C 12,9 km/h (3 Bft)
23.06.2016 13:20 28,0 C 28,0 C 41 % 1019,4 hPa 0,0 mm 3,2 km/h (1 Bft) NO 45 1 min 0,000 mm 8,0 UV-I 933 W/m 13,5 C 4,8 km/h (1 Bft)
23.06.2016 13:21 27,9 C 28,0 C 42 % 1019,4 hPa 0,0 mm 4,8 km/h (1 Bft) O-SO 112 1 min 0,000 mm 8,0 UV-I 932 W/m 13,8 C 8,0 km/h (2 Bft)
23.06.2016 13:22 28,0 C 28,0 C 49 % 1019,5 hPa 0,0 mm 6,4 km/h (2 Bft) O-NO 67 1 min 0,000 mm 8,0 UV-I 932 W/m 16,3 C 8,0 km/h (2 Bft)
23.06.2016 13:23 28,0 C 28,0 C 45 % 1019,4 hPa 0,0 mm 6,4 km/h (2 Bft) O 90 1 min 0,000 mm 8,0 UV-I 930 W/m 14,9 C 11,3 km/h (2 Bft)
23.06.2016 13:24 28,0 C 28,0 C 43 % 1019,5 hPa 0,0 mm 6,4 km/h (2 Bft) O-NO 67 1 min 0,000 mm 8,0 UV-I 930 W/m 14,2 C 8,0 km/h (2 Bft)
23.06.2016 13:25 28,0 C 28,0 C 41 % 1019,4 hPa 0,0 mm 1,6 km/h (1 Bft) N-NO 22 1 min 0,000 mm 8,0 UV-I 932 W/m 13,5 C 3,2 km/h (1 Bft)
23.06.2016 13:26 27,9 C 28,0 C 43 % 1019,4 hPa 0,0 mm 4,8 km/h (1 Bft) N-NW 337 1 min 0,000 mm 8,0 UV-I 933 W/m 14,1 C 6,4 km/h (2 Bft)
23.06.2016 13:27 28,1 C 28,1 C 41 % 1019,4 hPa 0,0 mm 3,2 km/h (1 Bft) NW 315 1 min 0,000 mm 8,0 UV-I 932 W/m 13,6 C 4,8 km/h (1 Bft)
23.06.2016 13:28 28,2 C 28,2 C 40 % 1019,4 hPa 0,0 mm 1,6 km/h (1 Bft) NW 315 1 min 0,000 mm 8,0 UV-I 930 W/m 13,3 C 1,6 km/h (1 Bft)
23.06.2016 13:29 28,2 C 28,2 C 43 % 1019,4 hPa 0,0 mm 4,8 km/h (1 Bft) NO 45 1 min 0,000 mm 8,0 UV-I 932 W/m 14,4 C 8,0 km/h (2 Bft)
23.06.2016 13:30 28,2 C 28,2 C 42 % 1019,4 hPa 0,0 mm 4,8 km/h (1 Bft) NO 45 1 min 0,000 mm 8,0 UV-I 932 W/m 14,0 C 6,4 km/h (2 Bft)
23.06.2016 13:31 28,2 C 28,2 C 45 % 1019,3 hPa 0,0 mm 3,2 km/h (1 Bft) N 360 1 min 0,000 mm 8,0 UV-I 933 W/m 15,1 C 8,0 km/h (2 Bft)
23.06.2016 13:32 28,3 C 28,3 C 40 % 1019,3 hPa 0,0 mm 8,0 km/h (2 Bft) N-NO 22 1 min 0,000 mm 8,0 UV-I 932 W/m 13,4 C 9,7 km/h (2 Bft)
23.06.2016 13:33 28,3 C 28,3 C 40 % 1019,4 hPa 0,0 mm 3,2 km/h (1 Bft) O-NO 67 1 min 0,000 mm 8,0 UV-I 932 W/m 13,4 C 4,8 km/h (1 Bft)
23.06.2016 13:34 28,2 C 28,3 C 41 % 1019,3 hPa 0,0 mm 1,6 km/h (1 Bft) O-NO 67 1 min 0,000 mm 8,0 UV-I 930 W/m 13,7 C 4,8 km/h (1 Bft)
23.06.2016 13:35 28,2 C 28,2 C 41 % 1019,3 hPa 0,0 mm 4,8 km/h (1 Bft) O-SO 112 1 min 0,000 mm 7,9 UV-I 930 W/m 13,7 C 8,0 km/h (2 Bft)
23.06.2016 13:36 28,1 C 28,2 C 43 % 1019,3 hPa 0,0 mm 3,2 km/h (1 Bft) N 360 1 min 0,000 mm 7,9 UV-I 930 W/m 14,3 C 8,0 km/h (2 Bft)
23.06.2016 13:37 28,2 C 28,2 C 42 % 1019,3 hPa 0,0 mm 4,8 km/h (1 Bft) N-NO 22 1 min 0,000 mm 7,9 UV-I 930 W/m 14,0 C 8,0 km/h (2 Bft)
23.06.2016 13:38 28,3 C 28,3 C 41 % 1019,3 hPa 0,0 mm 4,8 km/h (1 Bft) N-NO 22 1 min 0,000 mm 7,9 UV-I 928 W/m 13,8 C 6,4 km/h (2 Bft)
23.06.2016 13:39 28,3 C 28,3 C 42 % 1019,3 hPa 0,0 mm 3,2 km/h (1 Bft) N 360 1 min 0,000 mm 7,9 UV-I 926 W/m 14,1 C 6,4 km/h (2 Bft)
23.06.2016 13:41 28,4 C 28,4 C 44 % 1019,3 hPa 0,0 mm 5,5 km/h (1 Bft) NO 54 2 min 0,000 mm 7,9 UV-I 926 W/m 14,9 C 6,4 km/h (2 Bft)
23.06.2016 13:42 28,5 C 28,5 C 41 % 1019,3 hPa 0,0 mm 4,0 km/h (1 Bft) O-NO 76 1 min 0,000 mm 7,9 UV-I 925 W/m 13,9 C 8,0 km/h (2 Bft)
23.06.2016 13:43 28,4 C 28,5 C 41 % 1019,3 hPa 0,0 mm 4,9 km/h (1 Bft) NO 39 1 min 0,000 mm 7,9 UV-I 926 W/m 13,9 C 8,0 km/h (2 Bft)
23.06.2016 13:44 28,4 C 28,4 C 42 % 1019,3 hPa 0,0 mm 2,0 km/h (1 Bft) S-SW 203 1 min 0,000 mm 7,9 UV-I 926 W/m 14,2 C 3,2 km/h (1 Bft)
23.06.2016 13:45 28,4 C 28,4 C 41 % 1019,3 hPa 0,0 mm 3,4 km/h (1 Bft) NO 49 1 min 0,000 mm 7,9 UV-I 926 W/m 13,9 C 6,4 km/h (2 Bft)
23.06.2016 13:46 28,4 C 28,4 C 41 % 1019,3 hPa 0,0 mm 3,5 km/h (1 Bft) N-NO 12 1 min 0,000 mm 7,9 UV-I 926 W/m 13,9 C 4,8 km/h (1 Bft)
23.06.2016 13:47 28,5 C 28,5 C 42 % 1019,3 hPa 0,0 mm 2,5 km/h (1 Bft) N-NO 30 1 min 0,000 mm 7,9 UV-I 925 W/m 14,3 C 4,8 km/h (1 Bft)
23.06.2016 13:48 28,6 C 28,6 C 41 % 1019,3 hPa 0,0 mm 5,2 km/h (1 Bft) N 360 1 min 0,000 mm 7,9 UV-I 923 W/m 14,0 C 9,7 km/h (2 Bft)
23.06.2016 13:49 28,6 C 28,7 C 42 % 1019,2 hPa 0,0 mm 2,8 km/h (1 Bft) N 360 1 min 0,000 mm 7,9 UV-I 925 W/m 14,4 C 4,8 km/h (1 Bft)
23.06.2016 13:50 28,6 C 28,6 C 43 % 1019,3 hPa 0,0 mm 5,1 km/h (1 Bft) NW 321 1 min 0,000 mm 7,9 UV-I 921 W/m 14,8 C 8,0 km/h (2 Bft)
23.06.2016 13:51 28,7 C 28,7 C 41 % 1019,3 hPa 0,0 mm 6,2 km/h (2 Bft) N 360 1 min 0,000 mm 7,9 UV-I 925 W/m 14,1 C 9,7 km/h (2 Bft)
23.06.2016 13:52 28,7 C 28,7 C 41 % 1019,3 hPa 0,0 mm 4,7 km/h (1 Bft) N 360 1 min 0,000 mm 7,9 UV-I 925 W/m 14,1 C 6,4 km/h (2 Bft)
23.06.2016 13:53 28,7 C 28,7 C 41 % 1019,2 hPa 0,0 mm 7,0 km/h (2 Bft) N 355 1 min 0,000 mm 7,9 UV-I 923 W/m 14,1 C 12,9 km/h (3 Bft)
23.06.2016 13:54 28,8 C 28,8 C 45 % 1019,2 hPa 0,0 mm 5,8 km/h (2 Bft) N 5 1 min 0,000 mm 7,9 UV-I 923 W/m 15,7 C 8,0 km/h (2 Bft)
23.06.2016 13:55 28,8 C 28,8 C 42 % 1019,2 hPa 0,0 mm 6,6 km/h (2 Bft) N 360 1 min 0,000 mm 7,8 UV-I 921 W/m 14,6 C 9,7 km/h (2 Bft)
23.06.2016 13:56 28,8 C 28,9 C 43 % 1019,2 hPa 0,0 mm 5,6 km/h (1 Bft) NO 54 1 min 0,000 mm 7,8 UV-I 921 W/m 15,0 C 9,7 km/h (2 Bft)
23.06.2016 13:57 28,8 C 28,8 C 41 % 1019,2 hPa 0,0 mm 2,0 km/h (1 Bft) N 355 1 min 0,000 mm 7,8 UV-I 921 W/m 14,2 C 3,2 km/h (1 Bft)
23.06.2016 13:58 28,8 C 28,8 C 42 % 1019,2 hPa 0,0 mm 3,5 km/h (1 Bft) NW 318 1 min 0,000 mm 7,8 UV-I 919 W/m 14,6 C 4,8 km/h (1 Bft)
23.06.2016 13:59 28,7 C 28,8 C 42 % 1019,2 hPa 0,0 mm 4,1 km/h (1 Bft) N-NW 330 1 min 0,000 mm 7,8 UV-I 921 W/m 14,5 C 6,4 km/h (2 Bft)
23.06.2016 14:00 28,6 C 28,7 C 44 % 1019,2 hPa 0,0 mm 3,2 km/h (1 Bft) N-NW 335 1 min 0,635 mm 7,8 UV-I 923 W/m 15,1 C 6,4 km/h (2 Bft)
23.06.2016 14:01 28,7 C 28,7 C 42 % 1019,1 hPa 0,0 mm 4,2 km/h (1 Bft) N-NW 344 1 min 0,000 mm 7,8 UV-I 919 W/m 14,5 C 6,4 km/h (2 Bft)
23.06.2016 14:02 28,7 C 28,7 C 39 % 1019,1 hPa 0,0 mm 2,3 km/h (1 Bft) W-NW 301 1 min 0,000 mm 7,8 UV-I 918 W/m 13,4 C 4,8 km/h (1 Bft)
23.06.2016 14:03 28,7 C 28,7 C 42 % 1019,1 hPa 0,0 mm 7,4 km/h (2 Bft) N-NO 20 1 min 0,000 mm 7,8 UV-I 916 W/m 14,5 C 9,7 km/h (2 Bft)
23.06.2016 14:04 28,7 C 28,7 C 38 % 1019,2 hPa 0,0 mm 4,7 km/h (1 Bft) NO 34 1 min 0,000 mm 7,8 UV-I 916 W/m 13,0 C 6,4 km/h (2 Bft)
23.06.2016 14:05 28,8 C 28,8 C 38 % 1019,2 hPa 0,0 mm 5,6 km/h (1 Bft) O-NO 63 1 min 0,000 mm 7,8 UV-I 916 W/m 13,0 C 9,7 km/h (2 Bft)
23.06.2016 14:06 28,7 C 28,8 C 39 % 1019,2 hPa 0,0 mm 5,7 km/h (1 Bft) O 84 1 min 0,000 mm 7,8 UV-I 914 W/m 13,4 C 9,7 km/h (2 Bft)
23.06.2016 14:07 28,6 C 28,7 C 38 % 1019,1 hPa 0,0 mm 6,4 km/h (2 Bft) O-NO 71 1 min 0,000 mm 7,7 UV-I 916 W/m 12,9 C 11,3 km/h (2 Bft)
23.06.2016 14:08 28,6 C 28,6 C 42 % 1019,1 hPa 0,0 mm 5,9 km/h (2 Bft) N 350 1 min 0,000 mm 7,8 UV-I 916 W/m 14,4 C 8,0 km/h (2 Bft)
23.06.2016 14:09 28,7 C 28,7 C 39 % 1019,1 hPa 0,0 mm 5,6 km/h (1 Bft) N 5 1 min 0,000 mm 7,7 UV-I 916 W/m 13,4 C 8,0 km/h (2 Bft)
23.06.2016 14:10 28,8 C 28,8 C 40 % 1019,1 hPa 0,0 mm 2,3 km/h (1 Bft) O 86 1 min 0,000 mm 7,7 UV-I 914 W/m 13,8 C 4,8 km/h (1 Bft)
23.06.2016 14:11 28,8 C 28,8 C 40 % 1019,1 hPa 0,0 mm 3,1 km/h (1 Bft) NO 43 1 min 0,000 mm 7,7 UV-I 912 W/m 13,8 C 6,4 km/h (2 Bft)
23.06.2016 14:12 28,7 C 28,8 C 39 % 1019,1 hPa 0,0 mm 3,6 km/h (1 Bft) N-NW 334 1 min 0,000 mm 7,7 UV-I 912 W/m 13,4 C 4,8 km/h (1 Bft)
23.06.2016 14:13 28,8 C 28,8 C 42 % 1019,1 hPa 0,0 mm 3,2 km/h (1 Bft) N-NO 13 1 min 0,000 mm 7,7 UV-I 907 W/m 14,6 C 6,4 km/h (2 Bft)
23.06.2016 14:14 28,8 C 28,8 C 39 % 1019,1 hPa 0,0 mm 4,3 km/h (1 Bft) N-NW 348 1 min 0,000 mm 7,6 UV-I 909 W/m 13,4 C 4,8 km/h (1 Bft)
23.06.2016 14:15 29,0 C 29,0 C 45 % 1019,0 hPa 0,0 mm 4,5 km/h (1 Bft) N 355 1 min 0,000 mm 7,6 UV-I 909 W/m 15,8 C 8,0 km/h (2 Bft)
23.06.2016 14:16 29,1 C 29,1 C 41 % 1019,1 hPa 0,0 mm 6,6 km/h (2 Bft) N 9 1 min 0,000 mm 7,6 UV-I 907 W/m 14,5 C 9,7 km/h (2 Bft)
23.06.2016 14:17 29,2 C 29,2 C 41 % 1019,0 hPa 0,0 mm 5,8 km/h (2 Bft) N 355 1 min 0,000 mm 7,6 UV-I 905 W/m 14,6 C 8,0 km/h (2 Bft)
23.06.2016 14:18 29,2 C 29,2 C 41 % 1019,1 hPa 0,0 mm 4,3 km/h (1 Bft) O-NO 64 1 min 0,000 mm 7,6 UV-I 909 W/m 14,6 C 6,4 km/h (2 Bft)
23.06.2016 14:19 29,2 C 29,2 C 38 % 1019,0 hPa 0,0 mm 2,3 km/h (1 Bft) NW 319 1 min 0,000 mm 7,6 UV-I 907 W/m 13,4 C 4,8 km/h (1 Bft)
23.06.2016 14:20 29,1 C 29,2 C 38 % 1019,1 hPa 0,0 mm 3,7 km/h (1 Bft) N-NW 338 1 min 0,000 mm 7,6 UV-I 907 W/m 13,3 C 6,4 km/h (2 Bft)
23.06.2016 14:21 29,1 C 29,1 C 39 % 1019,1 hPa 0,0 mm 7,8 km/h (2 Bft) N-NW 335 1 min 0,000 mm 7,6 UV-I 905 W/m 13,7 C 14,5 km/h (3 Bft)
23.06.2016 14:22 29,0 C 29,1 C 38 % 1019,0 hPa 0,0 mm 4,4 km/h (1 Bft) NW 310 1 min 0,000 mm 7,6 UV-I 905 W/m 13,2 C 4,8 km/h (1 Bft)
23.06.2016 14:23 29,1 C 29,1 C 38 % 1019,0 hPa 0,0 mm 5,6 km/h (1 Bft) N-NO 17 1 min 0,000 mm 7,6 UV-I 904 W/m 13,3 C 8,0 km/h (2 Bft)
23.06.2016 14:24 29,0 C 29,1 C 40 % 1019,0 hPa 0,0 mm 2,7 km/h (1 Bft) N 355 1 min 0,000 mm 7,6 UV-I 902 W/m 14,0 C 4,8 km/h (1 Bft)
23.06.2016 14:25 29,1 C 29,1 C 39 % 1019,0 hPa 0,0 mm 4,2 km/h (1 Bft) N 351 1 min 0,000 mm 7,6 UV-I 904 W/m 13,7 C 4,8 km/h (1 Bft)
23.06.2016 14:26 29,1 C 29,1 C 37 % 1019,0 hPa 0,0 mm 4,3 km/h (1 Bft) N 360 1 min 0,000 mm 7,5 UV-I 902 W/m 12,9 C 6,4 km/h (2 Bft)
23.06.2016 14:27 29,1 C 29,1 C 36 % 1019,0 hPa 0,0 mm 3,6 km/h (1 Bft) N-NW 342 1 min 0,000 mm 7,5 UV-I 900 W/m 12,5 C 4,8 km/h (1 Bft)
23.06.2016 14:28 29,0 C 29,1 C 39 % 1019,0 hPa 0,0 mm 1,8 km/h (1 Bft) N-NW 342 1 min 0,000 mm 7,5 UV-I 898 W/m 13,6 C 3,2 km/h (1 Bft)
23.06.2016 14:29 28,8 C 29,0 C 43 % 1019,0 hPa 0,0 mm 1,5 km/h (1 Bft) N 360 1 min 0,000 mm 7,5 UV-I 895 W/m 15,0 C 1,6 km/h (1 Bft)
23.06.2016 14:30 28,8 C 28,8 C 43 % 1019,0 hPa 0,0 mm 5,0 km/h (1 Bft) O-NO 65 1 min 0,000 mm 7,5 UV-I 895 W/m 15,0 C 8,0 km/h (2 Bft)
23.06.2016 14:31 28,8 C 28,8 C 42 % 1019,0 hPa 0,0 mm 4,9 km/h (1 Bft) N-NO 33 1 min 0,000 mm 7,5 UV-I 895 W/m 14,6 C 6,4 km/h (2 Bft)
23.06.2016 14:32 28,9 C 28,9 C 36 % 1018,9 hPa 0,0 mm 4,3 km/h (1 Bft) NO 50 1 min 0,000 mm 7,5 UV-I 896 W/m 12,3 C 6,4 km/h (2 Bft)
23.06.2016 14:33 28,9 C 28,9 C 35 % 1019,0 hPa 0,0 mm 4,2 km/h (1 Bft) NO 39 1 min 0,000 mm 7,4 UV-I 895 W/m 11,9 C 6,4 km/h (2 Bft)
23.06.2016 14:34 28,9 C 28,9 C 36 % 1019,0 hPa 0,0 mm 3,7 km/h (1 Bft) N-NO 31 1 min 0,000 mm 7,4 UV-I 893 W/m 12,3 C 6,4 km/h (2 Bft)
23.06.2016 14:35 28,8 C 28,9 C 39 % 1018,9 hPa 0,0 mm 5,1 km/h (1 Bft) N-NW 342 1 min 0,000 mm 7,4 UV-I 891 W/m 13,4 C 6,4 km/h (2 Bft)
23.06.2016 14:36 28,8 C 28,8 C 42 % 1018,9 hPa 0,0 mm 4,1 km/h (1 Bft) N 350 1 min 0,000 mm 7,4 UV-I 889 W/m 14,6 C 6,4 km/h (2 Bft)
23.06.2016 14:37 29,1 C 29,1 C 38 % 1018,9 hPa 0,0 mm 4,0 km/h (1 Bft) N-NW 332 1 min 0,000 mm 7,4 UV-I 886 W/m 13,3 C 4,8 km/h (1 Bft)
23.06.2016 14:38 29,2 C 29,2 C 37 % 1019,0 hPa 0,0 mm 3,2 km/h (1 Bft) N 360 1 min 0,000 mm 7,4 UV-I 886 W/m 13,0 C 4,8 km/h (1 Bft)
23.06.2016 14:39 29,3 C 29,3 C 38 % 1018,9 hPa 0,0 mm 5,3 km/h (1 Bft) NO 46 1 min 0,000 mm 7,3 UV-I 886 W/m 13,5 C 6,4 km/h (2 Bft)
23.06.2016 14:40 29,3 C 29,3 C 37 % 1018,9 hPa 0,0 mm 5,1 km/h (1 Bft) N 355 1 min 0,000 mm 7,3 UV-I 886 W/m 13,1 C 6,4 km/h (2 Bft)
23.06.2016 14:42 29,2 C 29,3 C 41 % 1018,9 hPa 0,0 mm 3,6 km/h (1 Bft) N-NW 344 2 min 0,000 mm 7,3 UV-I 881 W/m 14,6 C 6,4 km/h (2 Bft)
23.06.2016 14:43 29,2 C 29,2 C 39 % 1019,0 hPa 0,0 mm 3,2 km/h (1 Bft) NW 322 1 min 0,000 mm 7,3 UV-I 881 W/m 13,8 C 6,4 km/h (2 Bft)
23.06.2016 14:44 29,3 C 29,3 C 37 % 1018,9 hPa 0,0 mm 6,4 km/h (2 Bft) N 360 1 min 0,000 mm 7,2 UV-I 879 W/m 13,1 C 12,9 km/h (3 Bft)
23.06.2016 14:45 29,3 C 29,3 C 39 % 1018,9 hPa 0,0 mm 8,9 km/h (2 Bft) N 355 1 min 0,000 mm 7,2 UV-I 875 W/m 13,9 C 12,9 km/h (3 Bft)
23.06.2016 14:46 29,4 C 29,4 C 40 % 1019,0 hPa 0,0 mm 7,0 km/h (2 Bft) N 5 1 min 0,000 mm 7,2 UV-I 875 W/m 14,4 C 8,0 km/h (2 Bft)
23.06.2016 14:47 29,3 C 29,4 C 40 % 1018,9 hPa 0,0 mm 5,7 km/h (1 Bft) O 98 1 min 0,000 mm 7,2 UV-I 874 W/m 14,3 C 8,0 km/h (2 Bft)
23.06.2016 14:48 29,2 C 29,3 C 44 % 1018,9 hPa 0,0 mm 7,2 km/h (2 Bft) O-NO 65 1 min 0,000 mm 7,2 UV-I 868 W/m 15,7 C 14,5 km/h (3 Bft)
23.06.2016 14:49 29,1 C 29,2 C 42 % 1018,9 hPa 0,0 mm 10,9 km/h (2 Bft) W-NW 296 1 min 0,000 mm 7,1 UV-I 868 W/m 14,9 C 19,3 km/h (3 Bft)
23.06.2016 14:50 29,1 C 29,1 C 42 % 1018,9 hPa 0,0 mm 7,9 km/h (2 Bft) O-SO 103 1 min 0,000 mm 7,1 UV-I 867 W/m 14,9 C 9,7 km/h (2 Bft)
23.06.2016 14:51 29,1 C 29,1 C 39 % 1018,9 hPa 0,0 mm 4,6 km/h (1 Bft) N 9 1 min 0,000 mm 7,1 UV-I 867 W/m 13,7 C 6,4 km/h (2 Bft)
23.06.2016 14:52 29,1 C 29,1 C 40 % 1018,9 hPa 0,0 mm 3,3 km/h (1 Bft) NW 314 1 min 0,000 mm 7,1 UV-I 867 W/m 14,1 C 6,4 km/h (2 Bft)
23.06.2016 14:53 29,1 C 29,1 C 39 % 1018,8 hPa 0,0 mm 7,1 km/h (2 Bft) O-SO 114 1 min 0,000 mm 7,1 UV-I 865 W/m 13,7 C 11,3 km/h (2 Bft)
23.06.2016 14:54 29,0 C 29,1 C 39 % 1018,9 hPa 0,0 mm 6,5 km/h (2 Bft) O-NO 67 1 min 0,000 mm 7,1 UV-I 865 W/m 13,6 C 11,3 km/h (2 Bft)
23.06.2016 14:55 28,9 C 29,0 C 40 % 1018,9 hPa 0,0 mm 4,5 km/h (1 Bft) NO 39 1 min 0,000 mm 7,0 UV-I 863 W/m 13,9 C 6,4 km/h (2 Bft)
23.06.2016 14:56 28,9 C 28,9 C 40 % 1018,9 hPa 0,0 mm 4,8 km/h (1 Bft) N-NO 21 1 min 0,000 mm 7,0 UV-I 863 W/m 13,9 C 8,0 km/h (2 Bft)
23.06.2016 14:57 28,9 C 28,9 C 40 % 1018,9 hPa 0,0 mm 5,0 km/h (1 Bft) N 5 1 min 0,000 mm 7,0 UV-I 863 W/m 13,9 C 8,0 km/h (2 Bft)
23.06.2016 14:58 29,1 C 29,1 C 40 % 1018,9 hPa 0,0 mm 6,1 km/h (2 Bft) NW 322 1 min 0,000 mm 7,0 UV-I 858 W/m 14,1 C 8,0 km/h (2 Bft)
23.06.2016 14:59 29,1 C 29,1 C 40 % 1018,8 hPa 0,0 mm 8,0 km/h (2 Bft) NW 322 1 min 0,000 mm 6,9 UV-I 856 W/m 14,1 C 8,0 km/h (2 Bft)
23.06.2016 15:02 29,2 C 29,2 C 39 % 1018,8 hPa 0,0 mm 4,8 km/h (1 Bft) N 355 3 min 0,000 mm 6,9 UV-I 856 W/m 13,8 C 4,8 km/h (1 Bft)
23.06.2016 15:06 29,1 C 29,2 C 42 % 1018,9 hPa 0,0 mm 1,6 km/h (1 Bft) O-NO 60 4 min 0,635 mm 6,8 UV-I 846 W/m 14,9 C 1,6 km/h (1 Bft)
23.06.2016 15:17 29,1 C 29,1 C 40 % 1018,9 hPa 0,0 mm 3,0 km/h (1 Bft) O-NO 58 5 min 0,000 mm 6,6 UV-I 833 W/m 14,1 C 4,8 km/h (1 Bft)
23.06.2016 15:18 29,2 C 29,2 C 43 % 1018,9 hPa 0,0 mm 2,4 km/h (1 Bft) N-NW 336 1 min 0,000 mm 6,6 UV-I 831 W/m 15,3 C 4,8 km/h (1 Bft)
23.06.2016 15:19 29,2 C 29,2 C 42 % 1018,9 hPa 0,0 mm 6,0 km/h (2 Bft) N-NO 13 1 min 0,000 mm 6,6 UV-I 830 W/m 14,9 C 8,0 km/h (2 Bft)
23.06.2016 15:20 29,3 C 29,3 C 37 % 1018,8 hPa 0,0 mm 4,6 km/h (1 Bft) N-NO 30 1 min 0,000 mm 6,6 UV-I 830 W/m 13,1 C 6,4 km/h (2 Bft)
23.06.2016 15:21 29,3 C 29,3 C 39 % 1018,8 hPa 0,0 mm 6,8 km/h (2 Bft) O-NO 61 1 min 0,000 mm 6,5 UV-I 826 W/m 13,9 C 9,7 km/h (2 Bft)
23.06.2016 15:22 29,2 C 29,3 C 39 % 1018,9 hPa 0,0 mm 6,1 km/h (2 Bft) N-NO 30 1 min 0,000 mm 6,5 UV-I 824 W/m 13,8 C 8,0 km/h (2 Bft)
23.06.2016 15:23 29,2 C 29,2 C 39 % 1018,8 hPa 0,0 mm 5,5 km/h (1 Bft) NO 53 1 min 0,000 mm 6,5 UV-I 823 W/m 13,8 C 6,4 km/h (2 Bft)
23.06.2016 15:24 29,2 C 29,2 C 39 % 1018,9 hPa 0,0 mm 3,3 km/h (1 Bft) NO 55 1 min 0,000 mm 6,5 UV-I 821 W/m 13,8 C 6,4 km/h (2 Bft)
23.06.2016 15:25 29,1 C 29,2 C 40 % 1018,8 hPa 0,0 mm 3,1 km/h (1 Bft) O-NO 73 1 min 0,000 mm 6,4 UV-I 819 W/m 14,1 C 4,8 km/h (1 Bft)
23.06.2016 15:26 29,1 C 29,1 C 43 % 1018,8 hPa 0,0 mm 6,3 km/h (2 Bft) O-NO 76 1 min 0,000 mm 6,4 UV-I 817 W/m 15,2 C 11,3 km/h (2 Bft)
23.06.2016 15:27 29,0 C 29,1 C 40 % 1018,8 hPa 0,0 mm 7,2 km/h (2 Bft) O-NO 76 1 min 0,000 mm 6,4 UV-I 816 W/m 14,0 C 8,0 km/h (2 Bft)
23.06.2016 15:28 29,0 C 29,0 C 46 % 1018,8 hPa 0,0 mm 5,7 km/h (1 Bft) N-NO 31 1 min 0,000 mm 6,4 UV-I 814 W/m 16,2 C 6,4 km/h (2 Bft)
23.06.2016 15:29 28,9 C 29,0 C 38 % 1018,8 hPa 0,0 mm 3,8 km/h (1 Bft) W-NW 295 1 min 0,000 mm 6,4 UV-I 814 W/m 13,1 C 6,4 km/h (2 Bft)
23.06.2016 15:30 29,1 C 29,1 C 37 % 1018,8 hPa 0,0 mm 5,3 km/h (1 Bft) N-NW 330 1 min 0,000 mm 6,4 UV-I 821 W/m 12,9 C 11,3 km/h (2 Bft)
23.06.2016 15:31 29,1 C 29,1 C 38 % 1018,8 hPa 0,0 mm 7,5 km/h (2 Bft) N 355 1 min 0,000 mm 6,3 UV-I 817 W/m 13,3 C 11,3 km/h (2 Bft)
23.06.2016 15:32 29,2 C 29,2 C 39 % 1018,8 hPa 0,0 mm 7,6 km/h (2 Bft) NO 51 1 min 0,000 mm 6,3 UV-I 812 W/m 13,8 C 9,7 km/h (2 Bft)
23.06.2016 15:33 29,2 C 29,2 C 37 % 1018,7 hPa 0,0 mm 4,1 km/h (1 Bft) O-NO 65 1 min 0,000 mm 6,3 UV-I 810 W/m 13,0 C 8,0 km/h (2 Bft)
23.06.2016 15:34 29,2 C 29,2 C 45 % 1018,7 hPa 0,0 mm 6,8 km/h (2 Bft) O 79 1 min 0,000 mm 6,3 UV-I 807 W/m 16,0 C 8,0 km/h (2 Bft)
23.06.2016 15:35 29,1 C 29,2 C 38 % 1018,8 hPa 0,0 mm 7,5 km/h (2 Bft) NO 38 1 min 0,000 mm 6,2 UV-I 803 W/m 13,3 C 11,3 km/h (2 Bft)
23.06.2016 15:36 29,1 C 29,1 C 42 % 1018,7 hPa 0,0 mm 5,0 km/h (1 Bft) N-NO 17 1 min 0,000 mm 6,2 UV-I 803 W/m 14,9 C 8,0 km/h (2 Bft)
23.06.2016 15:37 29,1 C 29,1 C 44 % 1018,8 hPa 0,0 mm 5,3 km/h (1 Bft) N-NW 339 1 min 0,000 mm 6,2 UV-I 802 W/m 15,6 C 6,4 km/h (2 Bft)
23.06.2016 15:38 29,2 C 29,2 C 38 % 1018,8 hPa 0,0 mm 9,1 km/h (2 Bft) N 9 1 min 0,000 mm 6,2 UV-I 802 W/m 13,4 C 14,5 km/h (3 Bft)
23.06.2016 15:39 29,3 C 29,3 C 39 % 1018,8 hPa 0,0 mm 7,5 km/h (2 Bft) N 9 1 min 0,000 mm 6,2 UV-I 803 W/m 13,9 C 11,3 km/h (2 Bft)
23.06.2016 15:40 29,3 C 29,4 C 39 % 1018,8 hPa 0,0 mm 8,5 km/h (2 Bft) N 360 1 min 0,000 mm 6,2 UV-I 803 W/m 13,9 C 14,5 km/h (3 Bft)
23.06.2016 15:41 29,3 C 29,3 C 37 % 1018,8 hPa 0,0 mm 5,2 km/h (1 Bft) NW 321 1 min 0,000 mm 6,1 UV-I 800 W/m 13,1 C 8,0 km/h (2 Bft)
23.06.2016 15:42 29,2 C 29,3 C 36 % 1018,8 hPa 0,0 mm 3,8 km/h (1 Bft) NW 312 1 min 0,000 mm 6,1 UV-I 798 W/m 12,6 C 6,4 km/h (2 Bft)
23.06.2016 15:43 29,2 C 29,2 C 35 % 1018,7 hPa 0,0 mm 4,8 km/h (1 Bft) N-NO 15 1 min 0,000 mm 6,1 UV-I 796 W/m 12,1 C 6,4 km/h (2 Bft)
23.06.2016 15:44 29,2 C 29,2 C 39 % 1018,7 hPa 0,0 mm 11,3 km/h (2 Bft) O-NO 65 1 min 0,000 mm 6,0 UV-I 795 W/m 13,8 C 16,1 km/h (3 Bft)
23.06.2016 15:45 29,2 C 29,2 C 37 % 1018,8 hPa 0,0 mm 8,8 km/h (2 Bft) NO 39 1 min 0,000 mm 6,0 UV-I 791 W/m 13,0 C 14,5 km/h (3 Bft)
23.06.2016 15:46 29,2 C 29,2 C 36 % 1018,7 hPa 0,0 mm 6,3 km/h (2 Bft) NO 50 1 min 0,000 mm 6,0 UV-I 788 W/m 12,6 C 8,0 km/h (2 Bft)
23.06.2016 15:47 29,2 C 29,2 C 33 % 1018,7 hPa 0,0 mm 3,8 km/h (1 Bft) NO 36 1 min 0,000 mm 6,0 UV-I 789 W/m 11,3 C 4,8 km/h (1 Bft)
23.06.2016 15:48 29,1 C 29,2 C 33 % 1018,7 hPa 0,0 mm 4,3 km/h (1 Bft) N 9 1 min 0,000 mm 5,9 UV-I 788 W/m 11,2 C 8,0 km/h (2 Bft)
23.06.2016 15:49 29,1 C 29,1 C 37 % 1018,7 hPa 0,0 mm 8,7 km/h (2 Bft) N-NW 330 1 min 0,000 mm 5,9 UV-I 789 W/m 12,9 C 14,5 km/h (3 Bft)
23.06.2016 15:50 29,1 C 29,1 C 35 % 1018,7 hPa 0,0 mm 6,9 km/h (2 Bft) N 349 1 min 0,000 mm 5,9 UV-I 788 W/m 12,1 C 9,7 km/h (2 Bft)
23.06.2016 15:51 29,1 C 29,1 C 36 % 1018,7 hPa 0,0 mm 5,5 km/h (1 Bft) O-NO 76 1 min 0,000 mm 5,9 UV-I 788 W/m 12,5 C 8,0 km/h (2 Bft)
23.06.2016 15:52 29,2 C 29,2 C 35 % 1018,7 hPa 0,0 mm 2,8 km/h (1 Bft) N 360 1 min 0,000 mm 5,9 UV-I 784 W/m 12,1 C 6,4 km/h (2 Bft)
23.06.2016 15:53 29,2 C 29,2 C 35 % 1018,7 hPa 0,0 mm 1,4 km/h (1 Bft) N 360 1 min 0,000 mm 5,8 UV-I 780 W/m 12,1 C 1,6 km/h (1 Bft)
23.06.2016 15:54 29,3 C 29,3 C 35 % 1018,7 hPa 0,0 mm 4,7 km/h (1 Bft) N-NO 15 1 min 0,000 mm 5,8 UV-I 775 W/m 12,2 C 9,7 km/h (2 Bft)
23.06.2016 15:55 29,2 C 29,3 C 39 % 1018,7 hPa 0,0 mm 6,8 km/h (2 Bft) O 82 1 min 0,000 mm 5,8 UV-I 773 W/m 13,8 C 11,3 km/h (2 Bft)
23.06.2016 15:56 29,2 C 29,2 C 34 % 1018,7 hPa 0,0 mm 4,5 km/h (1 Bft) NO 49 1 min 0,000 mm 5,7 UV-I 773 W/m 11,7 C 11,3 km/h (2 Bft)
23.06.2016 15:57 29,2 C 29,2 C 33 % 1018,7 hPa 0,0 mm 2,4 km/h (1 Bft) N 355 1 min 0,000 mm 5,7 UV-I 772 W/m 11,3 C 4,8 km/h (1 Bft)
23.06.2016 15:58 29,2 C 29,2 C 33 % 1018,7 hPa 0,0 mm 2,3 km/h (1 Bft) N 5 1 min 0,000 mm 5,7 UV-I 768 W/m 11,3 C 6,4 km/h (2 Bft)
23.06.2016 15:59 29,2 C 29,2 C 36 % 1018,7 hPa 0,0 mm 6,8 km/h (2 Bft) N-NO 31 1 min 0,000 mm 5,7 UV-I 766 W/m 12,6 C 9,7 km/h (2 Bft)
23.06.2016 16:00 29,3 C 29,3 C 38 % 1018,6 hPa 0,0 mm 5,1 km/h (1 Bft) NO 36 1 min 0,000 mm 5,6 UV-I 766 W/m 13,5 C 8,0 km/h (2 Bft)
23.06.2016 16:01 29,4 C 29,4 C 35 % 1018,7 hPa 0,0 mm 6,3 km/h (2 Bft) N-NW 327 1 min 0,584 mm 5,6 UV-I 766 W/m 12,3 C 8,0 km/h (2 Bft)
23.06.2016 16:02 29,4 C 29,4 C 36 % 1018,7 hPa 0,0 mm 3,4 km/h (1 Bft) N 5 1 min 0,000 mm 5,6 UV-I 765 W/m 12,7 C 4,8 km/h (1 Bft)
23.06.2016 16:03 29,3 C 29,4 C 32 % 1018,6 hPa 0,0 mm 11,5 km/h (2 Bft) W-NW 296 1 min 0,000 mm 5,6 UV-I 763 W/m 10,9 C 16,1 km/h (3 Bft)
23.06.2016 16:04 29,3 C 29,4 C 34 % 1018,6 hPa 0,0 mm 9,1 km/h (2 Bft) N-NW 336 1 min 0,000 mm 5,6 UV-I 761 W/m 11,8 C 14,5 km/h (3 Bft)
23.06.2016 16:05 29,3 C 29,3 C 33 % 1018,6 hPa 0,0 mm 8,0 km/h (2 Bft) NW 315 1 min 0,000 mm 5,6 UV-I 754 W/m 11,3 C 12,9 km/h (3 Bft)
23.06.2016 16:07 29,4 C 29,4 C 35 % 1018,6 hPa 0,0 mm 7,4 km/h (2 Bft) O 88 2 min 0,000 mm 5,5 UV-I 751 W/m 12,3 C 9,7 km/h (2 Bft)
23.06.2016 16:08 29,4 C 29,5 C 41 % 1018,6 hPa 0,0 mm 4,8 km/h (1 Bft) N-NO 16 1 min 0,000 mm 5,5 UV-I 749 W/m 14,7 C 9,7 km/h (2 Bft)
23.06.2016 16:09 29,4 C 29,4 C 33 % 1018,6 hPa 0,0 mm 3,3 km/h (1 Bft) NO 34 1 min 0,000 mm 5,5 UV-I 747 W/m 11,4 C 4,8 km/h (1 Bft)
23.06.2016 16:10 29,3 C 29,4 C 42 % 1018,6 hPa 0,0 mm 3,8 km/h (1 Bft) O-NO 58 1 min 0,000 mm 5,5 UV-I 744 W/m 15,0 C 6,4 km/h (2 Bft)
23.06.2016 16:11 29,4 C 29,4 C 39 % 1018,6 hPa 0,0 mm 4,7 km/h (1 Bft) N-NO 21 1 min 0,000 mm 5,4 UV-I 742 W/m 14,0 C 6,4 km/h (2 Bft)
23.06.2016 16:12 29,4 C 29,4 C 35 % 1018,6 hPa 0,0 mm 6,0 km/h (2 Bft) NO 45 1 min 0,000 mm 5,4 UV-I 742 W/m 12,3 C 8,0 km/h (2 Bft)
23.06.2016 16:13 29,4 C 29,5 C 33 % 1018,6 hPa 0,0 mm 4,0 km/h (1 Bft) N-NO 16 1 min 0,000 mm 5,4 UV-I 740 W/m 11,4 C 8,0 km/h (2 Bft)
23.06.2016 16:14 29,4 C 29,4 C 34 % 1018,6 hPa 0,0 mm 4,0 km/h (1 Bft) O-NO 67 1 min 0,000 mm 5,4 UV-I 738 W/m 11,9 C 6,4 km/h (2 Bft)
23.06.2016 16:15 29,3 C 29,4 C 33 % 1018,6 hPa 0,0 mm 3,2 km/h (1 Bft) N-NO 28 1 min 0,000 mm 5,3 UV-I 735 W/m 11,3 C 6,4 km/h (2 Bft)
23.06.2016 16:16 29,2 C 29,3 C 34 % 1018,6 hPa 0,0 mm 4,9 km/h (1 Bft) NO 51 1 min 0,000 mm 5,3 UV-I 729 W/m 11,7 C 8,0 km/h (2 Bft)
23.06.2016 16:17 29,2 C 29,3 C 35 % 1018,6 hPa 0,0 mm 7,0 km/h (2 Bft) N 360 1 min 0,000 mm 5,3 UV-I 719 W/m 12,1 C 8,0 km/h (2 Bft)
23.06.2016 16:18 29,2 C 29,2 C 35 % 1018,5 hPa 0,0 mm 6,7 km/h (2 Bft) N 11 1 min 0,000 mm 5,2 UV-I 719 W/m 12,1 C 9,7 km/h (2 Bft)
23.06.2016 16:19 29,3 C 29,3 C 35 % 1018,5 hPa 0,0 mm 6,3 km/h (2 Bft) N-NO 28 1 min 0,000 mm 4,5 UV-I 719 W/m 12,2 C 8,0 km/h (2 Bft)
23.06.2016 16:20 29,4 C 29,4 C 36 % 1018,5 hPa 0,0 mm 3,2 km/h (1 Bft) NO 45 1 min 0,000 mm 4,6 UV-I 719 W/m 12,7 C 8,0 km/h (2 Bft)
23.06.2016 16:22 29,4 C 29,4 C 36 % 1018,5 hPa 0,0 mm 6,4 km/h (2 Bft) N 355 0 min 0,000 mm 0,0 UV-I 39 W/m 12,7 C 9,7 km/h (2 Bft)
23.06.2016 16:23 29,4 C 29,4 C 37 % 1018,5 hPa 0,0 mm 4,0 km/h (1 Bft) NO 41 0 min 0,000 mm 0,0 UV-I 39 W/m 13,2 C 6,4 km/h (2 Bft)
23.06.2016 16:24 29,3 C 29,4 C 33 % 1018,4 hPa 0,0 mm 4,2 km/h (1 Bft) NO 34 0 min 0,000 mm 0,0 UV-I 39 W/m 11,3 C 8,0 km/h (2 Bft)
23.06.2016 16:25 29,2 C 29,3 C 33 % 1018,4 hPa 0,0 mm 2,1 km/h (1 Bft) N-NO 25 0 min 0,000 mm 0,0 UV-I 39 W/m 11,3 C 4,8 km/h (1 Bft)
23.06.2016 16:26 29,1 C 29,2 C 36 % 1018,4 hPa 0,0 mm 2,7 km/h (1 Bft) W-SW 249 0 min 0,000 mm 0,0 UV-I 39 W/m 12,5 C 4,8 km/h (1 Bft)
23.06.2016 16:27 29,1 C 29,1 C 34 % 1018,4 hPa 0,0 mm 3,6 km/h (1 Bft) NW 313 0 min 0,000 mm 0,0 UV-I 39 W/m 11,6 C 6,4 km/h (2 Bft)
23.06.2016 16:28 29,1 C 29,1 C 36 % 1018,4 hPa 0,0 mm 3,8 km/h (1 Bft) N 355 0 min 0,000 mm 0,0 UV-I 39 W/m 12,5 C 4,8 km/h (1 Bft)
23.06.2016 16:29 29,1 C 29,1 C 35 % 1018,4 hPa 0,0 mm 6,5 km/h (2 Bft) NO 44 0 min 0,000 mm 0,0 UV-I 39 W/m 12,1 C 8,0 km/h (2 Bft)
23.06.2016 16:30 29,1 C 29,1 C 36 % 1018,4 hPa 0,0 mm 5,6 km/h (1 Bft) N-NO 32 0 min 0,000 mm 0,0 UV-I 39 W/m 12,5 C 11,3 km/h (2 Bft)
23.06.2016 16:31 29,1 C 29,1 C 36 % 1018,3 hPa 0,0 mm 4,6 km/h (1 Bft) NO 38 0 min 0,000 mm 0,0 UV-I 39 W/m 12,5 C 6,4 km/h (2 Bft)
23.06.2016 16:32 29,1 C 29,1 C 37 % 1018,3 hPa 0,0 mm 5,9 km/h (2 Bft) N-NW 340 0 min 0,000 mm 0,0 UV-I 39 W/m 12,9 C 8,0 km/h (2 Bft)
23.06.2016 16:33 29,1 C 29,1 C 35 % 1018,3 hPa 0,0 mm 5,8 km/h (2 Bft) N 5 0 min 0,000 mm 0,0 UV-I 39 W/m 12,1 C 11,3 km/h (2 Bft)
23.06.2016 16:34 29,1 C 29,1 C 37 % 1018,3 hPa 0,0 mm 2,2 km/h (1 Bft) N-NO 16 0 min 0,000 mm 0,0 UV-I 39 W/m 12,9 C 4,8 km/h (1 Bft)
23.06.2016 16:35 29,1 C 29,1 C 37 % 1018,2 hPa 0,0 mm 1,9 km/h (1 Bft) NW 304 0 min 0,000 mm 0,0 UV-I 39 W/m 12,9 C 4,8 km/h (1 Bft)
23.06.2016 16:36 29,0 C 29,1 C 36 % 1018,2 hPa 0,0 mm 5,3 km/h (1 Bft) W-NW 292 0 min 0,000 mm 0,0 UV-I 44 W/m 12,4 C 11,3 km/h (2 Bft)
23.06.2016 16:37 29,1 C 29,1 C 39 % 1018,2 hPa 0,0 mm 4,4 km/h (1 Bft) N-NO 31 0 min 0,000 mm 0,0 UV-I 42 W/m 13,7 C 6,4 km/h (2 Bft)
23.06.2016 16:38 29,1 C 29,1 C 39 % 1018,2 hPa 0,0 mm 4,2 km/h (1 Bft) N 9 0 min 0,000 mm 2,1 UV-I 65 W/m 13,7 C 6,4 km/h (2 Bft)
23.06.2016 16:39 29,1 C 29,1 C 36 % 1018,2 hPa 0,0 mm 7,4 km/h (2 Bft) NO 49 0 min 0,000 mm 2,1 UV-I 88 W/m 12,5 C 9,7 km/h (2 Bft)
23.06.2016 16:40 29,1 C 29,1 C 36 % 1018,3 hPa 0,0 mm 5,1 km/h (1 Bft) NO 36 0 min 0,000 mm 2,0 UV-I 39 W/m 12,5 C 8,0 km/h (2 Bft)
23.06.2016 16:41 29,1 C 29,1 C 38 % 1018,1 hPa 0,0 mm 3,2 km/h (1 Bft) N-NO 20 0 min 0,000 mm 0,0 UV-I 47 W/m 13,3 C 4,8 km/h (1 Bft)
23.06.2016 16:42 29,0 C 29,1 C 40 % 1018,1 hPa 0,0 mm 3,8 km/h (1 Bft) O-NO 67 0 min 0,000 mm 0,0 UV-I 40 W/m 14,0 C 4,8 km/h (1 Bft)
23.06.2016 16:43 29,1 C 29,1 C 38 % 1018,1 hPa 0,0 mm 4,0 km/h (1 Bft) NO 38 0 min 0,000 mm 0,0 UV-I 42 W/m 13,3 C 6,4 km/h (2 Bft)
23.06.2016 16:44 29,1 C 29,1 C 38 % 1018,2 hPa 0,0 mm 5,3 km/h (1 Bft) W-NW 296 0 min 0,000 mm 0,0 UV-I 39 W/m 13,3 C 11,3 km/h (2 Bft)
23.06.2016 16:45 29,1 C 29,1 C 34 % 1018,1 hPa 0,0 mm 3,6 km/h (1 Bft) NW 323 0 min 0,000 mm 0,0 UV-I 39 W/m 11,6 C 6,4 km/h (2 Bft)
23.06.2016 16:46 29,1 C 29,1 C 37 % 1018,1 hPa 0,0 mm 7,7 km/h (2 Bft) O 91 0 min 0,000 mm 0,0 UV-I 39 W/m 12,9 C 16,1 km/h (3 Bft)
23.06.2016 16:47 29,0 C 29,1 C 41 % 1018,2 hPa 0,0 mm 5,2 km/h (1 Bft) NO 44 0 min 0,000 mm 0,0 UV-I 40 W/m 14,4 C 8,0 km/h (2 Bft)
23.06.2016 16:48 29,0 C 29,0 C 39 % 1018,1 hPa 0,0 mm 5,3 km/h (1 Bft) NO 44 0 min 0,000 mm 0,0 UV-I 37 W/m 13,6 C 8,0 km/h (2 Bft)
23.06.2016 16:49 29,0 C 29,0 C 36 % 1018,2 hPa 0,0 mm 7,0 km/h (2 Bft) N-NO 18 0 min 0,000 mm 0,0 UV-I 37 W/m 12,4 C 11,3 km/h (2 Bft)
23.06.2016 16:50 29,0 C 29,0 C 36 % 1018,1 hPa 0,0 mm 5,7 km/h (1 Bft) NO 38 0 min 0,000 mm 0,0 UV-I 37 W/m 12,4 C 8,0 km/h (2 Bft)
23.06.2016 16:51 29,1 C 29,1 C 37 % 1018,1 hPa 0,0 mm 5,6 km/h (1 Bft) N-NO 23 0 min 0,000 mm 0,0 UV-I 37 W/m 12,9 C 8,0 km/h (2 Bft)
23.06.2016 16:52 29,1 C 29,1 C 35 % 1018,1 hPa 0,0 mm 6,0 km/h (2 Bft) O-SO 102 0 min 0,000 mm 0,0 UV-I 37 W/m 12,1 C 8,0 km/h (2 Bft)
23.06.2016 16:53 29,1 C 29,1 C 37 % 1018,1 hPa 0,0 mm 4,3 km/h (1 Bft) N-NW 330 0 min 0,000 mm 0,0 UV-I 37 W/m 12,9 C 6,4 km/h (2 Bft)
23.06.2016 16:54 29,1 C 29,1 C 38 % 1018,1 hPa 0,0 mm 7,3 km/h (2 Bft) NO 54 0 min 0,000 mm 0,0 UV-I 37 W/m 13,3 C 11,3 km/h (2 Bft)
23.06.2016 16:55 29,1 C 29,1 C 36 % 1018,1 hPa 0,0 mm 7,2 km/h (2 Bft) O-NO 59 0 min 0,000 mm 0,0 UV-I 37 W/m 12,5 C 11,3 km/h (2 Bft)
23.06.2016 16:56 29,0 C 29,1 C 35 % 1018,2 hPa 0,0 mm 4,2 km/h (1 Bft) N-NO 12 0 min 0,000 mm 0,0 UV-I 37 W/m 12,0 C 6,4 km/h (2 Bft)
23.06.2016 16:57 29,0 C 29,0 C 37 % 1018,1 hPa 0,0 mm 3,2 km/h (1 Bft) NO 55 0 min 0,000 mm 0,0 UV-I 37 W/m 12,8 C 4,8 km/h (1 Bft)
23.06.2016 16:58 28,9 C 29,0 C 36 % 1018,1 hPa 0,0 mm 1,6 km/h (1 Bft) N-NW 330 0 min 0,000 mm 0,0 UV-I 37 W/m 12,3 C 3,2 km/h (1 Bft)
23.06.2016 16:59 28,9 C 29,0 C 38 % 1018,1 hPa 0,0 mm 2,3 km/h (1 Bft) N-NO 27 0 min 0,000 mm 0,0 UV-I 37 W/m 13,1 C 3,2 km/h (1 Bft)
23.06.2016 17:00 28,8 C 28,9 C 37 % 1018,1 hPa 0,0 mm 2,7 km/h (1 Bft) N-NO 17 0 min 0,228 mm 0,0 UV-I 37 W/m 12,6 C 4,8 km/h (1 Bft)
23.06.2016 17:01 28,9 C 28,9 C 39 % 1018,0 hPa 0,0 mm 3,6 km/h (1 Bft) N-NO 13 0 min 0,000 mm 0,0 UV-I 37 W/m 13,5 C 4,8 km/h (1 Bft)
23.06.2016 17:02 28,9 C 28,9 C 40 % 1018,0 hPa 0,0 mm 6,8 km/h (2 Bft) N-NW 331 0 min 0,000 mm 0,0 UV-I 37 W/m 13,9 C 8,0 km/h (2 Bft)
23.06.2016 17:03 29,0 C 29,0 C 39 % 1018,0 hPa 0,0 mm 5,8 km/h (2 Bft) O-NO 65 0 min 0,000 mm 0,0 UV-I 37 W/m 13,6 C 8,0 km/h (2 Bft)
23.06.2016 17:04 29,0 C 29,0 C 39 % 1018,0 hPa 0,0 mm 6,2 km/h (2 Bft) O-NO 69 0 min 0,000 mm 0,0 UV-I 37 W/m 13,6 C 8,0 km/h (2 Bft)
23.06.2016 17:05 29,0 C 29,1 C 39 % 1018,0 hPa 0,0 mm 4,5 km/h (1 Bft) SO 140 0 min 0,000 mm 0,0 UV-I 37 W/m 13,6 C 6,4 km/h (2 Bft)
23.06.2016 17:06 29,0 C 29,0 C 38 % 1018,1 hPa 0,0 mm 4,0 km/h (1 Bft) N-NW 344 0 min 0,000 mm 0,0 UV-I 37 W/m 13,2 C 4,8 km/h (1 Bft)
23.06.2016 17:07 29,0 C 29,0 C 39 % 1018,0 hPa 0,0 mm 5,6 km/h (1 Bft) O-NO 78 0 min 0,000 mm 0,0 UV-I 37 W/m 13,6 C 9,7 km/h (2 Bft)
23.06.2016 17:08 29,1 C 29,1 C 36 % 1018,0 hPa 0,0 mm 9,7 km/h (2 Bft) O-NO 67 0 min 0,000 mm 0,0 UV-I 37 W/m 12,5 C 12,9 km/h (3 Bft)
23.06.2016 17:09 29,0 C 29,1 C 36 % 1018,0 hPa 0,0 mm 6,4 km/h (2 Bft) O 91 0 min 0,000 mm 0,0 UV-I 37 W/m 12,4 C 11,3 km/h (2 Bft)
23.06.2016 17:10 29,0 C 29,0 C 39 % 1018,0 hPa 0,0 mm 3,0 km/h (1 Bft) N-NO 27 0 min 0,000 mm 0,0 UV-I 37 W/m 13,6 C 4,8 km/h (1 Bft)
23.06.2016 17:11 28,9 C 29,0 C 37 % 1018,1 hPa 0,0 mm 4,6 km/h (1 Bft) O 82 0 min 0,000 mm 0,0 UV-I 37 W/m 12,7 C 6,4 km/h (2 Bft)
23.06.2016 17:12 28,9 C 29,0 C 37 % 1018,1 hPa 0,0 mm 5,2 km/h (1 Bft) NO 47 0 min 0,000 mm 0,0 UV-I 37 W/m 12,7 C 9,7 km/h (2 Bft)
23.06.2016 17:13 28,9 C 28,9 C 36 % 1018,0 hPa 0,0 mm 6,5 km/h (2 Bft) NO 43 0 min 0,000 mm 0,0 UV-I 37 W/m 12,3 C 9,7 km/h (2 Bft)
23.06.2016 17:14 28,9 C 28,9 C 38 % 1018,0 hPa 0,0 mm 5,0 km/h (1 Bft) NO 53 0 min 0,000 mm 0,0 UV-I 37 W/m 13,1 C 6,4 km/h (2 Bft)
23.06.2016 17:15 29,0 C 29,0 C 36 % 1018,0 hPa 0,0 mm 4,2 km/h (1 Bft) O-NO 70 0 min 0,000 mm 0,0 UV-I 37 W/m 12,4 C 6,4 km/h (2 Bft)
23.06.2016 17:16 29,0 C 29,0 C 36 % 1018,0 hPa 0,0 mm 6,0 km/h (2 Bft) N-NW 336 0 min 0,000 mm 0,0 UV-I 37 W/m 12,4 C 8,0 km/h (2 Bft)
23.06.2016 17:17 29,0 C 29,1 C 36 % 1018,0 hPa 0,0 mm 3,0 km/h (1 Bft) N-NW 346 0 min 0,000 mm 0,0 UV-I 37 W/m 12,4 C 4,8 km/h (1 Bft)
23.06.2016 17:18 29,0 C 29,0 C 36 % 1018,0 hPa 0,0 mm 4,7 km/h (1 Bft) N 355 0 min 0,000 mm 0,0 UV-I 37 W/m 12,4 C 9,7 km/h (2 Bft)
23.06.2016 17:19 28,9 C 29,0 C 37 % 1018,0 hPa 0,0 mm 4,8 km/h (1 Bft) N-NO 23 0 min 0,000 mm 0,0 UV-I 37 W/m 12,7 C 9,7 km/h (2 Bft)
23.06.2016 17:20 29,0 C 29,0 C 36 % 1018,0 hPa 0,0 mm 5,2 km/h (1 Bft) NO 36 0 min 0,000 mm 0,0 UV-I 37 W/m 12,4 C 8,0 km/h (2 Bft)
23.06.2016 17:21 29,1 C 29,1 C 35 % 1018,0 hPa 0,0 mm 5,2 km/h (1 Bft) O-NO 59 0 min 0,000 mm 0,0 UV-I 37 W/m 12,1 C 6,4 km/h (2 Bft)
23.06.2016 17:22 29,0 C 29,1 C 35 % 1018,0 hPa 0,0 mm 4,2 km/h (1 Bft) O-SO 112 0 min 0,000 mm 0,0 UV-I 37 W/m 12,0 C 6,4 km/h (2 Bft)
23.06.2016 17:23 28,9 C 29,0 C 36 % 1018,0 hPa 0,0 mm 4,5 km/h (1 Bft) NO 55 0 min 0,000 mm 0,0 UV-I 37 W/m 12,3 C 8,0 km/h (2 Bft)
23.06.2016 17:24 28,9 C 28,9 C 38 % 1018,0 hPa 0,0 mm 3,8 km/h (1 Bft) NO 34 0 min 0,000 mm 0,0 UV-I 39 W/m 13,1 C 6,4 km/h (2 Bft)
23.06.2016 17:25 28,9 C 28,9 C 43 % 1018,0 hPa 0,0 mm 3,5 km/h (1 Bft) NO 50 0 min 0,000 mm 0,0 UV-I 40 W/m 15,0 C 6,4 km/h (2 Bft)
23.06.2016 17:26 28,8 C 28,9 C 42 % 1017,9 hPa 0,0 mm 3,4 km/h (1 Bft) NO 39 0 min 0,000 mm 0,0 UV-I 37 W/m 14,6 C 6,4 km/h (2 Bft)
23.06.2016 17:27 28,8 C 28,8 C 42 % 1017,9 hPa 0,0 mm 4,1 km/h (1 Bft) N-NW 336 0 min 0,000 mm 0,0 UV-I 39 W/m 14,6 C 6,4 km/h (2 Bft)
23.06.2016 17:28 28,7 C 28,8 C 42 % 1017,9 hPa 0,0 mm 4,0 km/h (1 Bft) O-SO 105 0 min 0,000 mm 0,0 UV-I 35 W/m 14,5 C 6,4 km/h (2 Bft)
23.06.2016 17:29 28,7 C 28,8 C 37 % 1017,8 hPa 0,0 mm 3,4 km/h (1 Bft) O 100 0 min 0,000 mm 0,0 UV-I 35 W/m 12,5 C 4,8 km/h (1 Bft)
23.06.2016 17:30 28,7 C 28,7 C 37 % 1017,8 hPa 0,0 mm 2,4 km/h (1 Bft) NO 47 0 min 0,000 mm 0,0 UV-I 35 W/m 12,5 C 4,8 km/h (1 Bft)
23.06.2016 17:31 28,7 C 28,7 C 37 % 1017,8 hPa 0,0 mm 3,8 km/h (1 Bft) NO 52 0 min 0,000 mm 0,0 UV-I 35 W/m 12,5 C 6,4 km/h (2 Bft)
23.06.2016 17:32 28,7 C 28,7 C 40 % 1017,9 hPa 0,0 mm 6,3 km/h (2 Bft) N 355 0 min 0,000 mm 0,0 UV-I 37 W/m 13,7 C 9,7 km/h (2 Bft)
23.06.2016 17:33 28,6 C 28,7 C 40 % 1017,8 hPa 0,0 mm 7,0 km/h (2 Bft) NO 51 0 min 0,000 mm 0,0 UV-I 35 W/m 13,7 C 9,7 km/h (2 Bft)
23.06.2016 17:34 28,7 C 28,7 C 37 % 1017,8 hPa 0,0 mm 5,2 km/h (1 Bft) O 81 0 min 0,000 mm 0,0 UV-I 37 W/m 12,5 C 11,3 km/h (2 Bft)
23.06.2016 17:35 28,7 C 28,7 C 37 % 1017,8 hPa 0,0 mm 5,8 km/h (2 Bft) N-NO 32 0 min 0,000 mm 0,0 UV-I 35 W/m 12,5 C 8,0 km/h (2 Bft)
23.06.2016 17:36 28,8 C 28,8 C 38 % 1017,8 hPa 0,0 mm 4,7 km/h (1 Bft) NO 35 0 min 0,000 mm 0,0 UV-I 40 W/m 13,0 C 6,4 km/h (2 Bft)
23.06.2016 17:37 28,9 C 28,9 C 36 % 1017,8 hPa 0,0 mm 3,0 km/h (1 Bft) NO 56 0 min 0,000 mm 0,0 UV-I 37 W/m 12,3 C 6,4 km/h (2 Bft)
23.06.2016 17:38 28,9 C 28,9 C 35 % 1017,8 hPa 0,0 mm 4,6 km/h (1 Bft) O-NO 75 0 min 0,000 mm 0,0 UV-I 39 W/m 11,9 C 8,0 km/h (2 Bft)
23.06.2016 17:39 28,9 C 28,9 C 35 % 1017,8 hPa 0,0 mm 3,0 km/h (1 Bft) N-NO 22 0 min 0,000 mm 0,0 UV-I 42 W/m 11,9 C 4,8 km/h (1 Bft)
23.06.2016 17:40 28,8 C 28,9 C 36 % 1017,8 hPa 0,0 mm 3,6 km/h (1 Bft) O-NO 59 0 min 0,000 mm 0,0 UV-I 35 W/m 12,2 C 4,8 km/h (1 Bft)
23.06.2016 17:41 28,8 C 28,8 C 37 % 1017,7 hPa 0,0 mm 5,4 km/h (1 Bft) N 5 0 min 0,000 mm 0,0 UV-I 35 W/m 12,6 C 8,0 km/h (2 Bft)
23.06.2016 17:42 28,8 C 28,8 C 38 % 1017,7 hPa 0,0 mm 6,8 km/h (2 Bft) O 92 0 min 0,000 mm 0,0 UV-I 35 W/m 13,0 C 11,3 km/h (2 Bft)
23.06.2016 17:43 28,8 C 28,8 C 40 % 1017,7 hPa 0,0 mm 7,8 km/h (2 Bft) O 83 0 min 0,000 mm 0,0 UV-I 35 W/m 13,8 C 11,3 km/h (2 Bft)
23.06.2016 17:44 28,8 C 28,8 C 37 % 1017,7 hPa 0,0 mm 6,0 km/h (2 Bft) O-SO 114 0 min 0,000 mm 0,0 UV-I 37 W/m 12,6 C 11,3 km/h (2 Bft)
23.06.2016 17:45 28,7 C 28,8 C 36 % 1017,6 hPa 0,0 mm 5,0 km/h (1 Bft) O 84 0 min 0,000 mm 0,0 UV-I 35 W/m 12,1 C 8,0 km/h (2 Bft)
23.06.2016 17:46 28,6 C 28,7 C 41 % 1017,6 hPa 0,0 mm 5,6 km/h (1 Bft) NO 36 0 min 0,000 mm 0,0 UV-I 35 W/m 14,0 C 9,7 km/h (2 Bft)
23.06.2016 17:47 28,5 C 28,6 C 39 % 1017,6 hPa 0,0 mm 2,9 km/h (1 Bft) O-NO 62 0 min 0,000 mm 0,0 UV-I 35 W/m 13,2 C 4,8 km/h (1 Bft)
23.06.2016 17:48 28,4 C 28,5 C 38 % 1017,6 hPa 0,0 mm 5,9 km/h (2 Bft) O-SO 120 0 min 0,000 mm 0,0 UV-I 35 W/m 12,7 C 9,7 km/h (2 Bft)
23.06.2016 17:49 28,4 C 28,4 C 37 % 1017,6 hPa 0,0 mm 4,5 km/h (1 Bft) O 84 0 min 0,000 mm 0,0 UV-I 35 W/m 12,3 C 6,4 km/h (2 Bft)
23.06.2016 17:50 28,5 C 28,5 C 36 % 1017,7 hPa 0,0 mm 6,1 km/h (2 Bft) O 84 0 min 0,000 mm 0,0 UV-I 35 W/m 12,0 C 11,3 km/h (2 Bft)
23.06.2016 17:51 28,5 C 28,6 C 39 % 1017,7 hPa 0,0 mm 4,6 km/h (1 Bft) O-NO 72 0 min 0,000 mm 0,0 UV-I 37 W/m 13,2 C 6,4 km/h (2 Bft)
23.06.2016 17:52 28,5 C 28,5 C 38 % 1017,6 hPa 0,0 mm 5,4 km/h (1 Bft) O 94 0 min 0,000 mm 0,0 UV-I 42 W/m 12,8 C 8,0 km/h (2 Bft)
23.06.2016 17:53 28,5 C 28,5 C 37 % 1017,6 hPa 0,0 mm 2,1 km/h (1 Bft) N-NW 348 0 min 0,000 mm 1,7 UV-I 60 W/m 12,4 C 3,2 km/h (1 Bft)
23.06.2016 17:54 28,5 C 28,5 C 41 % 1017,6 hPa 0,0 mm 1,8 km/h (1 Bft) NO 45 0 min 0,000 mm 1,7 UV-I 72 W/m 13,9 C 3,2 km/h (1 Bft)
23.06.2016 17:55 28,5 C 28,5 C 36 % 1017,6 hPa 0,0 mm 0,9 km/h (0 Bft) NO 54 0 min 0,000 mm 1,6 UV-I 54 W/m 12,0 C 1,6 km/h (1 Bft)
23.06.2016 17:56 28,5 C 28,5 C 40 % 1017,6 hPa 0,0 mm 1,0 km/h (0 Bft) NO 52 0 min 0,000 mm 0,0 UV-I 37 W/m 13,6 C 1,6 km/h (1 Bft)
23.06.2016 17:57 28,5 C 28,5 C 40 % 1017,6 hPa 0,0 mm 1,2 km/h (1 Bft) NO 51 0 min 0,000 mm 0,0 UV-I 37 W/m 13,6 C 3,2 km/h (1 Bft)
23.06.2016 17:58 28,6 C 28,6 C 40 % 1017,6 hPa 0,0 mm 2,3 km/h (1 Bft) O-NO 61 0 min 0,000 mm 0,0 UV-I 37 W/m 13,7 C 4,8 km/h (1 Bft)
23.06.2016 17:59 28,5 C 28,6 C 40 % 1017,6 hPa 0,0 mm 6,2 km/h (2 Bft) NO 35 0 min 0,000 mm 0,0 UV-I 40 W/m 13,6 C 9,7 km/h (2 Bft)
23.06.2016 18:00 28,5 C 28,5 C 40 % 1017,5 hPa 0,0 mm 5,4 km/h (1 Bft) NO 51 0 min 0,077 mm 0,0 UV-I 37 W/m 13,6 C 8,0 km/h (2 Bft)
23.06.2016 18:01 28,4 C 28,5 C 43 % 1017,5 hPa 0,0 mm 6,6 km/h (2 Bft) N-NO 14 0 min 0,000 mm 0,0 UV-I 46 W/m 14,6 C 11,3 km/h (2 Bft)
23.06.2016 18:02 28,5 C 28,5 C 39 % 1017,5 hPa 0,0 mm 5,8 km/h (2 Bft) NO 48 0 min 0,000 mm 0,0 UV-I 37 W/m 13,2 C 8,0 km/h (2 Bft)
23.06.2016 18:03 28,6 C 28,6 C 40 % 1017,5 hPa 0,0 mm 3,2 km/h (1 Bft) O-NO 57 0 min 0,000 mm 0,0 UV-I 35 W/m 13,7 C 6,4 km/h (2 Bft)
23.06.2016 18:04 28,6 C 28,6 C 42 % 1017,5 hPa 0,0 mm 4,4 km/h (1 Bft) N 355 0 min 0,000 mm 0,0 UV-I 35 W/m 14,4 C 6,4 km/h (2 Bft)
23.06.2016 18:05 28,7 C 28,7 C 38 % 1017,5 hPa 0,0 mm 5,7 km/h (1 Bft) N-NW 348 0 min 0,000 mm 0,0 UV-I 37 W/m 13,0 C 9,7 km/h (2 Bft)
23.06.2016 18:06 28,7 C 28,7 C 38 % 1017,5 hPa 0,0 mm 5,2 km/h (1 Bft) NO 52 0 min 0,000 mm 0,0 UV-I 35 W/m 13,0 C 9,7 km/h (2 Bft)
23.06.2016 18:07 28,7 C 28,7 C 37 % 1017,5 hPa 0,0 mm 3,6 km/h (1 Bft) NO 49 0 min 0,000 mm 0,0 UV-I 35 W/m 12,5 C 6,4 km/h (2 Bft)
23.06.2016 18:08 28,7 C 28,8 C 41 % 1017,4 hPa 0,0 mm 4,0 km/h (1 Bft) N-NO 31 0 min 0,000 mm 0,0 UV-I 47 W/m 14,1 C 6,4 km/h (2 Bft)
23.06.2016 18:09 28,8 C 28,8 C 38 % 1017,4 hPa 0,0 mm 5,8 km/h (2 Bft) NO 45 0 min 0,000 mm 0,0 UV-I 47 W/m 13,0 C 8,0 km/h (2 Bft)
23.06.2016 18:10 28,8 C 28,8 C 37 % 1017,4 hPa 0,0 mm 5,0 km/h (1 Bft) N-NO 20 0 min 0,000 mm 0,0 UV-I 39 W/m 12,6 C 8,0 km/h (2 Bft)
23.06.2016 18:11 28,7 C 28,8 C 40 % 1017,4 hPa 0,0 mm 4,6 km/h (1 Bft) NO 50 0 min 0,000 mm 0,0 UV-I 35 W/m 13,7 C 6,4 km/h (2 Bft)
23.06.2016 18:12 28,7 C 28,7 C 37 % 1017,4 hPa 0,0 mm 2,7 km/h (1 Bft) O 84 0 min 0,000 mm 0,0 UV-I 35 W/m 12,5 C 4,8 km/h (1 Bft)
23.06.2016 18:13 28,6 C 28,7 C 43 % 1017,4 hPa 0,0 mm 2,3 km/h (1 Bft) O 83 0 min 0,000 mm 0,0 UV-I 35 W/m 14,8 C 4,8 km/h (1 Bft)
23.06.2016 18:14 28,6 C 28,6 C 37 % 1017,4 hPa 0,0 mm 1,5 km/h (1 Bft) O 83 0 min 0,000 mm 0,0 UV-I 35 W/m 12,5 C 3,2 km/h (1 Bft)
23.06.2016 18:15 28,6 C 28,6 C 45 % 1017,3 hPa 0,0 mm 2,4 km/h (1 Bft) O 82 0 min 0,000 mm 0,0 UV-I 35 W/m 15,5 C 3,2 km/h (1 Bft)
23.06.2016 18:16 28,4 C 28,6 C 44 % 1017,3 hPa 0,0 mm 2,0 km/h (1 Bft) NO 51 0 min 0,000 mm 0,0 UV-I 35 W/m 14,9 C 3,2 km/h (1 Bft)
23.06.2016 18:17 28,4 C 28,4 C 43 % 1017,3 hPa 0,0 mm 2,1 km/h (1 Bft) NO 40 0 min 0,000 mm 0,0 UV-I 37 W/m 14,6 C 4,8 km/h (1 Bft)
23.06.2016 18:18 28,4 C 28,4 C 40 % 1017,3 hPa 0,0 mm 3,2 km/h (1 Bft) N-NO 15 0 min 0,000 mm 0,0 UV-I 39 W/m 13,5 C 4,8 km/h (1 Bft)
23.06.2016 18:19 28,4 C 28,5 C 39 % 1017,3 hPa 0,0 mm 4,8 km/h (1 Bft) O-SO 113 0 min 0,000 mm 0,0 UV-I 35 W/m 13,1 C 6,4 km/h (2 Bft)
23.06.2016 18:20 28,5 C 28,5 C 38 % 1017,3 hPa 0,0 mm 3,9 km/h (1 Bft) N-NW 329 0 min 0,000 mm 0,0 UV-I 33 W/m 12,8 C 8,0 km/h (2 Bft)
23.06.2016 18:21 28,5 C 28,5 C 39 % 1017,2 hPa 0,0 mm 7,1 km/h (2 Bft) O 86 0 min 0,000 mm 0,0 UV-I 33 W/m 13,2 C 11,3 km/h (2 Bft)
23.06.2016 18:22 28,5 C 28,5 C 39 % 1017,2 hPa 0,0 mm 6,6 km/h (2 Bft) O 80 0 min 0,000 mm 0,0 UV-I 33 W/m 13,2 C 8,0 km/h (2 Bft)
23.06.2016 18:23 28,4 C 28,5 C 39 % 1017,2 hPa 0,0 mm 3,2 km/h (1 Bft) O-NO 63 0 min 0,000 mm 0,0 UV-I 33 W/m 13,1 C 9,7 km/h (2 Bft)
23.06.2016 18:24 28,4 C 28,4 C 39 % 1017,2 hPa 0,0 mm 3,5 km/h (1 Bft) NO 55 0 min 0,000 mm 0,0 UV-I 35 W/m 13,1 C 8,0 km/h (2 Bft)
23.06.2016 18:25 28,4 C 28,4 C 39 % 1017,3 hPa 0,0 mm 5,1 km/h (1 Bft) O-NO 68 0 min 0,000 mm 0,0 UV-I 33 W/m 13,1 C 8,0 km/h (2 Bft)
23.06.2016 18:26 28,5 C 28,5 C 37 % 1017,2 hPa 0,0 mm 6,7 km/h (2 Bft) N-NO 14 0 min 0,000 mm 0,0 UV-I 37 W/m 12,4 C 9,7 km/h (2 Bft)
23.06.2016 18:27 28,5 C 28,5 C 39 % 1017,2 hPa 0,0 mm 4,1 km/h (1 Bft) NO 34 0 min 0,000 mm 0,0 UV-I 33 W/m 13,2 C 4,8 km/h (1 Bft)
23.06.2016 18:28 28,4 C 28,5 C 40 % 1017,2 hPa 0,0 mm 2,1 km/h (1 Bft) S-SO 156 0 min 0,000 mm 0,0 UV-I 42 W/m 13,5 C 3,2 km/h (1 Bft)
23.06.2016 18:29 28,4 C 28,5 C 39 % 1017,2 hPa 0,0 mm 1,4 km/h (1 Bft) SO 134 0 min 0,000 mm 0,0 UV-I 42 W/m 13,1 C 3,2 km/h (1 Bft)
23.06.2016 18:30 28,4 C 28,4 C 42 % 1017,2 hPa 0,0 mm 3,3 km/h (1 Bft) O-NO 71 0 min 0,000 mm 0,0 UV-I 39 W/m 14,2 C 4,8 km/h (1 Bft)
23.06.2016 18:31 28,4 C 28,4 C 42 % 1017,3 hPa 0,0 mm 2,2 km/h (1 Bft) O-NO 71 0 min 0,000 mm 0,0 UV-I 51 W/m 14,2 C 3,2 km/h (1 Bft)
23.06.2016 18:32 28,3 C 28,4 C 42 % 1017,2 hPa 0,0 mm 0,8 km/h (0 Bft) O-NO 71 0 min 0,000 mm 1,1 UV-I 65 W/m 14,1 C 3,2 km/h (1 Bft)
23.06.2016 18:33 28,3 C 28,3 C 40 % 1017,2 hPa 0,0 mm 0,5 km/h (0 Bft) O-NO 71 0 min 0,000 mm 1,3 UV-I 60 W/m 13,4 C 1,6 km/h (1 Bft)
23.06.2016 18:34 28,3 C 28,3 C 38 % 1017,2 hPa 0,0 mm 3,2 km/h (1 Bft) O-SO 117 0 min 0,000 mm 0,0 UV-I 44 W/m 12,6 C 6,4 km/h (2 Bft)
23.06.2016 18:35 28,2 C 28,3 C 37 % 1017,2 hPa 0,0 mm 4,4 km/h (1 Bft) O-SO 113 0 min 0,000 mm 0,0 UV-I 54 W/m 12,1 C 6,4 km/h (2 Bft)
23.06.2016 18:36 28,3 C 28,3 C 39 % 1017,2 hPa 0,0 mm 2,7 km/h (1 Bft) O-NO 76 0 min 0,000 mm 1,3 UV-I 118 W/m 13,0 C 4,8 km/h (1 Bft)
23.06.2016 18:37 28,3 C 28,3 C 37 % 1017,2 hPa 0,0 mm 2,3 km/h (1 Bft) NO 56 0 min 0,000 mm 1,3 UV-I 142 W/m 12,2 C 3,2 km/h (1 Bft)
23.06.2016 18:38 28,3 C 28,3 C 37 % 1017,1 hPa 0,0 mm 0,7 km/h (0 Bft) NO 56 0 min 0,000 mm 1,2 UV-I 100 W/m 12,2 C 1,6 km/h (1 Bft)
23.06.2016 18:39 28,4 C 28,4 C 36 % 1017,1 hPa 0,0 mm 1,3 km/h (1 Bft) O-NO 70 0 min 0,000 mm 1,3 UV-I 65 W/m 11,9 C 3,2 km/h (1 Bft)
23.06.2016 18:40 28,3 C 28,4 C 40 % 1017,1 hPa 0,0 mm 5,0 km/h (1 Bft) O 79 0 min 0,000 mm 1,6 UV-I 65 W/m 13,4 C 9,7 km/h (2 Bft)
23.06.2016 18:41 28,3 C 28,3 C 40 % 1017,1 hPa 0,0 mm 4,6 km/h (1 Bft) NO 40 0 min 0,000 mm 1,6 UV-I 262 W/m 13,4 C 8,0 km/h (2 Bft)
23.06.2016 18:42 28,3 C 28,3 C 40 % 1017,1 hPa 0,0 mm 5,6 km/h (1 Bft) NO 48 0 min 0,000 mm 1,5 UV-I 348 W/m 13,4 C 8,0 km/h (2 Bft)
23.06.2016 18:43 28,3 C 28,3 C 40 % 1017,2 hPa 0,0 mm 6,7 km/h (2 Bft) O-NO 65 0 min 0,000 mm 1,5 UV-I 343 W/m 13,4 C 9,7 km/h (2 Bft)
23.06.2016 18:44 28,3 C 28,3 C 38 % 1017,1 hPa 0,0 mm 6,1 km/h (2 Bft) NO 39 0 min 0,000 mm 1,6 UV-I 343 W/m 12,6 C 6,4 km/h (2 Bft)
23.06.2016 18:45 28,4 C 28,4 C 38 % 1017,2 hPa 0,0 mm 7,1 km/h (2 Bft) NO 38 0 min 0,000 mm 1,4 UV-I 339 W/m 12,7 C 9,7 km/h (2 Bft)
23.06.2016 18:46 28,4 C 28,4 C 37 % 1017,1 hPa 0,0 mm 4,6 km/h (1 Bft) NO 49 0 min 0,000 mm 1,4 UV-I 336 W/m 12,3 C 8,0 km/h (2 Bft)
23.06.2016 18:47 28,5 C 28,5 C 38 % 1017,1 hPa 0,0 mm 3,5 km/h (1 Bft) N 355 0 min 0,000 mm 1,4 UV-I 334 W/m 12,8 C 6,4 km/h (2 Bft)
23.06.2016 18:48 28,5 C 28,5 C 39 % 1017,1 hPa 0,0 mm 3,8 km/h (1 Bft) N-NO 13 0 min 0,000 mm 1,5 UV-I 329 W/m 13,2 C 6,4 km/h (2 Bft)
23.06.2016 18:49 28,6 C 28,6 C 38 % 1017,1 hPa 0,0 mm 1,7 km/h (1 Bft) NO 48 0 min 0,000 mm 1,4 UV-I 327 W/m 12,9 C 3,2 km/h (1 Bft)
23.06.2016 18:50 28,6 C 28,6 C 39 % 1017,1 hPa 0,0 mm 3,5 km/h (1 Bft) NO 51 0 min 0,000 mm 1,4 UV-I 325 W/m 13,3 C 6,4 km/h (2 Bft)
23.06.2016 18:51 28,6 C 28,6 C 40 % 1017,1 hPa 0,0 mm 5,0 km/h (1 Bft) N-NO 21 0 min 0,000 mm 1,4 UV-I 323 W/m 13,7 C 6,4 km/h (2 Bft)
23.06.2016 18:52 28,7 C 28,7 C 38 % 1017,0 hPa 0,0 mm 5,8 km/h (2 Bft) N-NO 28 0 min 0,000 mm 1,4 UV-I 322 W/m 13,0 C 12,9 km/h (3 Bft)
23.06.2016 18:53 28,7 C 28,7 C 37 % 1017,0 hPa 0,0 mm 6,3 km/h (2 Bft) O 97 0 min 0,000 mm 1,4 UV-I 318 W/m 12,5 C 14,5 km/h (3 Bft)
23.06.2016 18:54 28,7 C 28,7 C 40 % 1017,1 hPa 0,0 mm 5,9 km/h (2 Bft) O-NO 59 0 min 0,000 mm 1,4 UV-I 313 W/m 13,7 C 11,3 km/h (2 Bft)
23.06.2016 18:55 28,6 C 28,7 C 38 % 1017,1 hPa 0,0 mm 6,7 km/h (2 Bft) O-NO 59 0 min 0,000 mm 1,4 UV-I 311 W/m 12,9 C 9,7 km/h (2 Bft)
23.06.2016 18:56 28,5 C 28,6 C 39 % 1017,1 hPa 0,0 mm 2,5 km/h (1 Bft) NO 55 0 min 0,000 mm 1,3 UV-I 308 W/m 13,2 C 3,2 km/h (1 Bft)
23.06.2016 18:57 28,3 C 28,5 C 42 % 1017,1 hPa 0,0 mm 2,2 km/h (1 Bft) O-NO 71 0 min 0,000 mm 1,3 UV-I 304 W/m 14,1 C 3,2 km/h (1 Bft)
23.06.2016 18:58 28,3 C 28,3 C 42 % 1017,1 hPa 0,0 mm 2,9 km/h (1 Bft) O-NO 69 0 min 0,000 mm 1,3 UV-I 302 W/m 14,1 C 4,8 km/h (1 Bft)
23.06.2016 18:59 28,2 C 28,3 C 42 % 1017,1 hPa 0,0 mm 4,8 km/h (1 Bft) N 11 0 min 0,000 mm 1,3 UV-I 301 W/m 14,0 C 8,0 km/h (2 Bft)
23.06.2016 19:00 28,2 C 28,2 C 38 % 1017,1 hPa 0,0 mm 5,0 km/h (1 Bft) N-NO 28 0 min 0,000 mm 1,3 UV-I 295 W/m 12,5 C 8,0 km/h (2 Bft)
23.06.2016 19:01 28,1 C 28,2 C 46 % 1017,1 hPa 0,0 mm 4,4 km/h (1 Bft) O-SO 103 0 min 0,152 mm 1,3 UV-I 292 W/m 15,4 C 6,4 km/h (2 Bft)
23.06.2016 19:02 27,9 C 28,1 C 41 % 1017,2 hPa 0,0 mm 3,4 km/h (1 Bft) O-SO 117 0 min 0,000 mm 1,3 UV-I 288 W/m 13,4 C 4,8 km/h (1 Bft)
23.06.2016 19:03 28,0 C 28,0 C 38 % 1017,1 hPa 0,0 mm 3,4 km/h (1 Bft) NO 55 0 min 0,000 mm 1,3 UV-I 287 W/m 12,3 C 6,4 km/h (2 Bft)
23.06.2016 19:04 28,0 C 28,0 C 40 % 1017,1 hPa 0,0 mm 4,9 km/h (1 Bft) O-NO 70 0 min 0,000 mm 1,1 UV-I 285 W/m 13,1 C 8,0 km/h (2 Bft)
23.06.2016 19:05 28,0 C 28,1 C 42 % 1017,1 hPa 0,0 mm 2,6 km/h (1 Bft) O-NO 61 0 min 0,000 mm 1,1 UV-I 281 W/m 13,9 C 3,2 km/h (1 Bft)
23.06.2016 19:06 27,9 C 28,0 C 47 % 1017,1 hPa 0,0 mm 2,4 km/h (1 Bft) O 82 0 min 0,000 mm 1,1 UV-I 278 W/m 15,5 C 6,4 km/h (2 Bft)
23.06.2016 19:07 27,9 C 27,9 C 41 % 1017,1 hPa 0,0 mm 3,3 km/h (1 Bft) O-SO 113 0 min 0,000 mm 1,2 UV-I 274 W/m 13,4 C 4,8 km/h (1 Bft)
23.06.2016 19:08 27,9 C 27,9 C 40 % 1017,1 hPa 0,0 mm 2,2 km/h (1 Bft) NO 38 0 min 0,000 mm 1,2 UV-I 272 W/m 13,0 C 4,8 km/h (1 Bft)
23.06.2016 19:09 27,8 C 27,9 C 42 % 1017,0 hPa 0,0 mm 3,1 km/h (1 Bft) NO 54 0 min 0,000 mm 1,2 UV-I 269 W/m 13,7 C 4,8 km/h (1 Bft)
23.06.2016 19:10 27,8 C 27,8 C 43 % 1017,1 hPa 0,0 mm 0,9 km/h (0 Bft) O 94 0 min 0,000 mm 1,1 UV-I 267 W/m 14,1 C 3,2 km/h (1 Bft)
23.06.2016 19:11 27,8 C 27,8 C 43 % 1017,1 hPa 0,0 mm 1,5 km/h (1 Bft) O 90 0 min 0,000 mm 1,1 UV-I 264 W/m 14,1 C 3,2 km/h (1 Bft)
23.06.2016 19:12 27,8 C 27,8 C 44 % 1017,1 hPa 0,0 mm 2,2 km/h (1 Bft) O 90 0 min 0,000 mm 1,1 UV-I 260 W/m 14,4 C 4,8 km/h (1 Bft)
23.06.2016 19:13 27,8 C 27,8 C 42 % 1017,1 hPa 0,0 mm 1,5 km/h (1 Bft) O 90 0 min 0,000 mm 1,1 UV-I 257 W/m 13,7 C 4,8 km/h (1 Bft)
23.06.2016 19:14 27,7 C 27,8 C 42 % 1017,0 hPa 0,0 mm 0,7 km/h (0 Bft) O 90 0 min 0,000 mm 1,1 UV-I 255 W/m 13,6 C 3,2 km/h (1 Bft)
23.06.2016 19:15 27,7 C 27,7 C 41 % 1017,0 hPa 0,0 mm 1,1 km/h (1 Bft) O 90 0 min 0,000 mm 1,1 UV-I 251 W/m 13,2 C 3,2 km/h (1 Bft)
23.06.2016 19:16 27,7 C 27,7 C 41 % 1017,0 hPa 0,0 mm 0,3 km/h (0 Bft) O 90 0 min 0,000 mm 1,0 UV-I 250 W/m 13,2 C 1,6 km/h (1 Bft)
23.06.2016 19:17 27,7 C 27,7 C 42 % 1017,0 hPa 0,0 mm 1,9 km/h (1 Bft) O 85 0 min 0,000 mm 1,0 UV-I 248 W/m 13,6 C 4,8 km/h (1 Bft)
23.06.2016 19:18 27,6 C 27,7 C 42 % 1017,0 hPa 0,0 mm 2,2 km/h (1 Bft) O-NO 76 0 min 0,000 mm 1,0 UV-I 243 W/m 13,5 C 3,2 km/h (1 Bft)
23.06.2016 19:19 27,6 C 27,7 C 41 % 1017,0 hPa 0,0 mm 1,3 km/h (1 Bft) O 90 0 min 0,000 mm 1,0 UV-I 241 W/m 13,1 C 3,2 km/h (1 Bft)
23.06.2016 19:20 27,6 C 27,6 C 42 % 1017,0 hPa 0,0 mm 1,6 km/h (1 Bft) O 101 0 min 0,000 mm 1,0 UV-I 237 W/m 13,5 C 4,8 km/h (1 Bft)
23.06.2016 19:21 27,5 C 27,6 C 43 % 1017,0 hPa 0,0 mm 1,6 km/h (1 Bft) O 90 0 min 0,000 mm 1,0 UV-I 234 W/m 13,8 C 3,2 km/h (1 Bft)
23.06.2016 19:23 27,5 C 27,6 C 47 % 1017,0 hPa 0,0 mm 3,2 km/h (1 Bft) O-NO 71 0 min 0,000 mm 0,9 UV-I 229 W/m 15,2 C 4,8 km/h (1 Bft)
23.06.2016 19:24 27,4 C 27,5 C 48 % 1017,0 hPa 0,0 mm 3,6 km/h (1 Bft) O 85 0 min 0,000 mm 0,9 UV-I 223 W/m 15,4 C 6,4 km/h (2 Bft)
23.06.2016 19:25 27,4 C 27,4 C 44 % 1017,0 hPa 0,0 mm 2,6 km/h (1 Bft) O-NO 65 0 min 0,000 mm 0,9 UV-I 221 W/m 14,0 C 4,8 km/h (1 Bft)
23.06.2016 19:26 27,4 C 27,4 C 44 % 1017,0 hPa 0,0 mm 3,0 km/h (1 Bft) O-NO 61 0 min 0,000 mm 0,9 UV-I 218 W/m 14,0 C 6,4 km/h (2 Bft)
23.06.2016 19:27 27,4 C 27,4 C 47 % 1017,0 hPa 0,0 mm 4,3 km/h (1 Bft) NO 55 0 min 0,000 mm 0,9 UV-I 216 W/m 15,1 C 6,4 km/h (2 Bft)
23.06.2016 19:28 27,3 C 27,4 C 46 % 1017,0 hPa 0,0 mm 4,6 km/h (1 Bft) O-NO 63 0 min 0,000 mm 0,9 UV-I 213 W/m 14,6 C 6,4 km/h (2 Bft)
23.06.2016 19:29 27,3 C 27,3 C 45 % 1017,0 hPa 0,0 mm 3,1 km/h (1 Bft) O-NO 73 0 min 0,000 mm 0,9 UV-I 207 W/m 14,3 C 3,2 km/h (1 Bft)
23.06.2016 19:30 27,4 C 27,4 C 48 % 1017,0 hPa 0,0 mm 1,7 km/h (1 Bft) O-NO 78 0 min 0,000 mm 0,8 UV-I 204 W/m 15,4 C 4,8 km/h (1 Bft)
23.06.2016 19:31 27,3 C 27,4 C 46 % 1016,9 hPa 0,0 mm 2,4 km/h (1 Bft) SO 138 0 min 0,000 mm 0,8 UV-I 202 W/m 14,6 C 4,8 km/h (1 Bft)
23.06.2016 19:32 27,4 C 27,4 C 46 % 1016,9 hPa 0,0 mm 2,7 km/h (1 Bft) NO 52 0 min 0,000 mm 0,8 UV-I 199 W/m 14,7 C 8,0 km/h (2 Bft)
23.06.2016 19:33 27,4 C 27,4 C 50 % 1016,9 hPa 0,0 mm 5,7 km/h (1 Bft) NO 55 0 min 0,000 mm 0,8 UV-I 197 W/m 16,0 C 11,3 km/h (2 Bft)
23.06.2016 19:34 27,3 C 27,4 C 47 % 1016,9 hPa 0,0 mm 1,3 km/h (1 Bft) NO 55 0 min 0,000 mm 0,8 UV-I 193 W/m 15,0 C 3,2 km/h (1 Bft)
23.06.2016 19:35 27,3 C 27,3 C 47 % 1016,9 hPa 0,0 mm 1,2 km/h (1 Bft) NO 55 0 min 0,000 mm 0,8 UV-I 188 W/m 15,0 C 1,6 km/h (1 Bft)
23.06.2016 19:36 27,3 C 27,3 C 48 % 1016,9 hPa 0,0 mm 1,8 km/h (1 Bft) NO 55 0 min 0,000 mm 0,8 UV-I 185 W/m 15,3 C 3,2 km/h (1 Bft)
23.06.2016 19:37 27,3 C 27,3 C 46 % 1016,9 hPa 0,0 mm 2,3 km/h (1 Bft) NO 47 0 min 0,000 mm 0,7 UV-I 181 W/m 14,6 C 4,8 km/h (1 Bft)
23.06.2016 19:38 27,4 C 27,4 C 46 % 1016,9 hPa 0,0 mm 4,0 km/h (1 Bft) O-NO 63 0 min 0,000 mm 0,7 UV-I 181 W/m 14,7 C 8,0 km/h (2 Bft)
23.06.2016 19:39 27,3 C 27,4 C 49 % 1016,9 hPa 0,0 mm 3,3 km/h (1 Bft) NO 43 0 min 0,000 mm 0,7 UV-I 178 W/m 15,6 C 4,8 km/h (1 Bft)
23.06.2016 19:40 27,3 C 27,3 C 46 % 1016,9 hPa 0,0 mm 1,7 km/h (1 Bft) O-NO 60 0 min 0,000 mm 0,7 UV-I 176 W/m 14,6 C 3,2 km/h (1 Bft)
23.06.2016 19:41 27,3 C 27,3 C 49 % 1016,9 hPa 0,0 mm 4,4 km/h (1 Bft) O-SO 103 0 min 0,000 mm 0,7 UV-I 169 W/m 15,6 C 6,4 km/h (2 Bft)
23.06.2016 19:42 27,2 C 27,3 C 49 % 1016,9 hPa 0,0 mm 2,8 km/h (1 Bft) O 93 0 min 0,000 mm 0,7 UV-I 167 W/m 15,5 C 3,2 km/h (1 Bft)
23.06.2016 19:43 27,1 C 27,3 C 55 % 1016,9 hPa 0,0 mm 1,8 km/h (1 Bft) O 93 0 min 0,000 mm 0,7 UV-I 163 W/m 17,3 C 3,2 km/h (1 Bft)
23.06.2016 19:44 26,9 C 27,1 C 50 % 1016,9 hPa 0,0 mm 1,4 km/h (1 Bft) NO 53 0 min 0,000 mm 0,7 UV-I 162 W/m 15,6 C 3,2 km/h (1 Bft)
23.06.2016 19:45 27,0 C 27,0 C 49 % 1016,9 hPa 0,0 mm 2,0 km/h (1 Bft) NO 51 0 min 0,000 mm 0,7 UV-I 160 W/m 15,4 C 3,2 km/h (1 Bft)
23.06.2016 19:46 27,1 C 27,1 C 49 % 1016,9 hPa 0,0 mm 1,3 km/h (1 Bft) NO 51 0 min 0,000 mm 0,6 UV-I 156 W/m 15,4 C 1,6 km/h (1 Bft)
23.06.2016 19:47 27,1 C 27,1 C 48 % 1016,9 hPa 0,0 mm 0,5 km/h (0 Bft) NO 51 0 min 0,000 mm 0,6 UV-I 151 W/m 15,1 C 1,6 km/h (1 Bft)
23.06.2016 19:48 27,1 C 27,2 C 48 % 1016,8 hPa 0,0 mm 2,9 km/h (1 Bft) O 86 0 min 0,000 mm 0,6 UV-I 148 W/m 15,1 C 4,8 km/h (1 Bft)
23.06.2016 19:49 27,1 C 27,1 C 50 % 1016,9 hPa 0,0 mm 3,4 km/h (1 Bft) O-SO 103 0 min 0,000 mm 0,6 UV-I 146 W/m 15,8 C 4,8 km/h (1 Bft)
23.06.2016 19:50 27,1 C 27,1 C 47 % 1016,9 hPa 0,0 mm 2,7 km/h (1 Bft) O-SO 103 0 min 0,000 mm 0,6 UV-I 142 W/m 14,8 C 3,2 km/h (1 Bft)
23.06.2016 19:51 26,9 C 27,1 C 49 % 1016,9 hPa 0,0 mm 1,3 km/h (1 Bft) O-SO 103 0 min 0,000 mm 0,6 UV-I 141 W/m 15,3 C 1,6 km/h (1 Bft)
23.06.2016 19:52 26,8 C 26,9 C 49 % 1016,9 hPa 0,0 mm 0,6 km/h (0 Bft) O-SO 103 0 min 0,000 mm 0,6 UV-I 139 W/m 15,2 C 1,6 km/h (1 Bft)
23.06.2016 19:53 26,8 C 26,9 C 54 % 1016,9 hPa 0,0 mm 1,5 km/h (1 Bft) SO 134 0 min 0,000 mm 0,6 UV-I 132 W/m 16,7 C 4,8 km/h (1 Bft)
23.06.2016 19:54 26,7 C 26,8 C 51 % 1016,9 hPa 0,0 mm 1,1 km/h (1 Bft) SO 134 0 min 0,000 mm 0,5 UV-I 130 W/m 15,7 C 3,2 km/h (1 Bft)
23.06.2016 19:55 26,6 C 26,7 C 52 % 1016,8 hPa 0,0 mm 1,0 km/h (0 Bft) SO 134 0 min 0,000 mm 0,5 UV-I 127 W/m 15,9 C 1,6 km/h (1 Bft)
23.06.2016 19:56 26,5 C 26,6 C 50 % 1016,9 hPa 0,0 mm 1,1 km/h (1 Bft) SO 133 0 min 0,000 mm 0,5 UV-I 125 W/m 15,2 C 3,2 km/h (1 Bft)
23.06.2016 19:57 26,5 C 26,5 C 49 % 1016,8 hPa 0,0 mm 1,9 km/h (1 Bft) O 101 0 min 0,000 mm 0,5 UV-I 123 W/m 14,9 C 3,2 km/h (1 Bft)
23.06.2016 19:58 26,5 C 26,6 C 53 % 1016,9 hPa 0,0 mm 2,4 km/h (1 Bft) O 101 0 min 0,000 mm 0,5 UV-I 120 W/m 16,1 C 3,2 km/h (1 Bft)
23.06.2016 19:59 26,6 C 26,6 C 48 % 1016,8 hPa 0,0 mm 1,7 km/h (1 Bft) O 101 0 min 0,000 mm 0,5 UV-I 116 W/m 14,7 C 3,2 km/h (1 Bft)
23.06.2016 20:00 26,6 C 26,6 C 48 % 1016,8 hPa 0,0 mm 1,5 km/h (1 Bft) O 101 0 min 0,152 mm 0,5 UV-I 113 W/m 14,7 C 3,2 km/h (1 Bft)
23.06.2016 20:01 26,6 C 26,6 C 50 % 1016,8 hPa 0,0 mm 1,4 km/h (1 Bft) O 101 0 min 0,000 mm 0,5 UV-I 111 W/m 15,3 C 3,2 km/h (1 Bft)
23.06.2016 20:02 26,6 C 26,6 C 50 % 1016,8 hPa 0,0 mm 2,7 km/h (1 Bft) O-NO 76 0 min 0,000 mm 0,5 UV-I 107 W/m 15,3 C 3,2 km/h (1 Bft)
23.06.2016 20:03 26,5 C 26,6 C 50 % 1016,9 hPa 0,0 mm 1,5 km/h (1 Bft) O-NO 76 0 min 0,000 mm 0,5 UV-I 105 W/m 15,2 C 3,2 km/h (1 Bft)
23.06.2016 20:04 26,4 C 26,5 C 52 % 1016,8 hPa 0,0 mm 1,6 km/h (1 Bft) O-NO 76 0 min 0,000 mm 0,5 UV-I 102 W/m 15,7 C 3,2 km/h (1 Bft)
23.06.2016 20:05 26,3 C 26,4 C 52 % 1016,9 hPa 0,0 mm 1,7 km/h (1 Bft) O 80 0 min 0,000 mm 0,5 UV-I 98 W/m 15,6 C 3,2 km/h (1 Bft)
23.06.2016 20:06 26,2 C 26,3 C 50 % 1016,9 hPa 0,0 mm 1,3 km/h (1 Bft) O 80 0 min 0,000 mm 0,0 UV-I 97 W/m 14,9 C 3,2 km/h (1 Bft)
23.06.2016 20:07 26,1 C 26,2 C 51 % 1016,9 hPa 0,0 mm 0,7 km/h (0 Bft) O 80 0 min 0,000 mm 0,0 UV-I 93 W/m 15,2 C 1,6 km/h (1 Bft)
23.06.2016 20:08 26,0 C 26,1 C 51 % 1016,8 hPa 0,0 mm 0,6 km/h (0 Bft) O 80 0 min 0,000 mm 0,0 UV-I 91 W/m 15,1 C 1,6 km/h (1 Bft)
23.06.2016 20:09 25,9 C 26,0 C 53 % 1016,9 hPa 0,0 mm 2,1 km/h (1 Bft) SO 143 0 min 0,000 mm 0,0 UV-I 90 W/m 15,6 C 6,4 km/h (2 Bft)
23.06.2016 20:10 25,8 C 25,9 C 52 % 1016,9 hPa 0,0 mm 1,6 km/h (1 Bft) SO 142 0 min 0,000 mm 0,0 UV-I 86 W/m 15,2 C 3,2 km/h (1 Bft)
23.06.2016 20:11 25,8 C 25,8 C 51 % 1016,9 hPa 0,0 mm 1,9 km/h (1 Bft) SO 142 0 min 0,000 mm 0,0 UV-I 83 W/m 14,9 C 3,2 km/h (1 Bft)
23.06.2016 20:12 25,7 C 25,8 C 53 % 1016,9 hPa 0,0 mm 1,1 km/h (1 Bft) SO 142 0 min 0,000 mm 0,0 UV-I 81 W/m 15,4 C 1,6 km/h (1 Bft)
23.06.2016 20:13 25,7 C 25,7 C 52 % 1016,9 hPa 0,0 mm 1,1 km/h (1 Bft) SO 142 0 min 0,000 mm 0,0 UV-I 79 W/m 15,1 C 3,2 km/h (1 Bft)
23.06.2016 20:14 25,6 C 25,7 C 56 % 1016,9 hPa 0,0 mm 1,6 km/h (1 Bft) SO 142 0 min 0,000 mm 0,0 UV-I 77 W/m 16,2 C 3,2 km/h (1 Bft)
23.06.2016 20:15 25,6 C 25,6 C 51 % 1016,9 hPa 0,0 mm 0,3 km/h (0 Bft) SO 142 0 min 0,000 mm 0,0 UV-I 76 W/m 14,7 C 1,6 km/h (1 Bft)
23.06.2016 20:16 25,6 C 25,6 C 55 % 1016,9 hPa 0,0 mm 0,8 km/h (0 Bft) SO 142 0 min 0,000 mm 0,0 UV-I 70 W/m 15,9 C 1,6 km/h (1 Bft)
23.06.2016 20:17 25,5 C 25,6 C 53 % 1016,9 hPa 0,0 mm 1,4 km/h (1 Bft) SO 142 0 min 0,000 mm 0,0 UV-I 69 W/m 15,2 C 3,2 km/h (1 Bft)
23.06.2016 20:18 25,4 C 25,5 C 53 % 1016,9 hPa 0,0 mm 1,1 km/h (1 Bft) SO 142 0 min 0,000 mm 0,0 UV-I 67 W/m 15,1 C 3,2 km/h (1 Bft)
23.06.2016 20:19 25,4 C 25,4 C 51 % 1016,9 hPa 0,0 mm 0,3 km/h (0 Bft) SO 142 0 min 0,000 mm 0,0 UV-I 65 W/m 14,5 C 1,6 km/h (1 Bft)
23.06.2016 20:20 25,5 C 25,5 C 50 % 1016,9 hPa 0,0 mm 0,6 km/h (0 Bft) SO 142 0 min 0,000 mm 0,0 UV-I 63 W/m 14,3 C 1,6 km/h (1 Bft)
23.06.2016 20:21 25,6 C 25,6 C 52 % 1016,9 hPa 0,0 mm 1,5 km/h (1 Bft) SO 142 0 min 0,000 mm 0,0 UV-I 62 W/m 15,0 C 3,2 km/h (1 Bft)
23.06.2016 20:22 25,5 C 25,6 C 54 % 1016,9 hPa 0,0 mm 1,6 km/h (1 Bft) SO 142 0 min 0,000 mm 0,0 UV-I 58 W/m 15,5 C 3,2 km/h (1 Bft)
23.06.2016 20:23 25,4 C 25,5 C 53 % 1016,9 hPa 0,0 mm 1,6 km/h (1 Bft) SO 142 0 min 0,000 mm 0,0 UV-I 56 W/m 15,1 C 3,2 km/h (1 Bft)
23.06.2016 20:24 25,4 C 25,5 C 50 % 1016,9 hPa 0,0 mm 1,1 km/h (1 Bft) SO 142 0 min 0,000 mm 0,0 UV-I 54 W/m 14,2 C 1,6 km/h (1 Bft)
23.06.2016 20:25 25,3 C 25,4 C 55 % 1016,9 hPa 0,0 mm 1,8 km/h (1 Bft) SO 142 0 min 0,000 mm 0,0 UV-I 53 W/m 15,6 C 3,2 km/h (1 Bft)
23.06.2016 20:26 25,3 C 25,3 C 52 % 1016,9 hPa 0,0 mm 1,0 km/h (0 Bft) SO 142 0 min 0,000 mm 0,0 UV-I 51 W/m 14,7 C 1,6 km/h (1 Bft)
23.06.2016 20:27 25,3 C 25,3 C 52 % 1016,9 hPa 0,0 mm 1,4 km/h (1 Bft) SO 142 0 min 0,000 mm 0,0 UV-I 49 W/m 14,7 C 3,2 km/h (1 Bft)
23.06.2016 20:28 25,4 C 25,4 C 51 % 1016,9 hPa 0,0 mm 1,7 km/h (1 Bft) SO 142 0 min 0,000 mm 0,0 UV-I 47 W/m 14,5 C 3,2 km/h (1 Bft)
23.06.2016 20:29 25,3 C 25,4 C 54 % 1016,9 hPa 0,0 mm 1,5 km/h (1 Bft) SO 142 0 min 0,000 mm 0,0 UV-I 46 W/m 15,3 C 3,2 km/h (1 Bft)
23.06.2016 20:30 25,2 C 25,3 C 55 % 1016,9 hPa 0,0 mm 1,1 km/h (1 Bft) SO 142 0 min 0,000 mm 0,0 UV-I 44 W/m 15,5 C 1,6 km/h (1 Bft)
23.06.2016 20:31 25,2 C 25,2 C 50 % 1016,9 hPa 0,0 mm 0,8 km/h (0 Bft) SO 142 0 min 0,000 mm 0,0 UV-I 42 W/m 14,0 C 3,2 km/h (1 Bft)
23.06.2016 20:32 25,3 C 25,3 C 51 % 1016,9 hPa 0,0 mm 1,3 km/h (1 Bft) SO 142 0 min 0,000 mm 0,0 UV-I 40 W/m 14,4 C 3,2 km/h (1 Bft)
23.06.2016 20:33 25,3 C 25,3 C 53 % 1016,9 hPa 0,0 mm 1,7 km/h (1 Bft) SO 142 0 min 0,000 mm 0,0 UV-I 40 W/m 15,0 C 3,2 km/h (1 Bft)
23.06.2016 20:34 25,2 C 25,3 C 52 % 1016,9 hPa 0,0 mm 1,8 km/h (1 Bft) SO 142 0 min 0,000 mm 0,0 UV-I 37 W/m 14,6 C 3,2 km/h (1 Bft)
23.06.2016 20:35 25,1 C 25,2 C 51 % 1016,9 hPa 0,0 mm 1,5 km/h (1 Bft) SO 142 0 min 0,000 mm 0,0 UV-I 35 W/m 14,2 C 3,2 km/h (1 Bft)
23.06.2016 20:36 25,0 C 25,1 C 52 % 1016,9 hPa 0,0 mm 0,7 km/h (0 Bft) SO 142 0 min 0,000 mm 0,0 UV-I 33 W/m 14,4 C 1,6 km/h (1 Bft)
23.06.2016 20:37 24,9 C 25,0 C 52 % 1016,9 hPa 0,0 mm 0,9 km/h (0 Bft) SO 142 0 min 0,000 mm 0,0 UV-I 32 W/m 14,4 C 3,2 km/h (1 Bft)
23.06.2016 20:38 24,9 C 24,9 C 53 % 1016,9 hPa 0,0 mm 1,0 km/h (0 Bft) SO 142 0 min 0,000 mm 0,0 UV-I 26 W/m 14,6 C 1,6 km/h (1 Bft)
23.06.2016 20:39 24,9 C 24,9 C 52 % 1017,0 hPa 0,0 mm 1,5 km/h (1 Bft) SO 142 0 min 0,000 mm 0,0 UV-I 23 W/m 14,4 C 3,2 km/h (1 Bft)
23.06.2016 20:40 24,9 C 24,9 C 52 % 1016,9 hPa 0,0 mm 1,5 km/h (1 Bft) SO 142 0 min 0,000 mm 0,0 UV-I 19 W/m 14,4 C 3,2 km/h (1 Bft)
23.06.2016 20:41 24,8 C 24,9 C 51 % 1016,9 hPa 0,0 mm 0,9 km/h (0 Bft) SO 142 0 min 0,000 mm 0,0 UV-I 19 W/m 14,0 C 1,6 km/h (1 Bft)
23.06.2016 20:42 24,7 C 24,8 C 52 % 1016,9 hPa 0,0 mm 1,3 km/h (1 Bft) SO 142 0 min 0,000 mm 0,0 UV-I 18 W/m 14,2 C 3,2 km/h (1 Bft)
23.06.2016 20:43 24,7 C 24,7 C 53 % 1016,9 hPa 0,0 mm 1,3 km/h (1 Bft) SO 142 0 min 0,000 mm 0,0 UV-I 18 W/m 14,5 C 3,2 km/h (1 Bft)
23.06.2016 20:44 24,7 C 24,7 C 52 % 1017,0 hPa 0,0 mm 2,1 km/h (1 Bft) SO 142 0 min 0,000 mm 0,0 UV-I 18 W/m 14,2 C 3,2 km/h (1 Bft)
23.06.2016 20:45 24,7 C 24,7 C 52 % 1017,0 hPa 0,0 mm 1,1 km/h (1 Bft) SO 142 0 min 0,000 mm 0,0 UV-I 18 W/m 14,2 C 1,6 km/h (1 Bft)
23.06.2016 20:46 24,7 C 24,7 C 51 % 1017,0 hPa 0,0 mm 2,2 km/h (1 Bft) SO 142 0 min 0,000 mm 0,0 UV-I 18 W/m 13,9 C 4,8 km/h (1 Bft)
23.06.2016 20:47 24,7 C 24,7 C 54 % 1017,0 hPa 0,0 mm 1,3 km/h (1 Bft) SO 143 0 min 0,000 mm 0,0 UV-I 16 W/m 14,8 C 3,2 km/h (1 Bft)
23.06.2016 20:48 24,6 C 24,7 C 51 % 1017,0 hPa 0,0 mm 2,2 km/h (1 Bft) SO 143 0 min 0,000 mm 0,0 UV-I 16 W/m 13,8 C 3,2 km/h (1 Bft)
23.06.2016 20:49 24,6 C 24,6 C 52 % 1017,0 hPa 0,0 mm 1,1 km/h (1 Bft) SO 144 0 min 0,000 mm 0,0 UV-I 16 W/m 14,1 C 3,2 km/h (1 Bft)
23.06.2016 20:50 24,5 C 24,6 C 55 % 1017,0 hPa 0,0 mm 0,9 km/h (0 Bft) SO 144 0 min 0,000 mm 0,0 UV-I 16 W/m 14,9 C 1,6 km/h (1 Bft)
23.06.2016 20:51 24,3 C 24,5 C 56 % 1017,0 hPa 0,0 mm 1,2 km/h (1 Bft) SO 144 0 min 0,000 mm 0,0 UV-I 16 W/m 14,9 C 3,2 km/h (1 Bft)
23.06.2016 20:52 24,2 C 24,3 C 54 % 1017,0 hPa 0,0 mm 0,9 km/h (0 Bft) S-SO 149 0 min 0,000 mm 0,0 UV-I 14 W/m 14,3 C 3,2 km/h (1 Bft)
23.06.2016 20:53 23,9 C 24,2 C 56 % 1017,0 hPa 0,0 mm 1,2 km/h (1 Bft) S-SO 149 0 min 0,000 mm 0,0 UV-I 14 W/m 14,6 C 1,6 km/h (1 Bft)
23.06.2016 20:54 23,6 C 23,9 C 58 % 1017,0 hPa 0,0 mm 0,8 km/h (0 Bft) S-SO 149 0 min 0,000 mm 0,0 UV-I 14 W/m 14,8 C 1,6 km/h (1 Bft)
23.06.2016 20:55 23,3 C 23,6 C 57 % 1017,0 hPa 0,0 mm 0,7 km/h (0 Bft) S-SO 149 0 min 0,000 mm 0,0 UV-I 14 W/m 14,3 C 1,6 km/h (1 Bft)
23.06.2016 20:56 23,3 C 23,4 C 59 % 1017,0 hPa 0,0 mm 0,1 km/h (0 Bft) S-SO 149 0 min 0,000 mm 0,0 UV-I 14 W/m 14,8 C 1,6 km/h (1 Bft)
23.06.2016 20:57 23,1 C 23,3 C 60 % 1017,0 hPa 0,0 mm 0,8 km/h (0 Bft) S-SO 149 0 min 0,000 mm 0,0 UV-I 12 W/m 14,9 C 1,6 km/h (1 Bft)
23.06.2016 20:58 22,8 C 23,1 C 61 % 1017,0 hPa 0,0 mm 0,5 km/h (0 Bft) S-SO 149 0 min 0,000 mm 0,0 UV-I 12 W/m 14,9 C 1,6 km/h (1 Bft)
23.06.2016 20:59 22,7 C 22,8 C 60 % 1017,0 hPa 0,0 mm 0,1 km/h (0 Bft) S-SO 149 0 min 0,000 mm 0,0 UV-I 12 W/m 14,5 C 1,6 km/h (1 Bft)
23.06.2016 21:00 22,6 C 22,7 C 62 % 1017,0 hPa 0,0 mm 0,1 km/h (0 Bft) S-SO 149 0 min 0,051 mm 0,0 UV-I 12 W/m 14,9 C 1,6 km/h (1 Bft)
23.06.2016 21:01 22,3 C 22,6 C 62 % 1017,0 hPa 0,0 mm 0,3 km/h (0 Bft) S-SO 149 0 min 0,000 mm 0,0 UV-I 12 W/m 14,7 C 1,6 km/h (1 Bft)
23.06.2016 21:02 22,3 C 22,3 C 62 % 1017,0 hPa 0,0 mm 0,0 km/h (0 Bft) S-SO 149 0 min 0,000 mm 0,0 UV-I 12 W/m 14,7 C 0,0 km/h (0 Bft)
23.06.2016 21:03 22,3 C 22,3 C 62 % 1017,0 hPa 0,0 mm 0,0 km/h (0 Bft) S-SO 149 0 min 0,000 mm 0,0 UV-I 11 W/m 14,7 C 0,0 km/h (0 Bft)
23.06.2016 21:04 22,3 C 22,3 C 62 % 1017,0 hPa 0,0 mm 0,0 km/h (0 Bft) S-SO 149 0 min 0,000 mm 0,0 UV-I 11 W/m 14,7 C 0,0 km/h (0 Bft)
23.06.2016 21:05 22,3 C 22,3 C 61 % 1017,0 hPa 0,0 mm 0,0 km/h (0 Bft) S-SO 149 0 min 0,000 mm 0,0 UV-I 9 W/m 14,4 C 0,0 km/h (0 Bft)
23.06.2016 21:06 22,3 C 22,3 C 62 % 1017,1 hPa 0,0 mm 0,0 km/h (0 Bft) S-SO 149 0 min 0,000 mm 0,0 UV-I 9 W/m 14,7 C 0,0 km/h (0 Bft)
23.06.2016 21:07 22,3 C 22,3 C 61 % 1017,0 hPa 0,0 mm 0,0 km/h (0 Bft) S-SO 149 0 min 0,000 mm 0,0 UV-I 7 W/m 14,4 C 0,0 km/h (0 Bft)
23.06.2016 21:08 22,3 C 22,3 C 61 % 1017,1 hPa 0,0 mm 0,0 km/h (0 Bft) S-SO 149 0 min 0,000 mm 0,0 UV-I 7 W/m 14,4 C 0,0 km/h (0 Bft)
23.06.2016 21:09 22,4 C 22,4 C 61 % 1017,1 hPa 0,0 mm 0,5 km/h (0 Bft) S-SO 149 0 min 0,000 mm 0,0 UV-I 7 W/m 14,5 C 1,6 km/h (1 Bft)
23.06.2016 21:10 22,4 C 22,4 C 61 % 1017,1 hPa 0,0 mm 0,5 km/h (0 Bft) S-SO 149 0 min 0,000 mm 0,0 UV-I 7 W/m 14,5 C 1,6 km/h (1 Bft)
23.06.2016 21:11 22,5 C 22,5 C 61 % 1017,1 hPa 0,0 mm 0,5 km/h (0 Bft) S-SO 149 0 min 0,000 mm 0,0 UV-I 5 W/m 14,6 C 1,6 km/h (1 Bft)
23.06.2016 21:12 22,6 C 22,6 C 60 % 1017,1 hPa 0,0 mm 0,3 km/h (0 Bft) S-SO 149 0 min 0,000 mm 0,0 UV-I 5 W/m 14,4 C 1,6 km/h (1 Bft)
23.06.2016 21:13 22,6 C 22,6 C 61 % 1017,1 hPa 0,0 mm 0,4 km/h (0 Bft) S-SO 149 0 min 0,000 mm 0,0 UV-I 5 W/m 14,7 C 1,6 km/h (1 Bft)
23.06.2016 21:14 22,6 C 22,6 C 60 % 1017,1 hPa 0,0 mm 0,1 km/h (0 Bft) S-SO 149 0 min 0,000 mm 0,0 UV-I 5 W/m 14,4 C 1,6 km/h (1 Bft)
23.06.2016 21:15 22,6 C 22,6 C 61 % 1017,1 hPa 0,0 mm 0,5 km/h (0 Bft) S-SO 149 0 min 0,000 mm 0,0 UV-I 5 W/m 14,7 C 1,6 km/h (1 Bft)
23.06.2016 21:16 22,5 C 22,6 C 61 % 1017,1 hPa 0,0 mm 0,1 km/h (0 Bft) S-SO 149 0 min 0,000 mm 0,0 UV-I 5 W/m 14,6 C 1,6 km/h (1 Bft)
23.06.2016 21:17 22,6 C 22,6 C 61 % 1017,1 hPa 0,0 mm 0,6 km/h (0 Bft) S-SO 149 0 min 0,000 mm 0,0 UV-I 5 W/m 14,7 C 1,6 km/h (1 Bft)
23.06.2016 21:18 22,6 C 22,6 C 61 % 1017,1 hPa 0,0 mm 1,1 km/h (1 Bft) S-SO 149 0 min 0,000 mm 0,0 UV-I 5 W/m 14,7 C 1,6 km/h (1 Bft)
23.06.2016 21:19 22,6 C 22,6 C 61 % 1017,1 hPa 0,0 mm 0,8 km/h (0 Bft) S-SO 149 0 min 0,000 mm 0,0 UV-I 0 W/m 14,7 C 1,6 km/h (1 Bft)
23.06.2016 21:20 22,6 C 22,6 C 61 % 1017,1 hPa 0,0 mm 0,5 km/h (0 Bft) S-SO 149 0 min 0,000 mm 0,0 UV-I 0 W/m 14,7 C 1,6 km/h (1 Bft)
23.06.2016 21:21 22,4 C 22,6 C 63 % 1017,1 hPa 0,0 mm 0,2 km/h (0 Bft) S-SO 149 0 min 0,000 mm 0,0 UV-I 0 W/m 15,0 C 1,6 km/h (1 Bft)
23.06.2016 21:22 22,2 C 22,4 C 63 % 1017,1 hPa 0,0 mm 0,8 km/h (0 Bft) S-SO 149 0 min 0,000 mm 0,0 UV-I 0 W/m 14,8 C 1,6 km/h (1 Bft)
23.06.2016 21:23 21,9 C 22,2 C 63 % 1017,2 hPa 0,0 mm 0,7 km/h (0 Bft) S-SO 149 0 min 0,000 mm 0,0 UV-I 0 W/m 14,5 C 1,6 km/h (1 Bft)
23.06.2016 21:24 21,8 C 21,9 C 65 % 1017,2 hPa 0,0 mm 0,1 km/h (0 Bft) S-SO 149 0 min 0,000 mm 0,0 UV-I 0 W/m 14,9 C 1,6 km/h (1 Bft)
23.06.2016 21:25 21,6 C 21,8 C 65 % 1017,2 hPa 0,0 mm 1,1 km/h (1 Bft) S-SO 149 0 min 0,000 mm 0,0 UV-I 0 W/m 14,7 C 1,6 km/h (1 Bft)
23.06.2016 21:26 21,5 C 21,6 C 64 % 1017,2 hPa 0,0 mm 1,0 km/h (0 Bft) S-SO 149 0 min 0,000 mm 0,0 UV-I 0 W/m 14,4 C 1,6 km/h (1 Bft)
23.06.2016 21:27 21,6 C 21,6 C 64 % 1017,2 hPa 0,0 mm 0,4 km/h (0 Bft) S-SO 149 0 min 0,000 mm 0,0 UV-I 0 W/m 14,5 C 1,6 km/h (1 Bft)
23.06.2016 21:28 21,7 C 21,7 C 63 % 1017,2 hPa 0,0 mm 1,1 km/h (1 Bft) S-SO 149 0 min 0,000 mm 0,0 UV-I 0 W/m 14,3 C 1,6 km/h (1 Bft)
23.06.2016 21:29 21,8 C 21,8 C 63 % 1017,2 hPa 0,0 mm 0,6 km/h (0 Bft) S-SO 149 0 min 0,000 mm 0,0 UV-I 0 W/m 14,4 C 1,6 km/h (1 Bft)
23.06.2016 21:30 21,8 C 21,8 C 64 % 1017,2 hPa 0,0 mm 0,1 km/h (0 Bft) S-SO 149 0 min 0,000 mm 0,0 UV-I 0 W/m 14,7 C 1,6 km/h (1 Bft)
23.06.2016 21:31 21,6 C 21,8 C 64 % 1017,2 hPa 0,0 mm 0,0 km/h (0 Bft) S-SO 149 0 min 0,000 mm 0,0 UV-I 0 W/m 14,5 C 0,0 km/h (0 Bft)
23.06.2016 21:32 21,5 C 21,6 C 65 % 1017,2 hPa 0,0 mm 0,2 km/h (0 Bft) S-SO 149 0 min 0,000 mm 0,0 UV-I 0 W/m 14,6 C 1,6 km/h (1 Bft)
23.06.2016 21:33 21,3 C 21,5 C 66 % 1017,3 hPa 0,0 mm 0,0 km/h (0 Bft) S-SO 149 0 min 0,000 mm 0,0 UV-I 0 W/m 14,7 C 0,0 km/h (0 Bft)
23.06.2016 21:34 21,1 C 21,3 C 66 % 1017,3 hPa 0,0 mm 0,0 km/h (0 Bft) S-SO 149 0 min 0,000 mm 0,0 UV-I 0 W/m 14,5 C 0,0 km/h (0 Bft)
23.06.2016 21:35 20,9 C 21,1 C 66 % 1017,3 hPa 0,0 mm 0,0 km/h (0 Bft) S-SO 149 0 min 0,000 mm 0,0 UV-I 0 W/m 14,3 C 0,0 km/h (0 Bft)
23.06.2016 21:36 20,8 C 20,9 C 70 % 1017,3 hPa 0,0 mm 0,0 km/h (0 Bft) S-SO 149 0 min 0,000 mm 0,0 UV-I 0 W/m 15,1 C 0,0 km/h (0 Bft)
23.06.2016 21:37 20,7 C 20,8 C 68 % 1017,3 hPa 0,0 mm 0,0 km/h (0 Bft) S-SO 149 0 min 0,000 mm 0,0 UV-I 0 W/m 14,6 C 0,0 km/h (0 Bft)
23.06.2016 21:38 20,6 C 20,7 C 69 % 1017,3 hPa 0,0 mm 0,0 km/h (0 Bft) S-SO 149 0 min 0,000 mm 0,0 UV-I 0 W/m 14,7 C 0,0 km/h (0 Bft)
23.06.2016 21:39 20,6 C 20,6 C 69 % 1017,3 hPa 0,0 mm 0,0 km/h (0 Bft) S-SO 149 0 min 0,000 mm 0,0 UV-I 0 W/m 14,7 C 0,0 km/h (0 Bft)
23.06.2016 21:40 20,5 C 20,6 C 69 % 1017,3 hPa 0,0 mm 0,0 km/h (0 Bft) S-SO 149 0 min 0,000 mm 0,0 UV-I 0 W/m 14,6 C 0,0 km/h (0 Bft)
23.06.2016 21:41 20,6 C 20,6 C 68 % 1017,3 hPa 0,0 mm 0,5 km/h (0 Bft) S-SO 149 0 min 0,000 mm 0,0 UV-I 0 W/m 14,5 C 1,6 km/h (1 Bft)
23.06.2016 21:42 20,7 C 20,7 C 68 % 1017,3 hPa 0,0 mm 0,7 km/h (0 Bft) S-SO 149 0 min 0,000 mm 0,0 UV-I 0 W/m 14,6 C 1,6 km/h (1 Bft)
23.06.2016 21:43 20,8 C 20,8 C 67 % 1017,3 hPa 0,0 mm 0,2 km/h (0 Bft) S-SO 149 0 min 0,000 mm 0,0 UV-I 0 W/m 14,4 C 1,6 km/h (1 Bft)
23.06.2016 21:44 20,8 C 20,8 C 68 % 1017,3 hPa 0,0 mm 0,0 km/h (0 Bft) S-SO 149 0 min 0,000 mm 0,0 UV-I 0 W/m 14,7 C 0,0 km/h (0 Bft)
23.06.2016 21:45 20,7 C 20,8 C 68 % 1017,3 hPa 0,0 mm 0,0 km/h (0 Bft) S-SO 149 0 min 0,000 mm 0,0 UV-I 0 W/m 14,6 C 0,0 km/h (0 Bft)
23.06.2016 21:46 20,6 C 20,7 C 69 % 1017,4 hPa 0,0 mm 0,0 km/h (0 Bft) S-SO 149 0 min 0,000 mm 0,0 UV-I 0 W/m 14,7 C 0,0 km/h (0 Bft)
23.06.2016 21:47 20,5 C 20,6 C 68 % 1017,4 hPa 0,0 mm 0,1 km/h (0 Bft) S-SO 149 0 min 0,000 mm 0,0 UV-I 0 W/m 14,4 C 1,6 km/h (1 Bft)
23.06.2016 21:48 20,5 C 20,5 C 69 % 1017,4 hPa 0,0 mm 0,0 km/h (0 Bft) S-SO 149 0 min 0,000 mm 0,0 UV-I 0 W/m 14,6 C 0,0 km/h (0 Bft)
23.06.2016 21:49 20,4 C 20,5 C 69 % 1017,4 hPa 0,0 mm 0,0 km/h (0 Bft) S-SO 149 0 min 0,000 mm 0,0 UV-I 0 W/m 14,5 C 0,0 km/h (0 Bft)
23.06.2016 21:50 20,3 C 20,4 C 69 % 1017,4 hPa 0,0 mm 0,0 km/h (0 Bft) S-SO 149 0 min 0,000 mm 0,0 UV-I 0 W/m 14,4 C 0,0 km/h (0 Bft)
23.06.2016 21:51 20,2 C 20,3 C 71 % 1017,4 hPa 0,0 mm 0,0 km/h (0 Bft) S-SO 149 0 min 0,000 mm 0,0 UV-I 0 W/m 14,8 C 0,0 km/h (0 Bft)
23.06.2016 21:52 20,1 C 20,2 C 71 % 1017,4 hPa 0,0 mm 0,0 km/h (0 Bft) S-SO 149 0 min 0,000 mm 0,0 UV-I 0 W/m 14,7 C 0,0 km/h (0 Bft)
23.06.2016 21:53 20,0 C 20,1 C 71 % 1017,4 hPa 0,0 mm 0,0 km/h (0 Bft) S-SO 149 0 min 0,000 mm 0,0 UV-I 0 W/m 14,6 C 0,0 km/h (0 Bft)
23.06.2016 21:54 19,9 C 20,0 C 72 % 1017,4 hPa 0,0 mm 0,0 km/h (0 Bft) S-SO 149 0 min 0,000 mm 0,0 UV-I 0 W/m 14,7 C 0,0 km/h (0 Bft)
23.06.2016 21:55 19,8 C 19,9 C 72 % 1017,4 hPa 0,0 mm 0,0 km/h (0 Bft) S-SO 149 0 min 0,000 mm 0,0 UV-I 0 W/m 14,6 C 0,0 km/h (0 Bft)
23.06.2016 21:56 19,8 C 19,8 C 72 % 1017,3 hPa 0,0 mm 0,0 km/h (0 Bft) S-SO 149 0 min 0,000 mm 0,0 UV-I 0 W/m 14,6 C 0,0 km/h (0 Bft)
23.06.2016 21:57 19,7 C 19,8 C 72 % 1017,3 hPa 0,0 mm 0,0 km/h (0 Bft) S-SO 149 0 min 0,000 mm 0,0 UV-I 0 W/m 14,5 C 0,0 km/h (0 Bft)
23.06.2016 21:58 19,7 C 19,7 C 73 % 1017,3 hPa 0,0 mm 0,0 km/h (0 Bft) S-SO 149 0 min 0,000 mm 0,0 UV-I 0 W/m 14,7 C 0,0 km/h (0 Bft)
23.06.2016 21:59 19,7 C 19,7 C 73 % 1017,3 hPa 0,0 mm 0,0 km/h (0 Bft) S-SO 149 0 min 0,000 mm 0,0 UV-I 0 W/m 14,7 C 0,0 km/h (0 Bft)
23.06.2016 22:00 19,7 C 19,7 C 72 % 1017,4 hPa 0,0 mm 0,2 km/h (0 Bft) S-SO 149 0 min 0,000 mm 0,0 UV-I 0 W/m 14,5 C 1,6 km/h (1 Bft)
23.06.2016 22:01 19,7 C 19,7 C 73 % 1017,4 hPa 0,0 mm 0,0 km/h (0 Bft) S-SO 149 0 min 0,000 mm 0,0 UV-I 0 W/m 14,7 C 0,0 km/h (0 Bft)
23.06.2016 22:02 19,7 C 19,7 C 73 % 1017,4 hPa 0,0 mm 0,0 km/h (0 Bft) S-SO 149 0 min 0,000 mm 0,0 UV-I 0 W/m 14,7 C 0,0 km/h (0 Bft)
23.06.2016 22:03 19,6 C 19,7 C 74 % 1017,4 hPa 0,0 mm 0,1 km/h (0 Bft) S-SO 149 0 min 0,000 mm 0,0 UV-I 0 W/m 14,8 C 1,6 km/h (1 Bft)
23.06.2016 22:04 19,5 C 19,6 C 74 % 1017,4 hPa 0,0 mm 0,0 km/h (0 Bft) S-SO 149 0 min 0,000 mm 0,0 UV-I 0 W/m 14,7 C 0,0 km/h (0 Bft)
23.06.2016 22:05 19,4 C 19,5 C 74 % 1017,4 hPa 0,0 mm 0,0 km/h (0 Bft) S-SO 149 0 min 0,000 mm 0,0 UV-I 0 W/m 14,6 C 0,0 km/h (0 Bft)
23.06.2016 22:06 19,5 C 19,5 C 74 % 1017,4 hPa 0,0 mm 0,0 km/h (0 Bft) S-SO 149 0 min 0,000 mm 0,0 UV-I 0 W/m 14,7 C 0,0 km/h (0 Bft)
23.06.2016 22:07 19,4 C 19,5 C 74 % 1017,4 hPa 0,0 mm 0,0 km/h (0 Bft) S-SO 149 0 min 0,000 mm 0,0 UV-I 0 W/m 14,6 C 0,0 km/h (0 Bft)
23.06.2016 22:08 19,4 C 19,4 C 74 % 1017,4 hPa 0,0 mm 0,0 km/h (0 Bft) S-SO 149 0 min 0,000 mm 0,0 UV-I 0 W/m 14,6 C 0,0 km/h (0 Bft)
23.06.2016 22:09 19,4 C 19,4 C 74 % 1017,4 hPa 0,0 mm 0,0 km/h (0 Bft) S-SO 149 0 min 0,000 mm 0,0 UV-I 0 W/m 14,6 C 0,0 km/h (0 Bft)
23.06.2016 22:10 19,4 C 19,4 C 75 % 1017,3 hPa 0,0 mm 0,0 km/h (0 Bft) S-SO 149 0 min 0,000 mm 0,0 UV-I 0 W/m 14,8 C 0,0 km/h (0 Bft)
23.06.2016 22:11 19,3 C 19,4 C 76 % 1017,3 hPa 0,0 mm 0,0 km/h (0 Bft) S-SO 149 0 min 0,000 mm 0,0 UV-I 0 W/m 15,0 C 0,0 km/h (0 Bft)
23.06.2016 22:12 19,3 C 19,3 C 76 % 1017,3 hPa 0,0 mm 0,0 km/h (0 Bft) S-SO 149 0 min 0,000 mm 0,0 UV-I 0 W/m 15,0 C 0,0 km/h (0 Bft)
23.06.2016 22:13 19,3 C 19,3 C 76 % 1017,3 hPa 0,0 mm 0,0 km/h (0 Bft) S-SO 149 0 min 0,000 mm 0,0 UV-I 0 W/m 15,0 C 0,0 km/h (0 Bft)
23.06.2016 22:14 19,3 C 19,3 C 76 % 1017,3 hPa 0,0 mm 0,0 km/h (0 Bft) S-SO 149 0 min 0,000 mm 0,0 UV-I 0 W/m 15,0 C 0,0 km/h (0 Bft)
23.06.2016 22:15 19,3 C 19,3 C 76 % 1017,3 hPa 0,0 mm 0,0 km/h (0 Bft) S-SO 149 0 min 0,000 mm 0,0 UV-I 0 W/m 15,0 C 0,0 km/h (0 Bft)
23.06.2016 22:16 19,2 C 19,3 C 77 % 1017,3 hPa 0,0 mm 0,0 km/h (0 Bft) S-SO 149 0 min 0,000 mm 0,0 UV-I 0 W/m 15,1 C 0,0 km/h (0 Bft)
23.06.2016 22:17 19,2 C 19,2 C 76 % 1017,3 hPa 0,0 mm 0,0 km/h (0 Bft) S-SO 149 0 min 0,000 mm 0,0 UV-I 0 W/m 14,9 C 0,0 km/h (0 Bft)
23.06.2016 22:18 19,2 C 19,2 C 77 % 1017,3 hPa 0,0 mm 0,0 km/h (0 Bft) S-SO 149 0 min 0,000 mm 0,0 UV-I 0 W/m 15,1 C 0,0 km/h (0 Bft)
23.06.2016 22:19 19,1 C 19,2 C 77 % 1017,3 hPa 0,0 mm 0,0 km/h (0 Bft) S-SO 149 0 min 0,000 mm 0,0 UV-I 0 W/m 15,0 C 0,0 km/h (0 Bft)
23.06.2016 22:20 18,9 C 19,1 C 77 % 1017,3 hPa 0,0 mm 0,0 km/h (0 Bft) S-SO 149 0 min 0,000 mm 0,0 UV-I 0 W/m 14,8 C 0,0 km/h (0 Bft)
23.06.2016 22:21 18,8 C 18,9 C 78 % 1017,3 hPa 0,0 mm 0,0 km/h (0 Bft) S-SO 149 0 min 0,000 mm 0,0 UV-I 0 W/m 14,9 C 0,0 km/h (0 Bft)
23.06.2016 22:22 18,7 C 18,8 C 78 % 1017,3 hPa 0,0 mm 0,0 km/h (0 Bft) N 0 0 min 0,000 mm 0,0 UV-I 0 W/m 14,8 C 0,0 km/h (0 Bft)
23.06.2016 22:23 18,6 C 18,7 C 79 % 1017,2 hPa 0,0 mm 0,0 km/h (0 Bft) N 0 0 min 0,000 mm 0,0 UV-I 0 W/m 14,9 C 0,0 km/h (0 Bft)
23.06.2016 22:24 18,6 C 18,6 C 79 % 1017,2 hPa 0,0 mm 0,0 km/h (0 Bft) N 0 0 min 0,000 mm 0,0 UV-I 0 W/m 14,9 C 0,0 km/h (0 Bft)
23.06.2016 22:25 18,6 C 18,6 C 79 % 1017,2 hPa 0,0 mm 0,0 km/h (0 Bft) N 0 0 min 0,000 mm 0,0 UV-I 0 W/m 14,9 C 0,0 km/h (0 Bft)
23.06.2016 22:26 18,6 C 18,6 C 79 % 1017,2 hPa 0,0 mm 0,0 km/h (0 Bft) N 0 0 min 0,000 mm 0,0 UV-I 0 W/m 14,9 C 0,0 km/h (0 Bft)
23.06.2016 22:27 18,6 C 18,6 C 79 % 1017,2 hPa 0,0 mm 0,0 km/h (0 Bft) N 0 0 min 0,000 mm 0,0 UV-I 0 W/m 14,9 C 0,0 km/h (0 Bft)
23.06.2016 22:28 18,6 C 18,6 C 79 % 1017,2 hPa 0,0 mm 0,0 km/h (0 Bft) N 0 0 min 0,000 mm 0,0 UV-I 0 W/m 14,9 C 0,0 km/h (0 Bft)
23.06.2016 22:29 18,5 C 18,6 C 80 % 1017,3 hPa 0,0 mm 0,0 km/h (0 Bft) N 0 0 min 0,000 mm 0,0 UV-I 0 W/m 15,0 C 0,0 km/h (0 Bft)
23.06.2016 22:30 18,4 C 18,5 C 80 % 1017,3 hPa 0,0 mm 0,0 km/h (0 Bft) N 0 0 min 0,000 mm 0,0 UV-I 0 W/m 14,9 C 0,0 km/h (0 Bft)
23.06.2016 22:31 18,4 C 18,4 C 80 % 1017,2 hPa 0,0 mm 0,0 km/h (0 Bft) N 0 0 min 0,000 mm 0,0 UV-I 0 W/m 14,9 C 0,0 km/h (0 Bft)
23.06.2016 22:32 18,4 C 18,4 C 80 % 1017,2 hPa 0,0 mm 0,0 km/h (0 Bft) N 0 0 min 0,000 mm 0,0 UV-I 0 W/m 14,9 C 0,0 km/h (0 Bft)
23.06.2016 22:33 18,4 C 18,4 C 80 % 1017,3 hPa 0,0 mm 0,0 km/h (0 Bft) S-SO 157 0 min 0,000 mm 0,0 UV-I 0 W/m 14,9 C 1,6 km/h (1 Bft)
23.06.2016 22:35 18,3 C 18,4 C 81 % 1017,2 hPa 0,0 mm 0,0 km/h (0 Bft) S-SO 149 0 min 0,000 mm 0,0 UV-I 0 W/m 15,0 C 0,0 km/h (0 Bft)
23.06.2016 22:36 18,3 C 18,3 C 81 % 1017,3 hPa 0,0 mm 0,0 km/h (0 Bft) S-SO 149 0 min 0,000 mm 0,0 UV-I 0 W/m 15,0 C 0,0 km/h (0 Bft)
23.06.2016 22:37 18,3 C 18,3 C 81 % 1017,2 hPa 0,0 mm 0,0 km/h (0 Bft) S-SO 149 0 min 0,000 mm 0,0 UV-I 0 W/m 15,0 C 0,0 km/h (0 Bft)
23.06.2016 22:38 18,3 C 18,3 C 81 % 1017,2 hPa 0,0 mm 0,0 km/h (0 Bft) S-SO 149 0 min 0,000 mm 0,0 UV-I 0 W/m 15,0 C 0,0 km/h (0 Bft)
23.06.2016 22:39 18,3 C 18,3 C 79 % 1017,2 hPa 0,0 mm 0,0 km/h (0 Bft) S-SO 149 0 min 0,000 mm 0,0 UV-I 0 W/m 14,6 C 0,0 km/h (0 Bft)
23.06.2016 22:40 18,3 C 18,3 C 81 % 1017,3 hPa 0,0 mm 0,0 km/h (0 Bft) S-SO 149 0 min 0,000 mm 0,0 UV-I 0 W/m 15,0 C 0,0 km/h (0 Bft)
23.06.2016 22:41 18,2 C 18,3 C 81 % 1017,2 hPa 0,0 mm 0,0 km/h (0 Bft) S-SO 149 0 min 0,000 mm 0,0 UV-I 0 W/m 14,9 C 0,0 km/h (0 Bft)
23.06.2016 22:42 18,1 C 18,2 C 81 % 1017,2 hPa 0,0 mm 0,0 km/h (0 Bft) S-SO 149 0 min 0,000 mm 0,0 UV-I 0 W/m 14,8 C 0,0 km/h (0 Bft)
23.06.2016 22:43 18,0 C 18,1 C 81 % 1017,2 hPa 0,0 mm 0,0 km/h (0 Bft) S-SO 149 0 min 0,000 mm 0,0 UV-I 0 W/m 14,7 C 0,0 km/h (0 Bft)
23.06.2016 22:44 17,9 C 18,0 C 79 % 1017,2 hPa 0,0 mm 0,0 km/h (0 Bft) S-SO 149 0 min 0,000 mm 0,0 UV-I 0 W/m 14,2 C 0,0 km/h (0 Bft)
23.06.2016 22:45 17,9 C 17,9 C 79 % 1017,2 hPa 0,0 mm 0,0 km/h (0 Bft) S-SO 149 0 min 0,000 mm 0,0 UV-I 0 W/m 14,2 C 0,0 km/h (0 Bft)
23.06.2016 22:46 17,9 C 17,9 C 83 % 1017,2 hPa 0,0 mm 0,0 km/h (0 Bft) S-SO 149 0 min 0,000 mm 0,0 UV-I 0 W/m 15,0 C 0,0 km/h (0 Bft)
23.06.2016 22:47 17,8 C 17,9 C 82 % 1017,2 hPa 0,0 mm 0,0 km/h (0 Bft) S-SO 149 0 min 0,000 mm 0,0 UV-I 0 W/m 14,7 C 0,0 km/h (0 Bft)
23.06.2016 22:48 17,7 C 17,8 C 82 % 1017,2 hPa 0,0 mm 0,0 km/h (0 Bft) S-SO 149 0 min 0,000 mm 0,0 UV-I 0 W/m 14,6 C 0,0 km/h (0 Bft)
23.06.2016 22:49 17,7 C 17,7 C 83 % 1017,2 hPa 0,0 mm 0,0 km/h (0 Bft) S-SO 149 0 min 0,000 mm 0,0 UV-I 0 W/m 14,8 C 0,0 km/h (0 Bft)
23.06.2016 22:50 17,6 C 17,7 C 83 % 1017,2 hPa 0,0 mm 0,0 km/h (0 Bft) S-SO 149 0 min 0,000 mm 0,0 UV-I 0 W/m 14,7 C 0,0 km/h (0 Bft)
23.06.2016 22:51 17,6 C 17,6 C 82 % 1017,2 hPa 0,0 mm 0,0 km/h (0 Bft) S-SO 149 0 min 0,000 mm 0,0 UV-I 0 W/m 14,5 C 0,0 km/h (0 Bft)
23.06.2016 22:52 17,6 C 17,6 C 82 % 1017,2 hPa 0,0 mm 0,0 km/h (0 Bft) S-SO 149 0 min 0,000 mm 0,0 UV-I 0 W/m 14,5 C 0,0 km/h (0 Bft)
23.06.2016 22:53 17,6 C 17,6 C 83 % 1017,1 hPa 0,0 mm 0,0 km/h (0 Bft) S-SO 149 0 min 0,000 mm 0,0 UV-I 0 W/m 14,7 C 0,0 km/h (0 Bft)
23.06.2016 22:54 17,6 C 17,6 C 84 % 1017,1 hPa 0,0 mm 0,0 km/h (0 Bft) S-SO 149 0 min 0,000 mm 0,0 UV-I 0 W/m 14,9 C 0,0 km/h (0 Bft)
23.06.2016 22:55 17,6 C 17,6 C 84 % 1017,2 hPa 0,0 mm 0,3 km/h (0 Bft) S-SO 149 0 min 0,000 mm 0,0 UV-I 0 W/m 14,9 C 1,6 km/h (1 Bft)
23.06.2016 22:56 17,6 C 17,6 C 84 % 1017,1 hPa 0,0 mm 1,1 km/h (1 Bft) S-SO 149 0 min 0,000 mm 0,0 UV-I 0 W/m 14,9 C 1,6 km/h (1 Bft)
23.06.2016 22:57 17,6 C 17,6 C 80 % 1017,1 hPa 0,0 mm 0,8 km/h (0 Bft) S-SO 149 0 min 0,000 mm 0,0 UV-I 0 W/m 14,1 C 1,6 km/h (1 Bft)
23.06.2016 22:58 17,8 C 17,8 C 77 % 1017,1 hPa 0,0 mm 0,4 km/h (0 Bft) S-SO 149 0 min 0,000 mm 0,0 UV-I 0 W/m 13,7 C 1,6 km/h (1 Bft)
23.06.2016 22:59 17,9 C 17,9 C 77 % 1017,1 hPa 0,0 mm 0,7 km/h (0 Bft) S-SO 149 0 min 0,000 mm 0,0 UV-I 0 W/m 13,8 C 1,6 km/h (1 Bft)
23.06.2016 23:00 18,1 C 18,1 C 76 % 1017,1 hPa 0,0 mm 0,2 km/h (0 Bft) S-SO 149 0 min 0,000 mm 0,0 UV-I 0 W/m 13,8 C 1,6 km/h (1 Bft)
23.06.2016 23:01 18,2 C 18,2 C 75 % 1017,0 hPa 0,0 mm 0,1 km/h (0 Bft) S-SO 149 0 min 0,026 mm 0,0 UV-I 0 W/m 13,7 C 1,6 km/h (1 Bft)
23.06.2016 23:02 18,3 C 18,3 C 75 % 1017,0 hPa 0,0 mm 0,0 km/h (0 Bft) S-SO 149 0 min 0,000 mm 0,0 UV-I 0 W/m 13,8 C 0,0 km/h (0 Bft)
23.06.2016 23:03 18,4 C 18,4 C 75 % 1017,0 hPa 0,0 mm 0,7 km/h (0 Bft) S-SO 149 0 min 0,000 mm 0,0 UV-I 0 W/m 13,9 C 1,6 km/h (1 Bft)
23.06.2016 23:04 18,5 C 18,5 C 74 % 1017,1 hPa 0,0 mm 0,5 km/h (0 Bft) S-SO 149 0 min 0,000 mm 0,0 UV-I 0 W/m 13,8 C 1,6 km/h (1 Bft)
23.06.2016 23:05 18,6 C 18,6 C 73 % 1017,1 hPa 0,0 mm 0,3 km/h (0 Bft) S-SO 149 0 min 0,000 mm 0,0 UV-I 0 W/m 13,7 C 1,6 km/h (1 Bft)
23.06.2016 23:06 18,7 C 18,7 C 73 % 1017,0 hPa 0,0 mm 0,0 km/h (0 Bft) S-SO 149 0 min 0,000 mm 0,0 UV-I 0 W/m 13,8 C 0,0 km/h (0 Bft)
23.06.2016 23:07 18,6 C 18,7 C 74 % 1017,0 hPa 0,0 mm 0,0 km/h (0 Bft) S-SO 149 0 min 0,000 mm 0,0 UV-I 0 W/m 13,9 C 0,0 km/h (0 Bft)
23.06.2016 23:08 18,4 C 18,6 C 75 % 1017,0 hPa 0,0 mm 0,0 km/h (0 Bft) S-SO 149 0 min 0,000 mm 0,0 UV-I 0 W/m 13,9 C 0,0 km/h (0 Bft)
23.06.2016 23:09 18,3 C 18,4 C 76 % 1017,1 hPa 0,0 mm 0,0 km/h (0 Bft) S-SO 149 0 min 0,000 mm 0,0 UV-I 0 W/m 14,0 C 0,0 km/h (0 Bft)
23.06.2016 23:10 18,1 C 18,3 C 78 % 1017,0 hPa 0,0 mm 0,1 km/h (0 Bft) S-SO 149 0 min 0,000 mm 0,0 UV-I 0 W/m 14,2 C 1,6 km/h (1 Bft)
23.06.2016 23:11 17,9 C 18,1 C 78 % 1017,0 hPa 0,0 mm 0,0 km/h (0 Bft) S-SO 149 0 min 0,000 mm 0,0 UV-I 0 W/m 14,0 C 0,0 km/h (0 Bft)
23.06.2016 23:12 17,8 C 17,9 C 79 % 1017,1 hPa 0,0 mm 0,0 km/h (0 Bft) S-SO 149 0 min 0,000 mm 0,0 UV-I 0 W/m 14,1 C 0,0 km/h (0 Bft)
23.06.2016 23:13 17,7 C 17,8 C 80 % 1017,1 hPa 0,0 mm 0,0 km/h (0 Bft) S-SO 149 0 min 0,000 mm 0,0 UV-I 0 W/m 14,2 C 0,0 km/h (0 Bft)
23.06.2016 23:14 17,6 C 17,7 C 80 % 1017,1 hPa 0,0 mm 0,0 km/h (0 Bft) S-SO 149 0 min 0,000 mm 0,0 UV-I 0 W/m 14,1 C 0,0 km/h (0 Bft)
23.06.2016 23:15 17,6 C 17,6 C 81 % 1017,1 hPa 0,0 mm 0,0 km/h (0 Bft) S-SO 149 0 min 0,000 mm 0,0 UV-I 0 W/m 14,3 C 0,0 km/h (0 Bft)
23.06.2016 23:16 17,6 C 17,6 C 80 % 1017,1 hPa 0,0 mm 0,1 km/h (0 Bft) S-SO 149 0 min 0,000 mm 0,0 UV-I 0 W/m 14,1 C 1,6 km/h (1 Bft)
23.06.2016 23:17 17,5 C 17,6 C 81 % 1017,1 hPa 0,0 mm 0,0 km/h (0 Bft) S-SO 149 0 min 0,000 mm 0,0 UV-I 0 W/m 14,2 C 0,0 km/h (0 Bft)
23.06.2016 23:18 17,5 C 17,5 C 81 % 1017,1 hPa 0,0 mm 0,0 km/h (0 Bft) S-SO 149 0 min 0,000 mm 0,0 UV-I 0 W/m 14,2 C 0,0 km/h (0 Bft)
23.06.2016 23:19 17,4 C 17,5 C 81 % 1017,1 hPa 0,0 mm 0,1 km/h (0 Bft) S-SO 149 0 min 0,000 mm 0,0 UV-I 0 W/m 14,1 C 1,6 km/h (1 Bft)
23.06.2016 23:20 17,4 C 17,4 C 82 % 1017,1 hPa 0,0 mm 0,0 km/h (0 Bft) S-SO 149 0 min 0,000 mm 0,0 UV-I 0 W/m 14,3 C 0,0 km/h (0 Bft)
23.06.2016 23:21 17,3 C 17,4 C 82 % 1017,1 hPa 0,0 mm 0,0 km/h (0 Bft) S-SO 149 0 min 0,000 mm 0,0 UV-I 0 W/m 14,2 C 0,0 km/h (0 Bft)
23.06.2016 23:22 17,3 C 17,3 C 82 % 1017,2 hPa 0,0 mm 0,1 km/h (0 Bft) S-SO 149 0 min 0,000 mm 0,0 UV-I 0 W/m 14,2 C 1,6 km/h (1 Bft)
23.06.2016 23:23 17,3 C 17,3 C 82 % 1017,2 hPa 0,0 mm 0,0 km/h (0 Bft) S-SO 149 0 min 0,000 mm 0,0 UV-I 0 W/m 14,2 C 0,0 km/h (0 Bft)
23.06.2016 23:24 17,2 C 17,3 C 82 % 1017,1 hPa 0,0 mm 0,0 km/h (0 Bft) S-SO 149 0 min 0,000 mm 0,0 UV-I 0 W/m 14,1 C 0,0 km/h (0 Bft)
23.06.2016 23:25 17,2 C 17,2 C 81 % 1017,1 hPa 0,0 mm 0,0 km/h (0 Bft) S-SO 149 0 min 0,000 mm 0,0 UV-I 0 W/m 13,9 C 0,0 km/h (0 Bft)
23.06.2016 23:26 17,3 C 17,3 C 81 % 1017,1 hPa 0,0 mm 0,5 km/h (0 Bft) S-SO 159 0 min 0,000 mm 0,0 UV-I 0 W/m 14,0 C 1,6 km/h (1 Bft)
23.06.2016 23:27 17,3 C 17,3 C 81 % 1017,1 hPa 0,0 mm 0,2 km/h (0 Bft) S-SO 159 0 min 0,000 mm 0,0 UV-I 0 W/m 14,0 C 1,6 km/h (1 Bft)
23.06.2016 23:28 17,3 C 17,3 C 80 % 1017,1 hPa 0,0 mm 0,1 km/h (0 Bft) S-SO 159 0 min 0,000 mm 0,0 UV-I 0 W/m 13,8 C 1,6 km/h (1 Bft)
23.06.2016 23:29 17,2 C 17,3 C 80 % 1017,1 hPa 0,0 mm 0,1 km/h (0 Bft) S-SO 159 0 min 0,000 mm 0,0 UV-I 0 W/m 13,7 C 1,6 km/h (1 Bft)
23.06.2016 23:30 17,2 C 17,2 C 80 % 1017,0 hPa 0,0 mm 0,0 km/h (0 Bft) S-SO 159 0 min 0,000 mm 0,0 UV-I 0 W/m 13,7 C 0,0 km/h (0 Bft)
23.06.2016 23:31 17,1 C 17,2 C 80 % 1017,0 hPa 0,0 mm 0,0 km/h (0 Bft) S-SO 159 0 min 0,000 mm 0,0 UV-I 0 W/m 13,6 C 0,0 km/h (0 Bft)
23.06.2016 23:32 17,1 C 17,1 C 81 % 1017,1 hPa 0,0 mm 0,0 km/h (0 Bft) S-SO 159 0 min 0,000 mm 0,0 UV-I 0 W/m 13,8 C 0,0 km/h (0 Bft)
23.06.2016 23:33 17,1 C 17,1 C 82 % 1017,1 hPa 0,0 mm 0,0 km/h (0 Bft) S-SO 159 0 min 0,000 mm 0,0 UV-I 0 W/m 14,0 C 0,0 km/h (0 Bft)
23.06.2016 23:34 17,1 C 17,1 C 82 % 1017,1 hPa 0,0 mm 0,0 km/h (0 Bft) S-SO 159 0 min 0,000 mm 0,0 UV-I 0 W/m 14,0 C 0,0 km/h (0 Bft)
23.06.2016 23:35 17,1 C 17,1 C 82 % 1017,1 hPa 0,0 mm 0,0 km/h (0 Bft) S-SO 159 0 min 0,000 mm 0,0 UV-I 0 W/m 14,0 C 0,0 km/h (0 Bft)
23.06.2016 23:36 17,2 C 17,2 C 82 % 1017,1 hPa 0,0 mm 0,0 km/h (0 Bft) S-SO 159 0 min 0,000 mm 0,0 UV-I 0 W/m 14,1 C 0,0 km/h (0 Bft)
23.06.2016 23:37 17,2 C 17,2 C 81 % 1017,1 hPa 0,0 mm 0,0 km/h (0 Bft) S-SO 159 0 min 0,000 mm 0,0 UV-I 0 W/m 13,9 C 0,0 km/h (0 Bft)
23.06.2016 23:38 17,1 C 17,2 C 80 % 1017,0 hPa 0,0 mm 0,0 km/h (0 Bft) S-SO 159 0 min 0,000 mm 0,0 UV-I 0 W/m 13,6 C 0,0 km/h (0 Bft)
23.06.2016 23:39 17,1 C 17,2 C 82 % 1017,0 hPa 0,0 mm 0,0 km/h (0 Bft) S-SO 159 0 min 0,000 mm 0,0 UV-I 0 W/m 14,0 C 0,0 km/h (0 Bft)
23.06.2016 23:40 17,1 C 17,1 C 82 % 1017,1 hPa 0,0 mm 0,0 km/h (0 Bft) S-SO 159 0 min 0,000 mm 0,0 UV-I 0 W/m 14,0 C 0,0 km/h (0 Bft)
23.06.2016 23:41 17,1 C 17,1 C 81 % 1017,1 hPa 0,0 mm 0,1 km/h (0 Bft) S-SO 159 0 min 0,000 mm 0,0 UV-I 0 W/m 13,8 C 1,6 km/h (1 Bft)
23.06.2016 23:42 17,0 C 17,1 C 80 % 1017,0 hPa 0,0 mm 0,1 km/h (0 Bft) S-SO 159 0 min 0,000 mm 0,0 UV-I 0 W/m 13,5 C 1,6 km/h (1 Bft)
23.06.2016 23:43 17,1 C 17,1 C 80 % 1017,0 hPa 0,0 mm 0,0 km/h (0 Bft) S-SO 159 0 min 0,000 mm 0,0 UV-I 0 W/m 13,6 C 0,0 km/h (0 Bft)
23.06.2016 23:44 17,0 C 17,1 C 81 % 1017,0 hPa 0,0 mm 0,5 km/h (0 Bft) S-SO 159 0 min 0,000 mm 0,0 UV-I 0 W/m 13,7 C 1,6 km/h (1 Bft)
23.06.2016 23:45 17,0 C 17,0 C 81 % 1017,0 hPa 0,0 mm 0,0 km/h (0 Bft) S-SO 159 0 min 0,000 mm 0,0 UV-I 0 W/m 13,7 C 0,0 km/h (0 Bft)
23.06.2016 23:46 17,0 C 17,0 C 81 % 1017,0 hPa 0,0 mm 0,1 km/h (0 Bft) S-SO 159 0 min 0,000 mm 0,0 UV-I 0 W/m 13,7 C 1,6 km/h (1 Bft)
23.06.2016 23:47 16,9 C 17,0 C 82 % 1017,0 hPa 0,0 mm 0,1 km/h (0 Bft) S-SO 159 0 min 0,000 mm 0,0 UV-I 0 W/m 13,8 C 1,6 km/h (1 Bft)
23.06.2016 23:48 16,9 C 16,9 C 82 % 1017,0 hPa 0,0 mm 0,0 km/h (0 Bft) S-SO 159 0 min 0,000 mm 0,0 UV-I 0 W/m 13,8 C 0,0 km/h (0 Bft)
23.06.2016 23:49 16,8 C 16,9 C 82 % 1017,0 hPa 0,0 mm 0,1 km/h (0 Bft) S-SO 159 0 min 0,000 mm 0,0 UV-I 0 W/m 13,7 C 1,6 km/h (1 Bft)
23.06.2016 23:50 16,7 C 16,8 C 82 % 1017,0 hPa 0,0 mm 0,0 km/h (0 Bft) S-SO 159 0 min 0,000 mm 0,0 UV-I 0 W/m 13,6 C 0,0 km/h (0 Bft)
23.06.2016 23:51 16,6 C 16,7 C 83 % 1017,0 hPa 0,0 mm 0,1 km/h (0 Bft) S-SO 159 0 min 0,000 mm 0,0 UV-I 0 W/m 13,7 C 1,6 km/h (1 Bft)
23.06.2016 23:52 16,6 C 16,6 C 83 % 1017,0 hPa 0,0 mm 0,0 km/h (0 Bft) S-SO 159 0 min 0,000 mm 0,0 UV-I 0 W/m 13,7 C 0,0 km/h (0 Bft)
23.06.2016 23:53 16,5 C 16,6 C 83 % 1017,0 hPa 0,0 mm 0,6 km/h (0 Bft) S-SO 159 0 min 0,000 mm 0,0 UV-I 0 W/m 13,6 C 1,6 km/h (1 Bft)
23.06.2016 23:54 16,4 C 16,5 C 84 % 1017,0 hPa 0,0 mm 0,5 km/h (0 Bft) S-SO 159 0 min 0,000 mm 0,0 UV-I 0 W/m 13,7 C 1,6 km/h (1 Bft)
23.06.2016 23:55 16,3 C 16,4 C 84 % 1017,0 hPa 0,0 mm 1,0 km/h (0 Bft) S-SO 159 0 min 0,000 mm 0,0 UV-I 0 W/m 13,6 C 1,6 km/h (1 Bft)
23.06.2016 23:56 16,3 C 16,3 C 83 % 1016,9 hPa 0,0 mm 0,1 km/h (0 Bft) S-SO 159 0 min 0,000 mm 0,0 UV-I 0 W/m 13,4 C 1,6 km/h (1 Bft)
23.06.2016 23:57 16,3 C 16,3 C 84 % 1017,0 hPa 0,0 mm 0,7 km/h (0 Bft) S-SO 159 0 min 0,000 mm 0,0 UV-I 0 W/m 13,6 C 1,6 km/h (1 Bft)
23.06.2016 23:58 16,3 C 16,3 C 84 % 1017,0 hPa 0,0 mm 0,0 km/h (0 Bft) S-SO 159 0 min 0,000 mm 0,0 UV-I 0 W/m 13,6 C 0,0 km/h (0 Bft)
23.06.2016 23:59 16,3 C 16,3 C 84 % 1017,0 hPa 0,0 mm 0,0 km/h (0 Bft) S-SO 159 0 min 0,000 mm 0,0 UV-I 0 W/m 13,6 C 0,0 km/h (0 Bft)
_ Min-Zeit 05:19 05:19 16:03 20:08 - 23:59 - - - - - - 05:17 23:59
Minimum _ 11,1 C 11,1 C 32 % 1016,8 hPa - 0,0 km/h (0 Bft) - - - - - - 10,3 C 0,0 km/h (0 Bft)
_ Max-Zeit 16:08 16:13 06:29 00:38 23:59 16:03 - - 15:17 15:06 13:34 13:02 11:39 14:49
Maximum _ 29,5 C 29,5 C 97 % 1021,8 hPa 0,0 mm 11,5 km/h
W-NW (2 Bft)
- - 5 min 0,635 mm 8,0 UV-I 937 W/m 18,3 C 19,3 km/h
NW (3 Bft)
Durchschnitt _ 21,4 C 21,4 C 68 % 1019,2 hPa #0,0 mm 2,0 km/h (1 Bft) NO - #7:26 h #5,055 mm 4,7 UV-I 306 W/m 14,1 C 3,4 km/h (1 Bft)